<?xml version="1.0" encoding="UTF-8" standalone="no" ?>
<gpx xmlns="http://www.topografix.com/GPX/1/1" xmlns:xsi="http://www.w3.org/2001/XMLSchema-instance" xsi:schemaLocation="http://www.topografix.com/GPX/1/1 http://www.topografix.com/GPX/1/1/gpx.xsd" version="1.1" creator="VisuGPX - https://www.visugpx.com">
  <metadata>
    <name>Pt l\'evêque</name>
    <desc><![CDATA[circuit séjour vtt]]></desc>
  </metadata>
  <wpt lat="49.22404" lon="0.18615">
    <ele>111.638062</ele>
    <name><![CDATA[001]]></name>
    <desc><![CDATA[31-JUL-08 8:50:42AM]]></desc>
    <cmt><![CDATA[31-JUL-08 8:50:42AM]]></cmt>
  </wpt>
  <wpt lat="49.20763" lon="0.19996">
    <ele>128.701294</ele>
    <name><![CDATA[002]]></name>
    <desc><![CDATA[31-JUL-08 9:02:41AM]]></desc>
    <cmt><![CDATA[31-JUL-08 9:02:41AM]]></cmt>
  </wpt>
  <wpt lat="49.23713" lon="0.16749">
    <ele>110.436401</ele>
    <name><![CDATA[003]]></name>
    <desc><![CDATA[31-JUL-08 9:28:22AM]]></desc>
    <cmt><![CDATA[31-JUL-08 9:28:22AM]]></cmt>
  </wpt>
  <wpt lat="49.24658" lon="0.14395">
    <ele>58.765747</ele>
    <name><![CDATA[004]]></name>
    <desc><![CDATA[31-JUL-08 9:45:43AM]]></desc>
    <cmt><![CDATA[31-JUL-08 9:45:43AM]]></cmt>
  </wpt>
  <trk>
    <name><![CDATA[ACTIVE LOG]]></name>
    <trkseg>
      <trkpt lat="49.28585" lon="0.18507">
        <ele>6.866455</ele>
        <time>2009-05-08T06:36:37Z</time>
      </trkpt>
      <trkpt lat="49.28592" lon="0.18504">
        <ele>7.347168</ele>
        <time>2009-05-08T06:36:42Z</time>
      </trkpt>
      <trkpt lat="49.28595" lon="0.18497">
        <ele>7.347168</ele>
        <time>2009-05-08T06:36:45Z</time>
      </trkpt>
      <trkpt lat="49.28582" lon="0.18465">
        <ele>8.789185</ele>
        <time>2009-05-08T06:36:51Z</time>
      </trkpt>
      <trkpt lat="49.28564" lon="0.18433">
        <ele>8.789185</ele>
        <time>2009-05-08T06:36:58Z</time>
      </trkpt>
      <trkpt lat="49.28549" lon="0.18406">
        <ele>9.269897</ele>
        <time>2009-05-08T06:37:04Z</time>
      </trkpt>
      <trkpt lat="49.28523" lon="0.18353">
        <ele>6.866455</ele>
        <time>2009-05-08T06:37:14Z</time>
      </trkpt>
      <trkpt lat="49.28513" lon="0.18337">
        <ele>5.905273</ele>
        <time>2009-05-08T06:37:17Z</time>
      </trkpt>
      <trkpt lat="49.28501" lon="0.18315">
        <ele>4.943848</ele>
        <time>2009-05-08T06:37:21Z</time>
      </trkpt>
      <trkpt lat="49.28479" lon="0.1827">
        <ele>3.982666</ele>
        <time>2009-05-08T06:37:29Z</time>
      </trkpt>
      <trkpt lat="49.28454" lon="0.18223">
        <ele>3.02124</ele>
        <time>2009-05-08T06:37:38Z</time>
      </trkpt>
      <trkpt lat="49.28451" lon="0.18218">
        <ele>2.540649</ele>
        <time>2009-05-08T06:37:39Z</time>
      </trkpt>
      <trkpt lat="49.28439" lon="0.18191">
        <ele>2.060059</ele>
        <time>2009-05-08T06:37:44Z</time>
      </trkpt>
      <trkpt lat="49.2843" lon="0.18177">
        <ele>2.060059</ele>
        <time>2009-05-08T06:37:47Z</time>
      </trkpt>
      <trkpt lat="49.28416" lon="0.18158">
        <ele>2.060059</ele>
        <time>2009-05-08T06:37:51Z</time>
      </trkpt>
      <trkpt lat="49.28391" lon="0.18133">
        <ele>2.060059</ele>
        <time>2009-05-08T06:37:58Z</time>
      </trkpt>
      <trkpt lat="49.28354" lon="0.18103">
        <ele>2.060059</ele>
        <time>2009-05-08T06:38:08Z</time>
      </trkpt>
      <trkpt lat="49.28333" lon="0.18083">
        <ele>1.579346</ele>
        <time>2009-05-08T06:38:16Z</time>
      </trkpt>
      <trkpt lat="49.28327" lon="0.18078">
        <ele>1.579346</ele>
        <time>2009-05-08T06:38:19Z</time>
      </trkpt>
      <trkpt lat="49.28323" lon="0.18078">
        <ele>2.540649</ele>
        <time>2009-05-08T06:38:26Z</time>
      </trkpt>
      <trkpt lat="49.28323" lon="0.18076">
        <ele>5.424561</ele>
        <time>2009-05-08T06:38:36Z</time>
      </trkpt>
      <trkpt lat="49.28312" lon="0.18065">
        <ele>5.424561</ele>
        <time>2009-05-08T06:38:42Z</time>
      </trkpt>
      <trkpt lat="49.28317" lon="0.18047">
        <ele>5.424561</ele>
        <time>2009-05-08T06:38:45Z</time>
      </trkpt>
      <trkpt lat="49.28345" lon="0.17987">
        <ele>4.463257</ele>
        <time>2009-05-08T06:38:54Z</time>
      </trkpt>
      <trkpt lat="49.28379" lon="0.17904">
        <ele>3.501953</ele>
        <time>2009-05-08T06:39:06Z</time>
      </trkpt>
      <trkpt lat="49.28407" lon="0.17839">
        <ele>3.02124</ele>
        <time>2009-05-08T06:39:16Z</time>
      </trkpt>
      <trkpt lat="49.28422" lon="0.17802">
        <ele>3.501953</ele>
        <time>2009-05-08T06:39:22Z</time>
      </trkpt>
      <trkpt lat="49.28437" lon="0.17734">
        <ele>4.943848</ele>
        <time>2009-05-08T06:39:32Z</time>
      </trkpt>
      <trkpt lat="49.28451" lon="0.17679">
        <ele>4.943848</ele>
        <time>2009-05-08T06:39:41Z</time>
      </trkpt>
      <trkpt lat="49.28466" lon="0.17614">
        <ele>4.463257</ele>
        <time>2009-05-08T06:39:52Z</time>
      </trkpt>
      <trkpt lat="49.28473" lon="0.17565">
        <ele>4.463257</ele>
        <time>2009-05-08T06:40:00Z</time>
      </trkpt>
      <trkpt lat="49.28472" lon="0.17533">
        <ele>4.943848</ele>
        <time>2009-05-08T06:40:05Z</time>
      </trkpt>
      <trkpt lat="49.28472" lon="0.1749">
        <ele>5.424561</ele>
        <time>2009-05-08T06:40:11Z</time>
      </trkpt>
      <trkpt lat="49.28467" lon="0.17449">
        <ele>5.424561</ele>
        <time>2009-05-08T06:40:16Z</time>
      </trkpt>
      <trkpt lat="49.28464" lon="0.17385">
        <ele>5.905273</ele>
        <time>2009-05-08T06:40:25Z</time>
      </trkpt>
      <trkpt lat="49.28463" lon="0.17364">
        <ele>5.424561</ele>
        <time>2009-05-08T06:40:28Z</time>
      </trkpt>
      <trkpt lat="49.28461" lon="0.17324">
        <ele>5.905273</ele>
        <time>2009-05-08T06:40:34Z</time>
      </trkpt>
      <trkpt lat="49.2846" lon="0.17295">
        <ele>5.424561</ele>
        <time>2009-05-08T06:40:38Z</time>
      </trkpt>
      <trkpt lat="49.28461" lon="0.1728">
        <ele>4.943848</ele>
        <time>2009-05-08T06:40:40Z</time>
      </trkpt>
      <trkpt lat="49.28466" lon="0.1725">
        <ele>4.943848</ele>
        <time>2009-05-08T06:40:44Z</time>
      </trkpt>
      <trkpt lat="49.28482" lon="0.17196">
        <ele>5.905273</ele>
        <time>2009-05-08T06:40:53Z</time>
      </trkpt>
      <trkpt lat="49.28488" lon="0.17177">
        <ele>5.424561</ele>
        <time>2009-05-08T06:40:56Z</time>
      </trkpt>
      <trkpt lat="49.28511" lon="0.17102">
        <ele>5.424561</ele>
        <time>2009-05-08T06:41:07Z</time>
      </trkpt>
      <trkpt lat="49.28533" lon="0.17033">
        <ele>5.424561</ele>
        <time>2009-05-08T06:41:17Z</time>
      </trkpt>
      <trkpt lat="49.28544" lon="0.16987">
        <ele>5.424561</ele>
        <time>2009-05-08T06:41:24Z</time>
      </trkpt>
      <trkpt lat="49.28547" lon="0.16974">
        <ele>5.424561</ele>
        <time>2009-05-08T06:41:26Z</time>
      </trkpt>
      <trkpt lat="49.28561" lon="0.16907">
        <ele>4.943848</ele>
        <time>2009-05-08T06:41:36Z</time>
      </trkpt>
      <trkpt lat="49.28577" lon="0.16831">
        <ele>5.905273</ele>
        <time>2009-05-08T06:41:47Z</time>
      </trkpt>
      <trkpt lat="49.28596" lon="0.1674">
        <ele>5.424561</ele>
        <time>2009-05-08T06:41:59Z</time>
      </trkpt>
      <trkpt lat="49.28615" lon="0.16658">
        <ele>4.943848</ele>
        <time>2009-05-08T06:42:10Z</time>
      </trkpt>
      <trkpt lat="49.28628" lon="0.1659">
        <ele>5.424561</ele>
        <time>2009-05-08T06:42:20Z</time>
      </trkpt>
      <trkpt lat="49.28632" lon="0.16527">
        <ele>5.424561</ele>
        <time>2009-05-08T06:42:29Z</time>
      </trkpt>
      <trkpt lat="49.28624" lon="0.16459">
        <ele>6.385864</ele>
        <time>2009-05-08T06:42:39Z</time>
      </trkpt>
      <trkpt lat="49.28612" lon="0.16399">
        <ele>6.385864</ele>
        <time>2009-05-08T06:42:48Z</time>
      </trkpt>
      <trkpt lat="49.28592" lon="0.1635">
        <ele>4.943848</ele>
        <time>2009-05-08T06:42:56Z</time>
      </trkpt>
      <trkpt lat="49.28568" lon="0.16298">
        <ele>4.943848</ele>
        <time>2009-05-08T06:43:05Z</time>
      </trkpt>
      <trkpt lat="49.28547" lon="0.16236">
        <ele>5.905273</ele>
        <time>2009-05-08T06:43:15Z</time>
      </trkpt>
      <trkpt lat="49.2854" lon="0.16203">
        <ele>5.905273</ele>
        <time>2009-05-08T06:43:20Z</time>
      </trkpt>
      <trkpt lat="49.28531" lon="0.16164">
        <ele>6.385864</ele>
        <time>2009-05-08T06:43:26Z</time>
      </trkpt>
      <trkpt lat="49.28539" lon="0.16142">
        <ele>6.385864</ele>
        <time>2009-05-08T06:43:30Z</time>
      </trkpt>
      <trkpt lat="49.2858" lon="0.16125">
        <ele>5.905273</ele>
        <time>2009-05-08T06:43:39Z</time>
      </trkpt>
      <trkpt lat="49.28585" lon="0.16124">
        <ele>5.905273</ele>
        <time>2009-05-08T06:43:40Z</time>
      </trkpt>
      <trkpt lat="49.28606" lon="0.16098">
        <ele>5.424561</ele>
        <time>2009-05-08T06:43:45Z</time>
      </trkpt>
      <trkpt lat="49.28611" lon="0.16082">
        <ele>5.424561</ele>
        <time>2009-05-08T06:43:47Z</time>
      </trkpt>
      <trkpt lat="49.28616" lon="0.16066">
        <ele>5.905273</ele>
        <time>2009-05-08T06:43:49Z</time>
      </trkpt>
      <trkpt lat="49.28627" lon="0.16035">
        <ele>5.905273</ele>
        <time>2009-05-08T06:43:53Z</time>
      </trkpt>
      <trkpt lat="49.28633" lon="0.16012">
        <ele>5.905273</ele>
        <time>2009-05-08T06:43:56Z</time>
      </trkpt>
      <trkpt lat="49.2866" lon="0.15926">
        <ele>5.424561</ele>
        <time>2009-05-08T06:44:07Z</time>
      </trkpt>
      <trkpt lat="49.28663" lon="0.15918">
        <ele>5.424561</ele>
        <time>2009-05-08T06:44:08Z</time>
      </trkpt>
      <trkpt lat="49.28676" lon="0.15881">
        <ele>5.424561</ele>
        <time>2009-05-08T06:44:13Z</time>
      </trkpt>
      <trkpt lat="49.2869" lon="0.15837">
        <ele>4.943848</ele>
        <time>2009-05-08T06:44:19Z</time>
      </trkpt>
      <trkpt lat="49.28692" lon="0.15797">
        <ele>4.943848</ele>
        <time>2009-05-08T06:44:24Z</time>
      </trkpt>
      <trkpt lat="49.28687" lon="0.15773">
        <ele>4.463257</ele>
        <time>2009-05-08T06:44:27Z</time>
      </trkpt>
      <trkpt lat="49.28687" lon="0.15741">
        <ele>3.982666</ele>
        <time>2009-05-08T06:44:31Z</time>
      </trkpt>
      <trkpt lat="49.28701" lon="0.15648">
        <ele>3.501953</ele>
        <time>2009-05-08T06:44:43Z</time>
      </trkpt>
      <trkpt lat="49.28715" lon="0.15564">
        <ele>2.060059</ele>
        <time>2009-05-08T06:44:54Z</time>
      </trkpt>
      <trkpt lat="49.28721" lon="0.15527">
        <ele>2.540649</ele>
        <time>2009-05-08T06:44:59Z</time>
      </trkpt>
      <trkpt lat="49.28735" lon="0.15453">
        <ele>3.02124</ele>
        <time>2009-05-08T06:45:09Z</time>
      </trkpt>
      <trkpt lat="49.28737" lon="0.1544">
        <ele>3.501953</ele>
        <time>2009-05-08T06:45:11Z</time>
      </trkpt>
      <trkpt lat="49.28729" lon="0.15426">
        <ele>4.943848</ele>
        <time>2009-05-08T06:45:15Z</time>
      </trkpt>
      <trkpt lat="49.28709" lon="0.15426">
        <ele>7.827881</ele>
        <time>2009-05-08T06:45:21Z</time>
      </trkpt>
      <trkpt lat="49.287" lon="0.15426">
        <ele>8.789185</ele>
        <time>2009-05-08T06:45:23Z</time>
      </trkpt>
      <trkpt lat="49.28689" lon="0.15425">
        <ele>10.711792</ele>
        <time>2009-05-08T06:45:26Z</time>
      </trkpt>
      <trkpt lat="49.28661" lon="0.15422">
        <ele>14.076416</ele>
        <time>2009-05-08T06:45:33Z</time>
      </trkpt>
      <trkpt lat="49.28637" lon="0.15422">
        <ele>16.960449</ele>
        <time>2009-05-08T06:45:39Z</time>
      </trkpt>
      <trkpt lat="49.28623" lon="0.15421">
        <ele>20.324951</ele>
        <time>2009-05-08T06:45:44Z</time>
      </trkpt>
      <trkpt lat="49.28612" lon="0.15418">
        <ele>24.651001</ele>
        <time>2009-05-08T06:45:49Z</time>
      </trkpt>
      <trkpt lat="49.28605" lon="0.15416">
        <ele>28.015503</ele>
        <time>2009-05-08T06:45:53Z</time>
      </trkpt>
      <trkpt lat="49.28594" lon="0.15416">
        <ele>31.860718</ele>
        <time>2009-05-08T06:45:58Z</time>
      </trkpt>
      <trkpt lat="49.28583" lon="0.15414">
        <ele>34.26416</ele>
        <time>2009-05-08T06:46:03Z</time>
      </trkpt>
      <trkpt lat="49.28571" lon="0.15408">
        <ele>36.66748</ele>
        <time>2009-05-08T06:46:09Z</time>
      </trkpt>
      <trkpt lat="49.28561" lon="0.15406">
        <ele>37.628662</ele>
        <time>2009-05-08T06:46:13Z</time>
      </trkpt>
      <trkpt lat="49.28547" lon="0.15402">
        <ele>39.070679</ele>
        <time>2009-05-08T06:46:20Z</time>
      </trkpt>
      <trkpt lat="49.28535" lon="0.15397">
        <ele>38.590088</ele>
        <time>2009-05-08T06:46:26Z</time>
      </trkpt>
      <trkpt lat="49.28526" lon="0.15392">
        <ele>39.55127</ele>
        <time>2009-05-08T06:46:31Z</time>
      </trkpt>
      <trkpt lat="49.28515" lon="0.15385">
        <ele>40.993408</ele>
        <time>2009-05-08T06:46:36Z</time>
      </trkpt>
      <trkpt lat="49.28501" lon="0.15378">
        <ele>42.916016</ele>
        <time>2009-05-08T06:46:43Z</time>
      </trkpt>
      <trkpt lat="49.28487" lon="0.15373">
        <ele>45.319214</ele>
        <time>2009-05-08T06:46:50Z</time>
      </trkpt>
      <trkpt lat="49.28475" lon="0.1537">
        <ele>46.28064</ele>
        <time>2009-05-08T06:46:56Z</time>
      </trkpt>
      <trkpt lat="49.28474" lon="0.15369">
        <ele>46.28064</ele>
        <time>2009-05-08T06:46:57Z</time>
      </trkpt>
      <trkpt lat="49.28466" lon="0.1536">
        <ele>46.28064</ele>
        <time>2009-05-08T06:47:01Z</time>
      </trkpt>
      <trkpt lat="49.2845" lon="0.1535">
        <ele>46.76123</ele>
        <time>2009-05-08T06:47:08Z</time>
      </trkpt>
      <trkpt lat="49.2844" lon="0.15345">
        <ele>47.241821</ele>
        <time>2009-05-08T06:47:12Z</time>
      </trkpt>
      <trkpt lat="49.28428" lon="0.15339">
        <ele>48.203369</ele>
        <time>2009-05-08T06:47:16Z</time>
      </trkpt>
      <trkpt lat="49.28405" lon="0.15333">
        <ele>50.125977</ele>
        <time>2009-05-08T06:47:23Z</time>
      </trkpt>
      <trkpt lat="49.2839" lon="0.15328">
        <ele>51.087158</ele>
        <time>2009-05-08T06:47:28Z</time>
      </trkpt>
      <trkpt lat="49.28376" lon="0.15322">
        <ele>52.529175</ele>
        <time>2009-05-08T06:47:33Z</time>
      </trkpt>
      <trkpt lat="49.28371" lon="0.15322">
        <ele>53.009766</ele>
        <time>2009-05-08T06:47:35Z</time>
      </trkpt>
      <trkpt lat="49.28362" lon="0.15328">
        <ele>52.048584</ele>
        <time>2009-05-08T06:47:41Z</time>
      </trkpt>
      <trkpt lat="49.28362" lon="0.15336">
        <ele>51.087158</ele>
        <time>2009-05-08T06:47:43Z</time>
      </trkpt>
      <trkpt lat="49.28361" lon="0.15365">
        <ele>47.241821</ele>
        <time>2009-05-08T06:47:48Z</time>
      </trkpt>
      <trkpt lat="49.28357" lon="0.15416">
        <ele>42.435425</ele>
        <time>2009-05-08T06:47:54Z</time>
      </trkpt>
      <trkpt lat="49.28355" lon="0.15425">
        <ele>41.473999</ele>
        <time>2009-05-08T06:47:55Z</time>
      </trkpt>
      <trkpt lat="49.28349" lon="0.15448">
        <ele>39.070679</ele>
        <time>2009-05-08T06:47:58Z</time>
      </trkpt>
      <trkpt lat="49.28343" lon="0.15472">
        <ele>36.186768</ele>
        <time>2009-05-08T06:48:01Z</time>
      </trkpt>
      <trkpt lat="49.28323" lon="0.15544">
        <ele>30.899536</ele>
        <time>2009-05-08T06:48:08Z</time>
      </trkpt>
      <trkpt lat="49.28316" lon="0.15579">
        <ele>28.976929</ele>
        <time>2009-05-08T06:48:11Z</time>
      </trkpt>
      <trkpt lat="49.28315" lon="0.15601">
        <ele>28.015503</ele>
        <time>2009-05-08T06:48:13Z</time>
      </trkpt>
      <trkpt lat="49.28316" lon="0.15624">
        <ele>26.573608</ele>
        <time>2009-05-08T06:48:15Z</time>
      </trkpt>
      <trkpt lat="49.28331" lon="0.15678">
        <ele>25.131714</ele>
        <time>2009-05-08T06:48:20Z</time>
      </trkpt>
      <trkpt lat="49.28365" lon="0.1576">
        <ele>18.883057</ele>
        <time>2009-05-08T06:48:28Z</time>
      </trkpt>
      <trkpt lat="49.28382" lon="0.15809">
        <ele>16.960449</ele>
        <time>2009-05-08T06:48:33Z</time>
      </trkpt>
      <trkpt lat="49.28385" lon="0.15835">
        <ele>15.03772</ele>
        <time>2009-05-08T06:48:37Z</time>
      </trkpt>
      <trkpt lat="49.28383" lon="0.15836">
        <ele>15.03772</ele>
        <time>2009-05-08T06:48:41Z</time>
      </trkpt>
      <trkpt lat="49.28385" lon="0.15851">
        <ele>14.076416</ele>
        <time>2009-05-08T06:48:47Z</time>
      </trkpt>
      <trkpt lat="49.28383" lon="0.15853">
        <ele>13.595825</ele>
        <time>2009-05-08T06:48:48Z</time>
      </trkpt>
      <trkpt lat="49.28371" lon="0.15866">
        <ele>12.634399</ele>
        <time>2009-05-08T06:48:53Z</time>
      </trkpt>
      <trkpt lat="49.28355" lon="0.1589">
        <ele>11.673218</ele>
        <time>2009-05-08T06:49:00Z</time>
      </trkpt>
      <trkpt lat="49.28353" lon="0.15892">
        <ele>11.673218</ele>
        <time>2009-05-08T06:49:01Z</time>
      </trkpt>
      <trkpt lat="49.28348" lon="0.159">
        <ele>11.673218</ele>
        <time>2009-05-08T06:49:05Z</time>
      </trkpt>
      <trkpt lat="49.28345" lon="0.15909">
        <ele>11.673218</ele>
        <time>2009-05-08T06:49:08Z</time>
      </trkpt>
      <trkpt lat="49.28337" lon="0.15921">
        <ele>11.673218</ele>
        <time>2009-05-08T06:49:13Z</time>
      </trkpt>
      <trkpt lat="49.28328" lon="0.15937">
        <ele>11.673218</ele>
        <time>2009-05-08T06:49:19Z</time>
      </trkpt>
      <trkpt lat="49.28324" lon="0.15941">
        <ele>11.192505</ele>
        <time>2009-05-08T06:49:21Z</time>
      </trkpt>
      <trkpt lat="49.28319" lon="0.15958">
        <ele>11.673218</ele>
        <time>2009-05-08T06:49:25Z</time>
      </trkpt>
      <trkpt lat="49.28312" lon="0.15983">
        <ele>11.673218</ele>
        <time>2009-05-08T06:49:32Z</time>
      </trkpt>
      <trkpt lat="49.28307" lon="0.16007">
        <ele>10.711792</ele>
        <time>2009-05-08T06:49:38Z</time>
      </trkpt>
      <trkpt lat="49.28303" lon="0.16023">
        <ele>10.711792</ele>
        <time>2009-05-08T06:49:42Z</time>
      </trkpt>
      <trkpt lat="49.283" lon="0.16036">
        <ele>12.153809</ele>
        <time>2009-05-08T06:49:46Z</time>
      </trkpt>
      <trkpt lat="49.28292" lon="0.16051">
        <ele>15.03772</ele>
        <time>2009-05-08T06:49:53Z</time>
      </trkpt>
      <trkpt lat="49.28286" lon="0.16061">
        <ele>15.999023</ele>
        <time>2009-05-08T06:49:58Z</time>
      </trkpt>
      <trkpt lat="49.28283" lon="0.16066">
        <ele>16.479736</ele>
        <time>2009-05-08T06:50:01Z</time>
      </trkpt>
      <trkpt lat="49.28279" lon="0.16076">
        <ele>17.921753</ele>
        <time>2009-05-08T06:50:08Z</time>
      </trkpt>
      <trkpt lat="49.28279" lon="0.1608">
        <ele>18.402344</ele>
        <time>2009-05-08T06:50:11Z</time>
      </trkpt>
      <trkpt lat="49.28274" lon="0.16088">
        <ele>20.805664</ele>
        <time>2009-05-08T06:50:19Z</time>
      </trkpt>
      <trkpt lat="49.28268" lon="0.16091">
        <ele>21.766968</ele>
        <time>2009-05-08T06:50:25Z</time>
      </trkpt>
      <trkpt lat="49.28263" lon="0.16101">
        <ele>23.689575</ele>
        <time>2009-05-08T06:50:33Z</time>
      </trkpt>
      <trkpt lat="49.28259" lon="0.16109">
        <ele>24.651001</ele>
        <time>2009-05-08T06:50:40Z</time>
      </trkpt>
      <trkpt lat="49.28256" lon="0.1612">
        <ele>25.131714</ele>
        <time>2009-05-08T06:50:47Z</time>
      </trkpt>
      <trkpt lat="49.28253" lon="0.16128">
        <ele>25.612305</ele>
        <time>2009-05-08T06:50:54Z</time>
      </trkpt>
      <trkpt lat="49.28251" lon="0.16137">
        <ele>27.534912</ele>
        <time>2009-05-08T06:51:01Z</time>
      </trkpt>
      <trkpt lat="49.28249" lon="0.16145">
        <ele>29.45752</ele>
        <time>2009-05-08T06:51:07Z</time>
      </trkpt>
      <trkpt lat="49.28245" lon="0.16155">
        <ele>30.418823</ele>
        <time>2009-05-08T06:51:14Z</time>
      </trkpt>
      <trkpt lat="49.28241" lon="0.16166">
        <ele>32.341553</ele>
        <time>2009-05-08T06:51:21Z</time>
      </trkpt>
      <trkpt lat="49.28238" lon="0.16171">
        <ele>32.341553</ele>
        <time>2009-05-08T06:51:29Z</time>
      </trkpt>
      <trkpt lat="49.28235" lon="0.16176">
        <ele>32.822266</ele>
        <time>2009-05-08T06:51:34Z</time>
      </trkpt>
      <trkpt lat="49.28233" lon="0.16184">
        <ele>32.822266</ele>
        <time>2009-05-08T06:51:40Z</time>
      </trkpt>
      <trkpt lat="49.28231" lon="0.1619">
        <ele>33.302856</ele>
        <time>2009-05-08T06:51:46Z</time>
      </trkpt>
      <trkpt lat="49.28227" lon="0.16199">
        <ele>33.783447</ele>
        <time>2009-05-08T06:51:53Z</time>
      </trkpt>
      <trkpt lat="49.28224" lon="0.16206">
        <ele>34.744873</ele>
        <time>2009-05-08T06:51:58Z</time>
      </trkpt>
      <trkpt lat="49.28218" lon="0.16219">
        <ele>36.186768</ele>
        <time>2009-05-08T06:52:08Z</time>
      </trkpt>
      <trkpt lat="49.28217" lon="0.16221">
        <ele>36.66748</ele>
        <time>2009-05-08T06:52:14Z</time>
      </trkpt>
      <trkpt lat="49.28215" lon="0.16223">
        <ele>36.66748</ele>
        <time>2009-05-08T06:52:16Z</time>
      </trkpt>
      <trkpt lat="49.2821" lon="0.16242">
        <ele>38.590088</ele>
        <time>2009-05-08T06:52:24Z</time>
      </trkpt>
      <trkpt lat="49.28205" lon="0.16257">
        <ele>39.55127</ele>
        <time>2009-05-08T06:52:30Z</time>
      </trkpt>
      <trkpt lat="49.28201" lon="0.16267">
        <ele>40.512817</ele>
        <time>2009-05-08T06:52:34Z</time>
      </trkpt>
      <trkpt lat="49.28199" lon="0.16281">
        <ele>41.954712</ele>
        <time>2009-05-08T06:52:40Z</time>
      </trkpt>
      <trkpt lat="49.28198" lon="0.16285">
        <ele>42.435425</ele>
        <time>2009-05-08T06:52:42Z</time>
      </trkpt>
      <trkpt lat="49.28195" lon="0.16295">
        <ele>43.396606</ele>
        <time>2009-05-08T06:52:46Z</time>
      </trkpt>
      <trkpt lat="49.28193" lon="0.16304">
        <ele>43.396606</ele>
        <time>2009-05-08T06:52:50Z</time>
      </trkpt>
      <trkpt lat="49.28192" lon="0.16316">
        <ele>43.396606</ele>
        <time>2009-05-08T06:52:56Z</time>
      </trkpt>
      <trkpt lat="49.28187" lon="0.16334">
        <ele>43.396606</ele>
        <time>2009-05-08T06:53:03Z</time>
      </trkpt>
      <trkpt lat="49.28184" lon="0.16339">
        <ele>42.435425</ele>
        <time>2009-05-08T06:53:08Z</time>
      </trkpt>
      <trkpt lat="49.28182" lon="0.16342">
        <ele>42.435425</ele>
        <time>2009-05-08T06:53:28Z</time>
      </trkpt>
      <trkpt lat="49.2818" lon="0.1635">
        <ele>42.916016</ele>
        <time>2009-05-08T06:53:32Z</time>
      </trkpt>
      <trkpt lat="49.28175" lon="0.16362">
        <ele>43.396606</ele>
        <time>2009-05-08T06:53:36Z</time>
      </trkpt>
      <trkpt lat="49.28168" lon="0.16384">
        <ele>44.358032</ele>
        <time>2009-05-08T06:53:43Z</time>
      </trkpt>
      <trkpt lat="49.28161" lon="0.16399">
        <ele>44.838623</ele>
        <time>2009-05-08T06:53:48Z</time>
      </trkpt>
      <trkpt lat="49.28152" lon="0.16419">
        <ele>45.319214</ele>
        <time>2009-05-08T06:53:56Z</time>
      </trkpt>
      <trkpt lat="49.28138" lon="0.16431">
        <ele>44.838623</ele>
        <time>2009-05-08T06:54:02Z</time>
      </trkpt>
      <trkpt lat="49.28128" lon="0.16435">
        <ele>44.358032</ele>
        <time>2009-05-08T06:54:05Z</time>
      </trkpt>
      <trkpt lat="49.28112" lon="0.16449">
        <ele>41.954712</ele>
        <time>2009-05-08T06:54:09Z</time>
      </trkpt>
      <trkpt lat="49.28098" lon="0.1647">
        <ele>40.032104</ele>
        <time>2009-05-08T06:54:14Z</time>
      </trkpt>
      <trkpt lat="49.28088" lon="0.16489">
        <ele>38.590088</ele>
        <time>2009-05-08T06:54:18Z</time>
      </trkpt>
      <trkpt lat="49.28074" lon="0.16533">
        <ele>37.628662</ele>
        <time>2009-05-08T06:54:26Z</time>
      </trkpt>
      <trkpt lat="49.28066" lon="0.16555">
        <ele>39.070679</ele>
        <time>2009-05-08T06:54:32Z</time>
      </trkpt>
      <trkpt lat="49.28064" lon="0.16557">
        <ele>39.070679</ele>
        <time>2009-05-08T06:54:33Z</time>
      </trkpt>
      <trkpt lat="49.28056" lon="0.16582">
        <ele>39.55127</ele>
        <time>2009-05-08T06:54:40Z</time>
      </trkpt>
      <trkpt lat="49.28056" lon="0.16605">
        <ele>39.55127</ele>
        <time>2009-05-08T06:54:47Z</time>
      </trkpt>
      <trkpt lat="49.28056" lon="0.16625">
        <ele>40.512817</ele>
        <time>2009-05-08T06:54:52Z</time>
      </trkpt>
      <trkpt lat="49.28059" lon="0.16658">
        <ele>41.473999</ele>
        <time>2009-05-08T06:54:58Z</time>
      </trkpt>
      <trkpt lat="49.28059" lon="0.16679">
        <ele>41.954712</ele>
        <time>2009-05-08T06:55:01Z</time>
      </trkpt>
      <trkpt lat="49.28059" lon="0.16714">
        <ele>43.396606</ele>
        <time>2009-05-08T06:55:07Z</time>
      </trkpt>
      <trkpt lat="49.2806" lon="0.16732">
        <ele>44.358032</ele>
        <time>2009-05-08T06:55:10Z</time>
      </trkpt>
      <trkpt lat="49.2806" lon="0.16754">
        <ele>45.799927</ele>
        <time>2009-05-08T06:55:13Z</time>
      </trkpt>
      <trkpt lat="49.28064" lon="0.16796">
        <ele>48.203369</ele>
        <time>2009-05-08T06:55:19Z</time>
      </trkpt>
      <trkpt lat="49.28067" lon="0.16812">
        <ele>49.164551</ele>
        <time>2009-05-08T06:55:22Z</time>
      </trkpt>
      <trkpt lat="49.28069" lon="0.16839">
        <ele>49.645264</ele>
        <time>2009-05-08T06:55:26Z</time>
      </trkpt>
      <trkpt lat="49.28066" lon="0.16865">
        <ele>49.645264</ele>
        <time>2009-05-08T06:55:30Z</time>
      </trkpt>
      <trkpt lat="49.28065" lon="0.16875">
        <ele>49.645264</ele>
        <time>2009-05-08T06:55:32Z</time>
      </trkpt>
      <trkpt lat="49.2806" lon="0.16899">
        <ele>50.125977</ele>
        <time>2009-05-08T06:55:37Z</time>
      </trkpt>
      <trkpt lat="49.28054" lon="0.16932">
        <ele>50.606567</ele>
        <time>2009-05-08T06:55:44Z</time>
      </trkpt>
      <trkpt lat="49.28049" lon="0.16954">
        <ele>50.606567</ele>
        <time>2009-05-08T06:55:49Z</time>
      </trkpt>
      <trkpt lat="49.28045" lon="0.16972">
        <ele>52.048584</ele>
        <time>2009-05-08T06:55:53Z</time>
      </trkpt>
      <trkpt lat="49.28036" lon="0.1701">
        <ele>53.490479</ele>
        <time>2009-05-08T06:56:00Z</time>
      </trkpt>
      <trkpt lat="49.28026" lon="0.17046">
        <ele>53.490479</ele>
        <time>2009-05-08T06:56:07Z</time>
      </trkpt>
      <trkpt lat="49.28019" lon="0.17075">
        <ele>52.048584</ele>
        <time>2009-05-08T06:56:13Z</time>
      </trkpt>
      <trkpt lat="49.28011" lon="0.17096">
        <ele>50.606567</ele>
        <time>2009-05-08T06:56:18Z</time>
      </trkpt>
      <trkpt lat="49.28004" lon="0.17128">
        <ele>49.645264</ele>
        <time>2009-05-08T06:56:25Z</time>
      </trkpt>
      <trkpt lat="49.27996" lon="0.1717">
        <ele>53.009766</ele>
        <time>2009-05-08T06:56:33Z</time>
      </trkpt>
      <trkpt lat="49.27991" lon="0.1721">
        <ele>53.490479</ele>
        <time>2009-05-08T06:56:40Z</time>
      </trkpt>
      <trkpt lat="49.27986" lon="0.17243">
        <ele>53.490479</ele>
        <time>2009-05-08T06:56:46Z</time>
      </trkpt>
      <trkpt lat="49.27977" lon="0.1728">
        <ele>53.971191</ele>
        <time>2009-05-08T06:56:53Z</time>
      </trkpt>
      <trkpt lat="49.27971" lon="0.17305">
        <ele>54.932373</ele>
        <time>2009-05-08T06:56:58Z</time>
      </trkpt>
      <trkpt lat="49.27965" lon="0.17355">
        <ele>55.413086</ele>
        <time>2009-05-08T06:57:06Z</time>
      </trkpt>
      <trkpt lat="49.27965" lon="0.17374">
        <ele>55.893799</ele>
        <time>2009-05-08T06:57:09Z</time>
      </trkpt>
      <trkpt lat="49.27968" lon="0.17418">
        <ele>55.893799</ele>
        <time>2009-05-08T06:57:16Z</time>
      </trkpt>
      <trkpt lat="49.27969" lon="0.17424">
        <ele>55.413086</ele>
        <time>2009-05-08T06:57:17Z</time>
      </trkpt>
      <trkpt lat="49.27976" lon="0.17467">
        <ele>54.451782</ele>
        <time>2009-05-08T06:57:24Z</time>
      </trkpt>
      <trkpt lat="49.27987" lon="0.17501">
        <ele>54.451782</ele>
        <time>2009-05-08T06:57:30Z</time>
      </trkpt>
      <trkpt lat="49.2799" lon="0.17512">
        <ele>53.971191</ele>
        <time>2009-05-08T06:57:32Z</time>
      </trkpt>
      <trkpt lat="49.27994" lon="0.17538">
        <ele>53.971191</ele>
        <time>2009-05-08T06:57:36Z</time>
      </trkpt>
      <trkpt lat="49.28" lon="0.17578">
        <ele>51.567871</ele>
        <time>2009-05-08T06:57:42Z</time>
      </trkpt>
      <trkpt lat="49.28001" lon="0.17607">
        <ele>50.125977</ele>
        <time>2009-05-08T06:57:46Z</time>
      </trkpt>
      <trkpt lat="49.27999" lon="0.1764">
        <ele>49.164551</ele>
        <time>2009-05-08T06:57:50Z</time>
      </trkpt>
      <trkpt lat="49.27998" lon="0.17663">
        <ele>47.241821</ele>
        <time>2009-05-08T06:57:53Z</time>
      </trkpt>
      <trkpt lat="49.2799" lon="0.17668">
        <ele>44.838623</ele>
        <time>2009-05-08T06:57:58Z</time>
      </trkpt>
      <trkpt lat="49.27971" lon="0.17641">
        <ele>45.319214</ele>
        <time>2009-05-08T06:58:06Z</time>
      </trkpt>
      <trkpt lat="49.27947" lon="0.17612">
        <ele>46.28064</ele>
        <time>2009-05-08T06:58:14Z</time>
      </trkpt>
      <trkpt lat="49.2792" lon="0.17578">
        <ele>46.76123</ele>
        <time>2009-05-08T06:58:23Z</time>
      </trkpt>
      <trkpt lat="49.27908" lon="0.17564">
        <ele>46.28064</ele>
        <time>2009-05-08T06:58:29Z</time>
      </trkpt>
      <trkpt lat="49.2789" lon="0.17545">
        <ele>48.203369</ele>
        <time>2009-05-08T06:58:36Z</time>
      </trkpt>
      <trkpt lat="49.27867" lon="0.17515">
        <ele>49.164551</ele>
        <time>2009-05-08T06:58:44Z</time>
      </trkpt>
      <trkpt lat="49.27839" lon="0.1748">
        <ele>49.164551</ele>
        <time>2009-05-08T06:58:53Z</time>
      </trkpt>
      <trkpt lat="49.27818" lon="0.17457">
        <ele>49.645264</ele>
        <time>2009-05-08T06:59:00Z</time>
      </trkpt>
      <trkpt lat="49.27793" lon="0.1743">
        <ele>51.087158</ele>
        <time>2009-05-08T06:59:08Z</time>
      </trkpt>
      <trkpt lat="49.27776" lon="0.17409">
        <ele>52.529175</ele>
        <time>2009-05-08T06:59:14Z</time>
      </trkpt>
      <trkpt lat="49.27754" lon="0.17381">
        <ele>53.971191</ele>
        <time>2009-05-08T06:59:22Z</time>
      </trkpt>
      <trkpt lat="49.27735" lon="0.17358">
        <ele>55.413086</ele>
        <time>2009-05-08T06:59:29Z</time>
      </trkpt>
      <trkpt lat="49.27712" lon="0.17331">
        <ele>56.374512</ele>
        <time>2009-05-08T06:59:37Z</time>
      </trkpt>
      <trkpt lat="49.27684" lon="0.17295">
        <ele>57.816528</ele>
        <time>2009-05-08T06:59:47Z</time>
      </trkpt>
      <trkpt lat="49.27653" lon="0.17258">
        <ele>60.219727</ele>
        <time>2009-05-08T06:59:57Z</time>
      </trkpt>
      <trkpt lat="49.27624" lon="0.17225">
        <ele>61.18103</ele>
        <time>2009-05-08T07:00:06Z</time>
      </trkpt>
      <trkpt lat="49.27601" lon="0.17198">
        <ele>62.622925</ele>
        <time>2009-05-08T07:00:13Z</time>
      </trkpt>
      <trkpt lat="49.2758" lon="0.17171">
        <ele>63.584351</ele>
        <time>2009-05-08T07:00:20Z</time>
      </trkpt>
      <trkpt lat="49.2757" lon="0.17158">
        <ele>63.584351</ele>
        <time>2009-05-08T07:00:23Z</time>
      </trkpt>
      <trkpt lat="49.27558" lon="0.17147">
        <ele>63.584351</ele>
        <time>2009-05-08T07:00:26Z</time>
      </trkpt>
      <trkpt lat="49.27531" lon="0.17122">
        <ele>63.584351</ele>
        <time>2009-05-08T07:00:32Z</time>
      </trkpt>
      <trkpt lat="49.27527" lon="0.17117">
        <ele>63.584351</ele>
        <time>2009-05-08T07:00:33Z</time>
      </trkpt>
      <trkpt lat="49.27505" lon="0.17117">
        <ele>62.622925</ele>
        <time>2009-05-08T07:00:38Z</time>
      </trkpt>
      <trkpt lat="49.27486" lon="0.17119">
        <ele>61.661743</ele>
        <time>2009-05-08T07:00:43Z</time>
      </trkpt>
      <trkpt lat="49.27471" lon="0.17119">
        <ele>60.219727</ele>
        <time>2009-05-08T07:00:48Z</time>
      </trkpt>
      <trkpt lat="49.27456" lon="0.17116">
        <ele>57.816528</ele>
        <time>2009-05-08T07:00:53Z</time>
      </trkpt>
      <trkpt lat="49.27443" lon="0.17117">
        <ele>55.893799</ele>
        <time>2009-05-08T07:00:58Z</time>
      </trkpt>
      <trkpt lat="49.27437" lon="0.17119">
        <ele>54.932373</ele>
        <time>2009-05-08T07:01:01Z</time>
      </trkpt>
      <trkpt lat="49.27425" lon="0.17122">
        <ele>54.451782</ele>
        <time>2009-05-08T07:01:05Z</time>
      </trkpt>
      <trkpt lat="49.27416" lon="0.17122">
        <ele>53.009766</ele>
        <time>2009-05-08T07:01:09Z</time>
      </trkpt>
      <trkpt lat="49.27404" lon="0.1712">
        <ele>52.048584</ele>
        <time>2009-05-08T07:01:14Z</time>
      </trkpt>
      <trkpt lat="49.27394" lon="0.17115">
        <ele>53.009766</ele>
        <time>2009-05-08T07:01:19Z</time>
      </trkpt>
      <trkpt lat="49.27385" lon="0.17115">
        <ele>54.932373</ele>
        <time>2009-05-08T07:01:24Z</time>
      </trkpt>
      <trkpt lat="49.27383" lon="0.17112">
        <ele>55.413086</ele>
        <time>2009-05-08T07:01:26Z</time>
      </trkpt>
      <trkpt lat="49.27372" lon="0.17111">
        <ele>58.297119</ele>
        <time>2009-05-08T07:01:32Z</time>
      </trkpt>
      <trkpt lat="49.2737" lon="0.17111">
        <ele>58.77771</ele>
        <time>2009-05-08T07:01:33Z</time>
      </trkpt>
      <trkpt lat="49.2736" lon="0.17107">
        <ele>60.219727</ele>
        <time>2009-05-08T07:01:39Z</time>
      </trkpt>
      <trkpt lat="49.27349" lon="0.17097">
        <ele>64.065063</ele>
        <time>2009-05-08T07:01:45Z</time>
      </trkpt>
      <trkpt lat="49.27339" lon="0.17092">
        <ele>67.429688</ele>
        <time>2009-05-08T07:01:50Z</time>
      </trkpt>
      <trkpt lat="49.27333" lon="0.17088">
        <ele>69.352295</ele>
        <time>2009-05-08T07:01:54Z</time>
      </trkpt>
      <trkpt lat="49.27316" lon="0.17081">
        <ele>70.313477</ele>
        <time>2009-05-08T07:02:01Z</time>
      </trkpt>
      <trkpt lat="49.27308" lon="0.17076">
        <ele>70.794189</ele>
        <time>2009-05-08T07:02:05Z</time>
      </trkpt>
      <trkpt lat="49.27287" lon="0.17068">
        <ele>72.716919</ele>
        <time>2009-05-08T07:02:14Z</time>
      </trkpt>
      <trkpt lat="49.27274" lon="0.17068">
        <ele>69.832886</ele>
        <time>2009-05-08T07:02:20Z</time>
      </trkpt>
      <trkpt lat="49.27271" lon="0.17069">
        <ele>68.871582</ele>
        <time>2009-05-08T07:02:26Z</time>
      </trkpt>
      <trkpt lat="49.27265" lon="0.17066">
        <ele>64.545654</ele>
        <time>2009-05-08T07:02:46Z</time>
      </trkpt>
      <trkpt lat="49.27264" lon="0.17067">
        <ele>64.065063</ele>
        <time>2009-05-08T07:02:47Z</time>
      </trkpt>
      <trkpt lat="49.27242" lon="0.17065">
        <ele>61.18103</ele>
        <time>2009-05-08T07:02:54Z</time>
      </trkpt>
      <trkpt lat="49.27232" lon="0.17061">
        <ele>59.258423</ele>
        <time>2009-05-08T07:02:58Z</time>
      </trkpt>
      <trkpt lat="49.2722" lon="0.17059">
        <ele>57.816528</ele>
        <time>2009-05-08T07:03:05Z</time>
      </trkpt>
      <trkpt lat="49.27217" lon="0.17059">
        <ele>57.816528</ele>
        <time>2009-05-08T07:03:06Z</time>
      </trkpt>
      <trkpt lat="49.27206" lon="0.17055">
        <ele>58.297119</ele>
        <time>2009-05-08T07:03:11Z</time>
      </trkpt>
      <trkpt lat="49.27199" lon="0.17053">
        <ele>58.77771</ele>
        <time>2009-05-08T07:03:16Z</time>
      </trkpt>
      <trkpt lat="49.27197" lon="0.17054">
        <ele>58.297119</ele>
        <time>2009-05-08T07:03:23Z</time>
      </trkpt>
      <trkpt lat="49.27192" lon="0.17057">
        <ele>59.258423</ele>
        <time>2009-05-08T07:03:30Z</time>
      </trkpt>
      <trkpt lat="49.27191" lon="0.17058">
        <ele>58.77771</ele>
        <time>2009-05-08T07:03:32Z</time>
      </trkpt>
      <trkpt lat="49.27188" lon="0.17059">
        <ele>57.335815</ele>
        <time>2009-05-08T07:03:35Z</time>
      </trkpt>
      <trkpt lat="49.27185" lon="0.17057">
        <ele>56.855103</ele>
        <time>2009-05-08T07:03:37Z</time>
      </trkpt>
      <trkpt lat="49.27183" lon="0.17053">
        <ele>54.932373</ele>
        <time>2009-05-08T07:03:44Z</time>
      </trkpt>
      <trkpt lat="49.2718" lon="0.17051">
        <ele>53.971191</ele>
        <time>2009-05-08T07:03:50Z</time>
      </trkpt>
      <trkpt lat="49.27178" lon="0.17051">
        <ele>53.490479</ele>
        <time>2009-05-08T07:03:52Z</time>
      </trkpt>
      <trkpt lat="49.27175" lon="0.1705">
        <ele>53.971191</ele>
        <time>2009-05-08T07:03:58Z</time>
      </trkpt>
      <trkpt lat="49.27169" lon="0.17043">
        <ele>53.490479</ele>
        <time>2009-05-08T07:04:32Z</time>
      </trkpt>
      <trkpt lat="49.27168" lon="0.17042">
        <ele>53.971191</ele>
        <time>2009-05-08T07:04:33Z</time>
      </trkpt>
      <trkpt lat="49.27161" lon="0.17038">
        <ele>54.451782</ele>
        <time>2009-05-08T07:04:36Z</time>
      </trkpt>
      <trkpt lat="49.2715" lon="0.17027">
        <ele>56.855103</ele>
        <time>2009-05-08T07:04:42Z</time>
      </trkpt>
      <trkpt lat="49.27147" lon="0.17019">
        <ele>57.335815</ele>
        <time>2009-05-08T07:04:45Z</time>
      </trkpt>
      <trkpt lat="49.27132" lon="0.17013">
        <ele>58.297119</ele>
        <time>2009-05-08T07:04:50Z</time>
      </trkpt>
      <trkpt lat="49.27112" lon="0.17002">
        <ele>60.219727</ele>
        <time>2009-05-08T07:04:57Z</time>
      </trkpt>
      <trkpt lat="49.27106" lon="0.16999">
        <ele>61.18103</ele>
        <time>2009-05-08T07:04:59Z</time>
      </trkpt>
      <trkpt lat="49.27091" lon="0.16988">
        <ele>65.50708</ele>
        <time>2009-05-08T07:05:05Z</time>
      </trkpt>
      <trkpt lat="49.27088" lon="0.16986">
        <ele>66.468262</ele>
        <time>2009-05-08T07:05:06Z</time>
      </trkpt>
      <trkpt lat="49.27066" lon="0.16975">
        <ele>69.352295</ele>
        <time>2009-05-08T07:05:13Z</time>
      </trkpt>
      <trkpt lat="49.27045" lon="0.16965">
        <ele>70.794189</ele>
        <time>2009-05-08T07:05:20Z</time>
      </trkpt>
      <trkpt lat="49.27027" lon="0.16958">
        <ele>71.755493</ele>
        <time>2009-05-08T07:05:26Z</time>
      </trkpt>
      <trkpt lat="49.27008" lon="0.16953">
        <ele>71.274902</ele>
        <time>2009-05-08T07:05:33Z</time>
      </trkpt>
      <trkpt lat="49.26992" lon="0.16949">
        <ele>70.313477</ele>
        <time>2009-05-08T07:05:39Z</time>
      </trkpt>
      <trkpt lat="49.26974" lon="0.16945">
        <ele>69.352295</ele>
        <time>2009-05-08T07:05:45Z</time>
      </trkpt>
      <trkpt lat="49.26953" lon="0.16936">
        <ele>68.871582</ele>
        <time>2009-05-08T07:05:52Z</time>
      </trkpt>
      <trkpt lat="49.26951" lon="0.16919">
        <ele>67.910278</ele>
        <time>2009-05-08T07:05:56Z</time>
      </trkpt>
      <trkpt lat="49.26966" lon="0.16878">
        <ele>64.065063</ele>
        <time>2009-05-08T07:06:06Z</time>
      </trkpt>
      <trkpt lat="49.26981" lon="0.16838">
        <ele>64.545654</ele>
        <time>2009-05-08T07:06:16Z</time>
      </trkpt>
      <trkpt lat="49.2699" lon="0.16809">
        <ele>66.468262</ele>
        <time>2009-05-08T07:06:24Z</time>
      </trkpt>
      <trkpt lat="49.26995" lon="0.16787">
        <ele>67.910278</ele>
        <time>2009-05-08T07:06:30Z</time>
      </trkpt>
      <trkpt lat="49.27003" lon="0.16754">
        <ele>67.910278</ele>
        <time>2009-05-08T07:06:39Z</time>
      </trkpt>
      <trkpt lat="49.27013" lon="0.16726">
        <ele>68.390869</ele>
        <time>2009-05-08T07:06:47Z</time>
      </trkpt>
      <trkpt lat="49.27023" lon="0.16708">
        <ele>68.871582</ele>
        <time>2009-05-08T07:06:53Z</time>
      </trkpt>
      <trkpt lat="49.27025" lon="0.16705">
        <ele>68.871582</ele>
        <time>2009-05-08T07:06:54Z</time>
      </trkpt>
      <trkpt lat="49.2702" lon="0.16694">
        <ele>69.832886</ele>
        <time>2009-05-08T07:06:59Z</time>
      </trkpt>
      <trkpt lat="49.27009" lon="0.16684">
        <ele>71.274902</ele>
        <time>2009-05-08T07:07:04Z</time>
      </trkpt>
      <trkpt lat="49.27" lon="0.16676">
        <ele>71.755493</ele>
        <time>2009-05-08T07:07:08Z</time>
      </trkpt>
      <trkpt lat="49.26975" lon="0.16657">
        <ele>75.120239</ele>
        <time>2009-05-08T07:07:17Z</time>
      </trkpt>
      <trkpt lat="49.26954" lon="0.16643">
        <ele>76.562134</ele>
        <time>2009-05-08T07:07:24Z</time>
      </trkpt>
      <trkpt lat="49.26934" lon="0.16631">
        <ele>76.562134</ele>
        <time>2009-05-08T07:07:31Z</time>
      </trkpt>
      <trkpt lat="49.2692" lon="0.16626">
        <ele>76.562134</ele>
        <time>2009-05-08T07:07:36Z</time>
      </trkpt>
      <trkpt lat="49.26896" lon="0.16618">
        <ele>77.523438</ele>
        <time>2009-05-08T07:07:44Z</time>
      </trkpt>
      <trkpt lat="49.26879" lon="0.16607">
        <ele>80.407471</ele>
        <time>2009-05-08T07:07:51Z</time>
      </trkpt>
      <trkpt lat="49.26865" lon="0.16595">
        <ele>82.330078</ele>
        <time>2009-05-08T07:07:57Z</time>
      </trkpt>
      <trkpt lat="49.2686" lon="0.1659">
        <ele>82.330078</ele>
        <time>2009-05-08T07:07:59Z</time>
      </trkpt>
      <trkpt lat="49.26849" lon="0.16584">
        <ele>83.291382</ele>
        <time>2009-05-08T07:08:05Z</time>
      </trkpt>
      <trkpt lat="49.26848" lon="0.16583">
        <ele>83.771973</ele>
        <time>2009-05-08T07:08:06Z</time>
      </trkpt>
      <trkpt lat="49.26836" lon="0.16569">
        <ele>84.733398</ele>
        <time>2009-05-08T07:08:12Z</time>
      </trkpt>
      <trkpt lat="49.26832" lon="0.16565">
        <ele>85.69458</ele>
        <time>2009-05-08T07:08:13Z</time>
      </trkpt>
      <trkpt lat="49.26808" lon="0.16544">
        <ele>86.656006</ele>
        <time>2009-05-08T07:08:19Z</time>
      </trkpt>
      <trkpt lat="49.26796" lon="0.16532">
        <ele>87.617188</ele>
        <time>2009-05-08T07:08:22Z</time>
      </trkpt>
      <trkpt lat="49.2676" lon="0.16498">
        <ele>90.981934</ele>
        <time>2009-05-08T07:08:28Z</time>
      </trkpt>
      <trkpt lat="49.26739" lon="0.16479">
        <ele>92.904541</ele>
        <time>2009-05-08T07:08:31Z</time>
      </trkpt>
      <trkpt lat="49.26696" lon="0.16439">
        <ele>96.269287</ele>
        <time>2009-05-08T07:08:37Z</time>
      </trkpt>
      <trkpt lat="49.26675" lon="0.16421">
        <ele>98.191895</ele>
        <time>2009-05-08T07:08:40Z</time>
      </trkpt>
      <trkpt lat="49.26644" lon="0.1639">
        <ele>100.114502</ele>
        <time>2009-05-08T07:08:45Z</time>
      </trkpt>
      <trkpt lat="49.26629" lon="0.16363">
        <ele>101.075684</ele>
        <time>2009-05-08T07:08:50Z</time>
      </trkpt>
      <trkpt lat="49.2663" lon="0.16359">
        <ele>101.075684</ele>
        <time>2009-05-08T07:08:51Z</time>
      </trkpt>
      <trkpt lat="49.26641" lon="0.16342">
        <ele>100.114502</ele>
        <time>2009-05-08T07:08:59Z</time>
      </trkpt>
      <trkpt lat="49.26651" lon="0.16332">
        <ele>98.672485</ele>
        <time>2009-05-08T07:09:05Z</time>
      </trkpt>
      <trkpt lat="49.26658" lon="0.16322">
        <ele>98.191895</ele>
        <time>2009-05-08T07:09:12Z</time>
      </trkpt>
      <trkpt lat="49.26666" lon="0.16305">
        <ele>98.672485</ele>
        <time>2009-05-08T07:09:19Z</time>
      </trkpt>
      <trkpt lat="49.26668" lon="0.16298">
        <ele>98.672485</ele>
        <time>2009-05-08T07:09:22Z</time>
      </trkpt>
      <trkpt lat="49.26671" lon="0.16273">
        <ele>94.346558</ele>
        <time>2009-05-08T07:09:31Z</time>
      </trkpt>
      <trkpt lat="49.26672" lon="0.16269">
        <ele>93.385132</ele>
        <time>2009-05-08T07:09:33Z</time>
      </trkpt>
      <trkpt lat="49.26674" lon="0.1626">
        <ele>92.904541</ele>
        <time>2009-05-08T07:09:39Z</time>
      </trkpt>
      <trkpt lat="49.26674" lon="0.16258">
        <ele>92.904541</ele>
        <time>2009-05-08T07:09:40Z</time>
      </trkpt>
      <trkpt lat="49.26677" lon="0.16254">
        <ele>92.904541</ele>
        <time>2009-05-08T07:09:44Z</time>
      </trkpt>
      <trkpt lat="49.26685" lon="0.16248">
        <ele>92.904541</ele>
        <time>2009-05-08T07:09:51Z</time>
      </trkpt>
      <trkpt lat="49.26691" lon="0.16244">
        <ele>92.42395</ele>
        <time>2009-05-08T07:09:56Z</time>
      </trkpt>
      <trkpt lat="49.26694" lon="0.16238">
        <ele>91.943237</ele>
        <time>2009-05-08T07:09:59Z</time>
      </trkpt>
      <trkpt lat="49.267" lon="0.1622">
        <ele>89.539917</ele>
        <time>2009-05-08T07:10:07Z</time>
      </trkpt>
      <trkpt lat="49.26702" lon="0.16216">
        <ele>88.578735</ele>
        <time>2009-05-08T07:10:09Z</time>
      </trkpt>
      <trkpt lat="49.26707" lon="0.16212">
        <ele>88.098022</ele>
        <time>2009-05-08T07:10:12Z</time>
      </trkpt>
      <trkpt lat="49.26716" lon="0.16209">
        <ele>87.136597</ele>
        <time>2009-05-08T07:10:19Z</time>
      </trkpt>
      <trkpt lat="49.26726" lon="0.16207">
        <ele>88.098022</ele>
        <time>2009-05-08T07:10:39Z</time>
      </trkpt>
      <trkpt lat="49.26737" lon="0.16213">
        <ele>90.02063</ele>
        <time>2009-05-08T07:10:46Z</time>
      </trkpt>
      <trkpt lat="49.26749" lon="0.16218">
        <ele>90.02063</ele>
        <time>2009-05-08T07:10:55Z</time>
      </trkpt>
      <trkpt lat="49.26759" lon="0.16223">
        <ele>91.943237</ele>
        <time>2009-05-08T07:11:02Z</time>
      </trkpt>
      <trkpt lat="49.26766" lon="0.16224">
        <ele>93.385132</ele>
        <time>2009-05-08T07:11:06Z</time>
      </trkpt>
      <trkpt lat="49.26774" lon="0.16225">
        <ele>93.865845</ele>
        <time>2009-05-08T07:11:13Z</time>
      </trkpt>
      <trkpt lat="49.26775" lon="0.16227">
        <ele>94.827148</ele>
        <time>2009-05-08T07:11:23Z</time>
      </trkpt>
      <trkpt lat="49.26776" lon="0.16227">
        <ele>97.230469</ele>
        <time>2009-05-08T07:11:59Z</time>
      </trkpt>
      <trkpt lat="49.26777" lon="0.16227">
        <ele>97.711182</ele>
        <time>2009-05-08T07:12:13Z</time>
      </trkpt>
      <trkpt lat="49.26779" lon="0.16227">
        <ele>97.711182</ele>
        <time>2009-05-08T07:12:26Z</time>
      </trkpt>
      <trkpt lat="49.26784" lon="0.16238">
        <ele>96.749878</ele>
        <time>2009-05-08T07:12:33Z</time>
      </trkpt>
      <trkpt lat="49.26789" lon="0.16242">
        <ele>96.269287</ele>
        <time>2009-05-08T07:12:39Z</time>
      </trkpt>
      <trkpt lat="49.2679" lon="0.16233">
        <ele>96.269287</ele>
        <time>2009-05-08T07:12:43Z</time>
      </trkpt>
      <trkpt lat="49.2678" lon="0.16212">
        <ele>97.711182</ele>
        <time>2009-05-08T07:12:51Z</time>
      </trkpt>
      <trkpt lat="49.26767" lon="0.16192">
        <ele>99.633789</ele>
        <time>2009-05-08T07:12:59Z</time>
      </trkpt>
      <trkpt lat="49.26754" lon="0.16173">
        <ele>101.556396</ele>
        <time>2009-05-08T07:13:06Z</time>
      </trkpt>
      <trkpt lat="49.26743" lon="0.16155">
        <ele>102.998291</ele>
        <time>2009-05-08T07:13:12Z</time>
      </trkpt>
      <trkpt lat="49.26733" lon="0.16139">
        <ele>104.44043</ele>
        <time>2009-05-08T07:13:18Z</time>
      </trkpt>
      <trkpt lat="49.2672" lon="0.16114">
        <ele>105.882446</ele>
        <time>2009-05-08T07:13:27Z</time>
      </trkpt>
      <trkpt lat="49.26705" lon="0.16093">
        <ele>107.805054</ele>
        <time>2009-05-08T07:13:35Z</time>
      </trkpt>
      <trkpt lat="49.26688" lon="0.16069">
        <ele>110.208252</ele>
        <time>2009-05-08T07:13:44Z</time>
      </trkpt>
      <trkpt lat="49.26674" lon="0.16048">
        <ele>113.572998</ele>
        <time>2009-05-08T07:13:51Z</time>
      </trkpt>
      <trkpt lat="49.26663" lon="0.16029">
        <ele>116.456787</ele>
        <time>2009-05-08T07:13:57Z</time>
      </trkpt>
      <trkpt lat="49.26649" lon="0.16007">
        <ele>120.782837</ele>
        <time>2009-05-08T07:14:04Z</time>
      </trkpt>
      <trkpt lat="49.26632" lon="0.1598">
        <ele>124.147339</ele>
        <time>2009-05-08T07:14:12Z</time>
      </trkpt>
      <trkpt lat="49.26619" lon="0.15959">
        <ele>127.511963</ele>
        <time>2009-05-08T07:14:18Z</time>
      </trkpt>
      <trkpt lat="49.26603" lon="0.15926">
        <ele>127.031372</ele>
        <time>2009-05-08T07:14:27Z</time>
      </trkpt>
      <trkpt lat="49.26593" lon="0.15897">
        <ele>126.550659</ele>
        <time>2009-05-08T07:14:34Z</time>
      </trkpt>
      <trkpt lat="49.26589" lon="0.1586">
        <ele>125.108765</ele>
        <time>2009-05-08T07:14:42Z</time>
      </trkpt>
      <trkpt lat="49.266" lon="0.15862">
        <ele>125.589355</ele>
        <time>2009-05-08T07:14:47Z</time>
      </trkpt>
      <trkpt lat="49.26615" lon="0.15874">
        <ele>125.589355</ele>
        <time>2009-05-08T07:14:52Z</time>
      </trkpt>
      <trkpt lat="49.26639" lon="0.15893">
        <ele>124.628052</ele>
        <time>2009-05-08T07:14:59Z</time>
      </trkpt>
      <trkpt lat="49.26654" lon="0.15905">
        <ele>125.108765</ele>
        <time>2009-05-08T07:15:03Z</time>
      </trkpt>
      <trkpt lat="49.26665" lon="0.15915">
        <ele>124.628052</ele>
        <time>2009-05-08T07:15:06Z</time>
      </trkpt>
      <trkpt lat="49.26685" lon="0.15934">
        <ele>122.705444</ele>
        <time>2009-05-08T07:15:12Z</time>
      </trkpt>
      <trkpt lat="49.26727" lon="0.15958">
        <ele>120.302124</ele>
        <time>2009-05-08T07:15:20Z</time>
      </trkpt>
      <trkpt lat="49.26756" lon="0.15974">
        <ele>119.821411</ele>
        <time>2009-05-08T07:15:26Z</time>
      </trkpt>
      <trkpt lat="49.26779" lon="0.15991">
        <ele>119.821411</ele>
        <time>2009-05-08T07:15:31Z</time>
      </trkpt>
      <trkpt lat="49.26789" lon="0.15999">
        <ele>119.821411</ele>
        <time>2009-05-08T07:15:33Z</time>
      </trkpt>
      <trkpt lat="49.26816" lon="0.16027">
        <ele>119.34082</ele>
        <time>2009-05-08T07:15:39Z</time>
      </trkpt>
      <trkpt lat="49.26838" lon="0.16052">
        <ele>120.302124</ele>
        <time>2009-05-08T07:15:44Z</time>
      </trkpt>
      <trkpt lat="49.26846" lon="0.16067">
        <ele>120.302124</ele>
        <time>2009-05-08T07:15:46Z</time>
      </trkpt>
      <trkpt lat="49.26858" lon="0.1609">
        <ele>121.26355</ele>
        <time>2009-05-08T07:15:49Z</time>
      </trkpt>
      <trkpt lat="49.26884" lon="0.16125">
        <ele>121.26355</ele>
        <time>2009-05-08T07:15:54Z</time>
      </trkpt>
      <trkpt lat="49.26897" lon="0.16126">
        <ele>121.26355</ele>
        <time>2009-05-08T07:15:58Z</time>
      </trkpt>
      <trkpt lat="49.2691" lon="0.1611">
        <ele>120.302124</ele>
        <time>2009-05-08T07:16:03Z</time>
      </trkpt>
      <trkpt lat="49.26917" lon="0.161">
        <ele>119.821411</ele>
        <time>2009-05-08T07:16:05Z</time>
      </trkpt>
      <trkpt lat="49.26925" lon="0.1609">
        <ele>118.860107</ele>
        <time>2009-05-08T07:16:07Z</time>
      </trkpt>
      <trkpt lat="49.26939" lon="0.16071">
        <ele>117.898804</ele>
        <time>2009-05-08T07:16:11Z</time>
      </trkpt>
      <trkpt lat="49.26952" lon="0.16055">
        <ele>117.418213</ele>
        <time>2009-05-08T07:16:14Z</time>
      </trkpt>
      <trkpt lat="49.2698" lon="0.16024">
        <ele>116.456787</ele>
        <time>2009-05-08T07:16:20Z</time>
      </trkpt>
      <trkpt lat="49.27" lon="0.16007">
        <ele>115.495605</ele>
        <time>2009-05-08T07:16:25Z</time>
      </trkpt>
      <trkpt lat="49.27004" lon="0.16003">
        <ele>115.495605</ele>
        <time>2009-05-08T07:16:28Z</time>
      </trkpt>
      <trkpt lat="49.27003" lon="0.15987">
        <ele>115.976196</ele>
        <time>2009-05-08T07:16:33Z</time>
      </trkpt>
      <trkpt lat="49.26998" lon="0.15966">
        <ele>115.976196</ele>
        <time>2009-05-08T07:16:38Z</time>
      </trkpt>
      <trkpt lat="49.26995" lon="0.15957">
        <ele>116.456787</ele>
        <time>2009-05-08T07:16:40Z</time>
      </trkpt>
      <trkpt lat="49.2698" lon="0.15916">
        <ele>116.456787</ele>
        <time>2009-05-08T07:16:48Z</time>
      </trkpt>
      <trkpt lat="49.26962" lon="0.15873">
        <ele>118.379395</ele>
        <time>2009-05-08T07:16:57Z</time>
      </trkpt>
      <trkpt lat="49.26947" lon="0.15842">
        <ele>119.34082</ele>
        <time>2009-05-08T07:17:04Z</time>
      </trkpt>
      <trkpt lat="49.26935" lon="0.15817">
        <ele>119.821411</ele>
        <time>2009-05-08T07:17:10Z</time>
      </trkpt>
      <trkpt lat="49.26922" lon="0.15795">
        <ele>120.782837</ele>
        <time>2009-05-08T07:17:16Z</time>
      </trkpt>
      <trkpt lat="49.26904" lon="0.15765">
        <ele>121.744141</ele>
        <time>2009-05-08T07:17:23Z</time>
      </trkpt>
      <trkpt lat="49.26886" lon="0.15731">
        <ele>123.186157</ele>
        <time>2009-05-08T07:17:31Z</time>
      </trkpt>
      <trkpt lat="49.26876" lon="0.15714">
        <ele>123.186157</ele>
        <time>2009-05-08T07:17:35Z</time>
      </trkpt>
      <trkpt lat="49.26861" lon="0.15684">
        <ele>124.628052</ele>
        <time>2009-05-08T07:17:41Z</time>
      </trkpt>
      <trkpt lat="49.26857" lon="0.15674">
        <ele>125.108765</ele>
        <time>2009-05-08T07:17:43Z</time>
      </trkpt>
      <trkpt lat="49.26848" lon="0.15655">
        <ele>125.589355</ele>
        <time>2009-05-08T07:17:47Z</time>
      </trkpt>
      <trkpt lat="49.26833" lon="0.1562">
        <ele>127.031372</ele>
        <time>2009-05-08T07:17:54Z</time>
      </trkpt>
      <trkpt lat="49.26809" lon="0.15576">
        <ele>128.954102</ele>
        <time>2009-05-08T07:18:03Z</time>
      </trkpt>
      <trkpt lat="49.26807" lon="0.15571">
        <ele>128.473389</ele>
        <time>2009-05-08T07:18:04Z</time>
      </trkpt>
      <trkpt lat="49.26796" lon="0.1555">
        <ele>128.954102</ele>
        <time>2009-05-08T07:18:08Z</time>
      </trkpt>
      <trkpt lat="49.26782" lon="0.15522">
        <ele>127.992554</ele>
        <time>2009-05-08T07:18:14Z</time>
      </trkpt>
      <trkpt lat="49.26769" lon="0.15496">
        <ele>127.511963</ele>
        <time>2009-05-08T07:18:20Z</time>
      </trkpt>
      <trkpt lat="49.2675" lon="0.15465">
        <ele>128.954102</ele>
        <time>2009-05-08T07:18:27Z</time>
      </trkpt>
      <trkpt lat="49.26736" lon="0.15444">
        <ele>130.876709</ele>
        <time>2009-05-08T07:18:32Z</time>
      </trkpt>
      <trkpt lat="49.26716" lon="0.15417">
        <ele>133.279907</ele>
        <time>2009-05-08T07:18:39Z</time>
      </trkpt>
      <trkpt lat="49.26701" lon="0.15395">
        <ele>131.3573</ele>
        <time>2009-05-08T07:18:44Z</time>
      </trkpt>
      <trkpt lat="49.26687" lon="0.15368">
        <ele>130.395996</ele>
        <time>2009-05-08T07:18:50Z</time>
      </trkpt>
      <trkpt lat="49.26678" lon="0.15339">
        <ele>129.915283</ele>
        <time>2009-05-08T07:18:56Z</time>
      </trkpt>
      <trkpt lat="49.26677" lon="0.15334">
        <ele>129.915283</ele>
        <time>2009-05-08T07:18:57Z</time>
      </trkpt>
      <trkpt lat="49.26666" lon="0.153">
        <ele>129.434692</ele>
        <time>2009-05-08T07:19:03Z</time>
      </trkpt>
      <trkpt lat="49.26654" lon="0.15256">
        <ele>128.954102</ele>
        <time>2009-05-08T07:19:11Z</time>
      </trkpt>
      <trkpt lat="49.26645" lon="0.15211">
        <ele>127.992554</ele>
        <time>2009-05-08T07:19:19Z</time>
      </trkpt>
      <trkpt lat="49.26642" lon="0.15195">
        <ele>127.511963</ele>
        <time>2009-05-08T07:19:22Z</time>
      </trkpt>
      <trkpt lat="49.26636" lon="0.15157">
        <ele>126.550659</ele>
        <time>2009-05-08T07:19:29Z</time>
      </trkpt>
      <trkpt lat="49.2663" lon="0.15124">
        <ele>126.550659</ele>
        <time>2009-05-08T07:19:35Z</time>
      </trkpt>
      <trkpt lat="49.26628" lon="0.15088">
        <ele>125.589355</ele>
        <time>2009-05-08T07:19:42Z</time>
      </trkpt>
      <trkpt lat="49.26627" lon="0.1506">
        <ele>122.705444</ele>
        <time>2009-05-08T07:19:48Z</time>
      </trkpt>
      <trkpt lat="49.26625" lon="0.15049">
        <ele>121.26355</ele>
        <time>2009-05-08T07:19:50Z</time>
      </trkpt>
      <trkpt lat="49.26623" lon="0.1501">
        <ele>120.782837</ele>
        <time>2009-05-08T07:19:57Z</time>
      </trkpt>
      <trkpt lat="49.26617" lon="0.14964">
        <ele>120.782837</ele>
        <time>2009-05-08T07:20:05Z</time>
      </trkpt>
      <trkpt lat="49.26612" lon="0.14931">
        <ele>120.782837</ele>
        <time>2009-05-08T07:20:12Z</time>
      </trkpt>
      <trkpt lat="49.26603" lon="0.14895">
        <ele>120.782837</ele>
        <time>2009-05-08T07:20:19Z</time>
      </trkpt>
      <trkpt lat="49.26598" lon="0.14872">
        <ele>120.782837</ele>
        <time>2009-05-08T07:20:23Z</time>
      </trkpt>
      <trkpt lat="49.26589" lon="0.14821">
        <ele>120.782837</ele>
        <time>2009-05-08T07:20:31Z</time>
      </trkpt>
      <trkpt lat="49.26584" lon="0.14778">
        <ele>120.302124</ele>
        <time>2009-05-08T07:20:38Z</time>
      </trkpt>
      <trkpt lat="49.2658" lon="0.14742">
        <ele>118.860107</ele>
        <time>2009-05-08T07:20:44Z</time>
      </trkpt>
      <trkpt lat="49.26578" lon="0.14709">
        <ele>117.898804</ele>
        <time>2009-05-08T07:20:50Z</time>
      </trkpt>
      <trkpt lat="49.26573" lon="0.14666">
        <ele>118.860107</ele>
        <time>2009-05-08T07:20:57Z</time>
      </trkpt>
      <trkpt lat="49.26569" lon="0.14614">
        <ele>119.821411</ele>
        <time>2009-05-08T07:21:06Z</time>
      </trkpt>
      <trkpt lat="49.26568" lon="0.14577">
        <ele>118.860107</ele>
        <time>2009-05-08T07:21:13Z</time>
      </trkpt>
      <trkpt lat="49.26569" lon="0.14569">
        <ele>119.821411</ele>
        <time>2009-05-08T07:21:15Z</time>
      </trkpt>
      <trkpt lat="49.26576" lon="0.14567">
        <ele>120.782837</ele>
        <time>2009-05-08T07:21:20Z</time>
      </trkpt>
      <trkpt lat="49.26583" lon="0.14568">
        <ele>121.26355</ele>
        <time>2009-05-08T07:21:24Z</time>
      </trkpt>
      <trkpt lat="49.26591" lon="0.14571">
        <ele>121.26355</ele>
        <time>2009-05-08T07:21:28Z</time>
      </trkpt>
      <trkpt lat="49.26615" lon="0.14583">
        <ele>121.26355</ele>
        <time>2009-05-08T07:21:37Z</time>
      </trkpt>
      <trkpt lat="49.26643" lon="0.146">
        <ele>121.26355</ele>
        <time>2009-05-08T07:21:45Z</time>
      </trkpt>
      <trkpt lat="49.2666" lon="0.14613">
        <ele>121.26355</ele>
        <time>2009-05-08T07:21:50Z</time>
      </trkpt>
      <trkpt lat="49.26692" lon="0.14635">
        <ele>121.744141</ele>
        <time>2009-05-08T07:21:58Z</time>
      </trkpt>
      <trkpt lat="49.26702" lon="0.14638">
        <ele>121.744141</ele>
        <time>2009-05-08T07:22:00Z</time>
      </trkpt>
      <trkpt lat="49.26747" lon="0.14638">
        <ele>120.782837</ele>
        <time>2009-05-08T07:22:08Z</time>
      </trkpt>
      <trkpt lat="49.26798" lon="0.14635">
        <ele>120.782837</ele>
        <time>2009-05-08T07:22:16Z</time>
      </trkpt>
      <trkpt lat="49.2681" lon="0.14637">
        <ele>120.782837</ele>
        <time>2009-05-08T07:22:18Z</time>
      </trkpt>
      <trkpt lat="49.2684" lon="0.14647">
        <ele>120.782837</ele>
        <time>2009-05-08T07:22:23Z</time>
      </trkpt>
      <trkpt lat="49.26887" lon="0.14674">
        <ele>120.782837</ele>
        <time>2009-05-08T07:22:31Z</time>
      </trkpt>
      <trkpt lat="49.26899" lon="0.1468">
        <ele>120.782837</ele>
        <time>2009-05-08T07:22:33Z</time>
      </trkpt>
      <trkpt lat="49.26944" lon="0.14685">
        <ele>120.302124</ele>
        <time>2009-05-08T07:22:40Z</time>
      </trkpt>
      <trkpt lat="49.26957" lon="0.14687">
        <ele>119.821411</ele>
        <time>2009-05-08T07:22:42Z</time>
      </trkpt>
      <trkpt lat="49.26996" lon="0.14703">
        <ele>118.379395</ele>
        <time>2009-05-08T07:22:48Z</time>
      </trkpt>
      <trkpt lat="49.2702" lon="0.14708">
        <ele>116.456787</ele>
        <time>2009-05-08T07:22:52Z</time>
      </trkpt>
      <trkpt lat="49.27049" lon="0.14709">
        <ele>114.53418</ele>
        <time>2009-05-08T07:22:56Z</time>
      </trkpt>
      <trkpt lat="49.27085" lon="0.14709">
        <ele>112.130981</ele>
        <time>2009-05-08T07:23:01Z</time>
      </trkpt>
      <trkpt lat="49.27114" lon="0.14696">
        <ele>109.727661</ele>
        <time>2009-05-08T07:23:05Z</time>
      </trkpt>
      <trkpt lat="49.27141" lon="0.14666">
        <ele>108.285645</ele>
        <time>2009-05-08T07:23:09Z</time>
      </trkpt>
      <trkpt lat="49.27148" lon="0.14636">
        <ele>109.246948</ele>
        <time>2009-05-08T07:23:12Z</time>
      </trkpt>
      <trkpt lat="49.27151" lon="0.14613">
        <ele>109.727661</ele>
        <time>2009-05-08T07:23:15Z</time>
      </trkpt>
      <trkpt lat="49.27151" lon="0.14591">
        <ele>111.650269</ele>
        <time>2009-05-08T07:23:20Z</time>
      </trkpt>
      <trkpt lat="49.27155" lon="0.14561">
        <ele>115.495605</ele>
        <time>2009-05-08T07:23:28Z</time>
      </trkpt>
      <trkpt lat="49.27162" lon="0.14529">
        <ele>120.782837</ele>
        <time>2009-05-08T07:23:36Z</time>
      </trkpt>
      <trkpt lat="49.27167" lon="0.14493">
        <ele>123.186157</ele>
        <time>2009-05-08T07:23:43Z</time>
      </trkpt>
      <trkpt lat="49.27164" lon="0.14459">
        <ele>122.705444</ele>
        <time>2009-05-08T07:23:50Z</time>
      </trkpt>
      <trkpt lat="49.27154" lon="0.1442">
        <ele>122.224731</ele>
        <time>2009-05-08T07:23:57Z</time>
      </trkpt>
      <trkpt lat="49.2715" lon="0.1439">
        <ele>121.744141</ele>
        <time>2009-05-08T07:24:02Z</time>
      </trkpt>
      <trkpt lat="49.27151" lon="0.14336">
        <ele>120.782837</ele>
        <time>2009-05-08T07:24:11Z</time>
      </trkpt>
      <trkpt lat="49.27152" lon="0.14329">
        <ele>120.302124</ele>
        <time>2009-05-08T07:24:12Z</time>
      </trkpt>
      <trkpt lat="49.27148" lon="0.14304">
        <ele>120.302124</ele>
        <time>2009-05-08T07:24:16Z</time>
      </trkpt>
      <trkpt lat="49.27133" lon="0.14258">
        <ele>120.782837</ele>
        <time>2009-05-08T07:24:24Z</time>
      </trkpt>
      <trkpt lat="49.27121" lon="0.14223">
        <ele>121.26355</ele>
        <time>2009-05-08T07:24:30Z</time>
      </trkpt>
      <trkpt lat="49.27118" lon="0.1421">
        <ele>121.26355</ele>
        <time>2009-05-08T07:24:32Z</time>
      </trkpt>
      <trkpt lat="49.27111" lon="0.14158">
        <ele>121.26355</ele>
        <time>2009-05-08T07:24:40Z</time>
      </trkpt>
      <trkpt lat="49.27105" lon="0.14116">
        <ele>120.782837</ele>
        <time>2009-05-08T07:24:46Z</time>
      </trkpt>
      <trkpt lat="49.27103" lon="0.14086">
        <ele>120.302124</ele>
        <time>2009-05-08T07:24:50Z</time>
      </trkpt>
      <trkpt lat="49.27103" lon="0.14028">
        <ele>119.34082</ele>
        <time>2009-05-08T07:24:57Z</time>
      </trkpt>
      <trkpt lat="49.27095" lon="0.13959">
        <ele>119.821411</ele>
        <time>2009-05-08T07:25:05Z</time>
      </trkpt>
      <trkpt lat="49.27086" lon="0.13891">
        <ele>121.26355</ele>
        <time>2009-05-08T07:25:13Z</time>
      </trkpt>
      <trkpt lat="49.27081" lon="0.13843">
        <ele>121.744141</ele>
        <time>2009-05-08T07:25:19Z</time>
      </trkpt>
      <trkpt lat="49.27077" lon="0.13811">
        <ele>121.744141</ele>
        <time>2009-05-08T07:25:23Z</time>
      </trkpt>
      <trkpt lat="49.2707" lon="0.13787">
        <ele>122.224731</ele>
        <time>2009-05-08T07:25:26Z</time>
      </trkpt>
      <trkpt lat="49.27043" lon="0.1372">
        <ele>123.186157</ele>
        <time>2009-05-08T07:25:35Z</time>
      </trkpt>
      <trkpt lat="49.2703" lon="0.13688">
        <ele>124.628052</ele>
        <time>2009-05-08T07:25:41Z</time>
      </trkpt>
      <trkpt lat="49.27018" lon="0.13672">
        <ele>124.147339</ele>
        <time>2009-05-08T07:25:46Z</time>
      </trkpt>
      <trkpt lat="49.2701" lon="0.13657">
        <ele>123.666748</ele>
        <time>2009-05-08T07:25:49Z</time>
      </trkpt>
      <trkpt lat="49.27003" lon="0.13641">
        <ele>123.186157</ele>
        <time>2009-05-08T07:25:52Z</time>
      </trkpt>
      <trkpt lat="49.26998" lon="0.13629">
        <ele>123.186157</ele>
        <time>2009-05-08T07:25:54Z</time>
      </trkpt>
      <trkpt lat="49.26991" lon="0.1361">
        <ele>123.666748</ele>
        <time>2009-05-08T07:25:57Z</time>
      </trkpt>
      <trkpt lat="49.26986" lon="0.13583">
        <ele>124.147339</ele>
        <time>2009-05-08T07:26:02Z</time>
      </trkpt>
      <trkpt lat="49.26984" lon="0.1356">
        <ele>124.147339</ele>
        <time>2009-05-08T07:26:06Z</time>
      </trkpt>
      <trkpt lat="49.26988" lon="0.13494">
        <ele>122.224731</ele>
        <time>2009-05-08T07:26:14Z</time>
      </trkpt>
      <trkpt lat="49.26992" lon="0.13425">
        <ele>121.744141</ele>
        <time>2009-05-08T07:26:22Z</time>
      </trkpt>
      <trkpt lat="49.26993" lon="0.13417">
        <ele>121.744141</ele>
        <time>2009-05-08T07:26:23Z</time>
      </trkpt>
      <trkpt lat="49.27003" lon="0.13331">
        <ele>120.782837</ele>
        <time>2009-05-08T07:26:32Z</time>
      </trkpt>
      <trkpt lat="49.27003" lon="0.13311">
        <ele>120.302124</ele>
        <time>2009-05-08T07:26:34Z</time>
      </trkpt>
      <trkpt lat="49.26998" lon="0.13272">
        <ele>119.821411</ele>
        <time>2009-05-08T07:26:38Z</time>
      </trkpt>
      <trkpt lat="49.26995" lon="0.1323">
        <ele>119.34082</ele>
        <time>2009-05-08T07:26:43Z</time>
      </trkpt>
      <trkpt lat="49.26994" lon="0.13199">
        <ele>118.860107</ele>
        <time>2009-05-08T07:26:47Z</time>
      </trkpt>
      <trkpt lat="49.26994" lon="0.13182">
        <ele>118.379395</ele>
        <time>2009-05-08T07:26:49Z</time>
      </trkpt>
      <trkpt lat="49.26994" lon="0.13155">
        <ele>117.898804</ele>
        <time>2009-05-08T07:26:52Z</time>
      </trkpt>
      <trkpt lat="49.27004" lon="0.13114">
        <ele>115.976196</ele>
        <time>2009-05-08T07:26:57Z</time>
      </trkpt>
      <trkpt lat="49.27007" lon="0.13079">
        <ele>113.572998</ele>
        <time>2009-05-08T07:27:01Z</time>
      </trkpt>
      <trkpt lat="49.27004" lon="0.13049">
        <ele>109.727661</ele>
        <time>2009-05-08T07:27:06Z</time>
      </trkpt>
      <trkpt lat="49.26996" lon="0.13045">
        <ele>106.843628</ele>
        <time>2009-05-08T07:27:12Z</time>
      </trkpt>
      <trkpt lat="49.2699" lon="0.13042">
        <ele>105.401733</ele>
        <time>2009-05-08T07:27:16Z</time>
      </trkpt>
      <trkpt lat="49.26985" lon="0.1304">
        <ele>104.44043</ele>
        <time>2009-05-08T07:27:19Z</time>
      </trkpt>
      <trkpt lat="49.26975" lon="0.13037">
        <ele>103.479004</ele>
        <time>2009-05-08T07:27:24Z</time>
      </trkpt>
      <trkpt lat="49.26971" lon="0.13036">
        <ele>103.959717</ele>
        <time>2009-05-08T07:27:26Z</time>
      </trkpt>
      <trkpt lat="49.26957" lon="0.1303">
        <ele>108.285645</ele>
        <time>2009-05-08T07:27:32Z</time>
      </trkpt>
      <trkpt lat="49.26949" lon="0.13025">
        <ele>111.650269</ele>
        <time>2009-05-08T07:27:37Z</time>
      </trkpt>
      <trkpt lat="49.26944" lon="0.13023">
        <ele>113.092285</ele>
        <time>2009-05-08T07:27:39Z</time>
      </trkpt>
      <trkpt lat="49.26926" lon="0.13012">
        <ele>116.9375</ele>
        <time>2009-05-08T07:27:45Z</time>
      </trkpt>
      <trkpt lat="49.26905" lon="0.12996">
        <ele>120.782837</ele>
        <time>2009-05-08T07:27:52Z</time>
      </trkpt>
      <trkpt lat="49.26885" lon="0.12982">
        <ele>123.666748</ele>
        <time>2009-05-08T07:28:00Z</time>
      </trkpt>
      <trkpt lat="49.26857" lon="0.12972">
        <ele>123.666748</ele>
        <time>2009-05-08T07:28:09Z</time>
      </trkpt>
      <trkpt lat="49.26838" lon="0.12968">
        <ele>123.666748</ele>
        <time>2009-05-08T07:28:15Z</time>
      </trkpt>
      <trkpt lat="49.26817" lon="0.12965">
        <ele>124.147339</ele>
        <time>2009-05-08T07:28:21Z</time>
      </trkpt>
      <trkpt lat="49.26799" lon="0.12963">
        <ele>123.666748</ele>
        <time>2009-05-08T07:28:27Z</time>
      </trkpt>
      <trkpt lat="49.26779" lon="0.12958">
        <ele>123.186157</ele>
        <time>2009-05-08T07:28:32Z</time>
      </trkpt>
      <trkpt lat="49.26752" lon="0.12953">
        <ele>122.705444</ele>
        <time>2009-05-08T07:28:39Z</time>
      </trkpt>
      <trkpt lat="49.26716" lon="0.12946">
        <ele>122.224731</ele>
        <time>2009-05-08T07:28:48Z</time>
      </trkpt>
      <trkpt lat="49.26687" lon="0.12942">
        <ele>123.666748</ele>
        <time>2009-05-08T07:28:56Z</time>
      </trkpt>
      <trkpt lat="49.2667" lon="0.12938">
        <ele>124.147339</ele>
        <time>2009-05-08T07:29:01Z</time>
      </trkpt>
      <trkpt lat="49.26659" lon="0.12932">
        <ele>124.147339</ele>
        <time>2009-05-08T07:29:05Z</time>
      </trkpt>
      <trkpt lat="49.26653" lon="0.12934">
        <ele>124.628052</ele>
        <time>2009-05-08T07:29:10Z</time>
      </trkpt>
      <trkpt lat="49.26651" lon="0.12948">
        <ele>126.550659</ele>
        <time>2009-05-08T07:29:15Z</time>
      </trkpt>
      <trkpt lat="49.26648" lon="0.12988">
        <ele>129.434692</ele>
        <time>2009-05-08T07:29:23Z</time>
      </trkpt>
      <trkpt lat="49.26647" lon="0.13028">
        <ele>128.473389</ele>
        <time>2009-05-08T07:29:30Z</time>
      </trkpt>
      <trkpt lat="49.26645" lon="0.13043">
        <ele>128.473389</ele>
        <time>2009-05-08T07:29:33Z</time>
      </trkpt>
      <trkpt lat="49.26644" lon="0.13061">
        <ele>128.954102</ele>
        <time>2009-05-08T07:29:37Z</time>
      </trkpt>
      <trkpt lat="49.26644" lon="0.13086">
        <ele>128.473389</ele>
        <time>2009-05-08T07:29:43Z</time>
      </trkpt>
      <trkpt lat="49.26643" lon="0.1311">
        <ele>127.992554</ele>
        <time>2009-05-08T07:29:47Z</time>
      </trkpt>
      <trkpt lat="49.26641" lon="0.1314">
        <ele>128.473389</ele>
        <time>2009-05-08T07:29:51Z</time>
      </trkpt>
      <trkpt lat="49.26638" lon="0.13203">
        <ele>127.992554</ele>
        <time>2009-05-08T07:29:59Z</time>
      </trkpt>
      <trkpt lat="49.26637" lon="0.13221">
        <ele>127.511963</ele>
        <time>2009-05-08T07:30:01Z</time>
      </trkpt>
      <trkpt lat="49.26633" lon="0.13238">
        <ele>127.511963</ele>
        <time>2009-05-08T07:30:03Z</time>
      </trkpt>
      <trkpt lat="49.26613" lon="0.13269">
        <ele>127.511963</ele>
        <time>2009-05-08T07:30:08Z</time>
      </trkpt>
      <trkpt lat="49.26598" lon="0.13306">
        <ele>127.511963</ele>
        <time>2009-05-08T07:30:13Z</time>
      </trkpt>
      <trkpt lat="49.26585" lon="0.13367">
        <ele>126.550659</ele>
        <time>2009-05-08T07:30:20Z</time>
      </trkpt>
      <trkpt lat="49.26579" lon="0.13401">
        <ele>127.992554</ele>
        <time>2009-05-08T07:30:25Z</time>
      </trkpt>
      <trkpt lat="49.26574" lon="0.13435">
        <ele>129.434692</ele>
        <time>2009-05-08T07:30:30Z</time>
      </trkpt>
      <trkpt lat="49.26574" lon="0.13447">
        <ele>128.954102</ele>
        <time>2009-05-08T07:30:32Z</time>
      </trkpt>
      <trkpt lat="49.26568" lon="0.13486">
        <ele>129.915283</ele>
        <time>2009-05-08T07:30:39Z</time>
      </trkpt>
      <trkpt lat="49.26567" lon="0.13491">
        <ele>129.915283</ele>
        <time>2009-05-08T07:30:40Z</time>
      </trkpt>
      <trkpt lat="49.2656" lon="0.13519">
        <ele>131.837891</ele>
        <time>2009-05-08T07:30:45Z</time>
      </trkpt>
      <trkpt lat="49.26554" lon="0.13538">
        <ele>132.799316</ele>
        <time>2009-05-08T07:30:49Z</time>
      </trkpt>
      <trkpt lat="49.26548" lon="0.13559">
        <ele>134.721924</ele>
        <time>2009-05-08T07:30:52Z</time>
      </trkpt>
      <trkpt lat="49.26537" lon="0.13603">
        <ele>135.202515</ele>
        <time>2009-05-08T07:30:59Z</time>
      </trkpt>
      <trkpt lat="49.26533" lon="0.13616">
        <ele>135.202515</ele>
        <time>2009-05-08T07:31:02Z</time>
      </trkpt>
      <trkpt lat="49.26523" lon="0.13636">
        <ele>133.279907</ele>
        <time>2009-05-08T07:31:07Z</time>
      </trkpt>
      <trkpt lat="49.26518" lon="0.13655">
        <ele>133.760498</ele>
        <time>2009-05-08T07:31:10Z</time>
      </trkpt>
      <trkpt lat="49.26512" lon="0.13683">
        <ele>133.279907</ele>
        <time>2009-05-08T07:31:14Z</time>
      </trkpt>
      <trkpt lat="49.26505" lon="0.13713">
        <ele>132.799316</ele>
        <time>2009-05-08T07:31:18Z</time>
      </trkpt>
      <trkpt lat="49.26492" lon="0.1375">
        <ele>133.279907</ele>
        <time>2009-05-08T07:31:24Z</time>
      </trkpt>
      <trkpt lat="49.26476" lon="0.1376">
        <ele>133.279907</ele>
        <time>2009-05-08T07:31:29Z</time>
      </trkpt>
      <trkpt lat="49.26451" lon="0.13752">
        <ele>135.202515</ele>
        <time>2009-05-08T07:31:36Z</time>
      </trkpt>
      <trkpt lat="49.26427" lon="0.13744">
        <ele>138.567261</ele>
        <time>2009-05-08T07:31:43Z</time>
      </trkpt>
      <trkpt lat="49.26414" lon="0.13739">
        <ele>141.931763</ele>
        <time>2009-05-08T07:31:48Z</time>
      </trkpt>
      <trkpt lat="49.26401" lon="0.13733">
        <ele>143.85437</ele>
        <time>2009-05-08T07:31:52Z</time>
      </trkpt>
      <trkpt lat="49.26382" lon="0.13721">
        <ele>144.815796</ele>
        <time>2009-05-08T07:31:59Z</time>
      </trkpt>
      <trkpt lat="49.26376" lon="0.1372">
        <ele>142.893066</ele>
        <time>2009-05-08T07:32:01Z</time>
      </trkpt>
      <trkpt lat="49.26367" lon="0.13725">
        <ele>136.644653</ele>
        <time>2009-05-08T07:32:08Z</time>
      </trkpt>
      <trkpt lat="49.26366" lon="0.13725">
        <ele>129.915283</ele>
        <time>2009-05-08T07:32:37Z</time>
      </trkpt>
      <trkpt lat="49.26366" lon="0.13726">
        <ele>129.915283</ele>
        <time>2009-05-08T07:32:50Z</time>
      </trkpt>
      <trkpt lat="49.26366" lon="0.13726">
        <ele>129.434692</ele>
        <time>2009-05-08T07:32:53Z</time>
      </trkpt>
      <trkpt lat="49.26364" lon="0.13722">
        <ele>129.434692</ele>
        <time>2009-05-08T07:32:59Z</time>
      </trkpt>
      <trkpt lat="49.26365" lon="0.13723">
        <ele>129.434692</ele>
        <time>2009-05-08T07:33:04Z</time>
      </trkpt>
      <trkpt lat="49.26364" lon="0.13723">
        <ele>127.992554</ele>
        <time>2009-05-08T07:33:28Z</time>
      </trkpt>
      <trkpt lat="49.26364" lon="0.13723">
        <ele>127.992554</ele>
        <time>2009-05-08T07:33:38Z</time>
      </trkpt>
      <trkpt lat="49.26363" lon="0.13725">
        <ele>127.511963</ele>
        <time>2009-05-08T07:33:48Z</time>
      </trkpt>
      <trkpt lat="49.26359" lon="0.13731">
        <ele>128.473389</ele>
        <time>2009-05-08T07:33:56Z</time>
      </trkpt>
      <trkpt lat="49.26359" lon="0.1373">
        <ele>128.954102</ele>
        <time>2009-05-08T07:34:06Z</time>
      </trkpt>
      <trkpt lat="49.26355" lon="0.13736">
        <ele>128.473389</ele>
        <time>2009-05-08T07:34:12Z</time>
      </trkpt>
      <trkpt lat="49.26355" lon="0.1374">
        <ele>128.473389</ele>
        <time>2009-05-08T07:34:13Z</time>
      </trkpt>
      <trkpt lat="49.26361" lon="0.13792">
        <ele>125.589355</ele>
        <time>2009-05-08T07:34:20Z</time>
      </trkpt>
      <trkpt lat="49.2637" lon="0.13869">
        <ele>122.705444</ele>
        <time>2009-05-08T07:34:28Z</time>
      </trkpt>
      <trkpt lat="49.2638" lon="0.13977">
        <ele>121.744141</ele>
        <time>2009-05-08T07:34:38Z</time>
      </trkpt>
      <trkpt lat="49.26388" lon="0.14063">
        <ele>121.26355</ele>
        <time>2009-05-08T07:34:46Z</time>
      </trkpt>
      <trkpt lat="49.26373" lon="0.14093">
        <ele>120.782837</ele>
        <time>2009-05-08T07:34:50Z</time>
      </trkpt>
      <trkpt lat="49.26367" lon="0.14094">
        <ele>120.782837</ele>
        <time>2009-05-08T07:34:51Z</time>
      </trkpt>
      <trkpt lat="49.26316" lon="0.14106">
        <ele>120.782837</ele>
        <time>2009-05-08T07:35:00Z</time>
      </trkpt>
      <trkpt lat="49.26296" lon="0.14107">
        <ele>121.26355</ele>
        <time>2009-05-08T07:35:04Z</time>
      </trkpt>
      <trkpt lat="49.26287" lon="0.14106">
        <ele>121.744141</ele>
        <time>2009-05-08T07:35:06Z</time>
      </trkpt>
      <trkpt lat="49.26267" lon="0.14107">
        <ele>121.744141</ele>
        <time>2009-05-08T07:35:10Z</time>
      </trkpt>
      <trkpt lat="49.26232" lon="0.14109">
        <ele>121.26355</ele>
        <time>2009-05-08T07:35:17Z</time>
      </trkpt>
      <trkpt lat="49.26216" lon="0.14125">
        <ele>121.26355</ele>
        <time>2009-05-08T07:35:22Z</time>
      </trkpt>
      <trkpt lat="49.26214" lon="0.14137">
        <ele>121.26355</ele>
        <time>2009-05-08T07:35:24Z</time>
      </trkpt>
      <trkpt lat="49.26206" lon="0.14157">
        <ele>120.302124</ele>
        <time>2009-05-08T07:35:27Z</time>
      </trkpt>
      <trkpt lat="49.26187" lon="0.14181">
        <ele>118.860107</ele>
        <time>2009-05-08T07:35:31Z</time>
      </trkpt>
      <trkpt lat="49.26156" lon="0.14199">
        <ele>115.976196</ele>
        <time>2009-05-08T07:35:37Z</time>
      </trkpt>
      <trkpt lat="49.26151" lon="0.142">
        <ele>115.495605</ele>
        <time>2009-05-08T07:35:41Z</time>
      </trkpt>
      <trkpt lat="49.26145" lon="0.14205">
        <ele>114.53418</ele>
        <time>2009-05-08T07:35:46Z</time>
      </trkpt>
      <trkpt lat="49.26136" lon="0.14211">
        <ele>114.053589</ele>
        <time>2009-05-08T07:35:48Z</time>
      </trkpt>
      <trkpt lat="49.26089" lon="0.14241">
        <ele>111.650269</ele>
        <time>2009-05-08T07:35:55Z</time>
      </trkpt>
      <trkpt lat="49.26058" lon="0.14241">
        <ele>110.208252</ele>
        <time>2009-05-08T07:35:59Z</time>
      </trkpt>
      <trkpt lat="49.26032" lon="0.14244">
        <ele>108.285645</ele>
        <time>2009-05-08T07:36:03Z</time>
      </trkpt>
      <trkpt lat="49.26025" lon="0.14249">
        <ele>107.805054</ele>
        <time>2009-05-08T07:36:04Z</time>
      </trkpt>
      <trkpt lat="49.25994" lon="0.14275">
        <ele>104.921021</ele>
        <time>2009-05-08T07:36:09Z</time>
      </trkpt>
      <trkpt lat="49.25981" lon="0.14287">
        <ele>103.479004</ele>
        <time>2009-05-08T07:36:11Z</time>
      </trkpt>
      <trkpt lat="49.25941" lon="0.14336">
        <ele>98.672485</ele>
        <time>2009-05-08T07:36:17Z</time>
      </trkpt>
      <trkpt lat="49.25926" lon="0.14352">
        <ele>97.230469</ele>
        <time>2009-05-08T07:36:19Z</time>
      </trkpt>
      <trkpt lat="49.25897" lon="0.14398">
        <ele>93.865845</ele>
        <time>2009-05-08T07:36:24Z</time>
      </trkpt>
      <trkpt lat="49.25869" lon="0.1443">
        <ele>91.943237</ele>
        <time>2009-05-08T07:36:28Z</time>
      </trkpt>
      <trkpt lat="49.2582" lon="0.14478">
        <ele>87.617188</ele>
        <time>2009-05-08T07:36:35Z</time>
      </trkpt>
      <trkpt lat="49.25779" lon="0.14516">
        <ele>83.291382</ele>
        <time>2009-05-08T07:36:40Z</time>
      </trkpt>
      <trkpt lat="49.2574" lon="0.14556">
        <ele>78.484741</ele>
        <time>2009-05-08T07:36:45Z</time>
      </trkpt>
      <trkpt lat="49.2572" lon="0.14584">
        <ele>76.081421</ele>
        <time>2009-05-08T07:36:48Z</time>
      </trkpt>
      <trkpt lat="49.25707" lon="0.14607">
        <ele>73.678223</ele>
        <time>2009-05-08T07:36:50Z</time>
      </trkpt>
      <trkpt lat="49.25682" lon="0.14665">
        <ele>67.429688</ele>
        <time>2009-05-08T07:36:55Z</time>
      </trkpt>
      <trkpt lat="49.25671" lon="0.14703">
        <ele>63.584351</ele>
        <time>2009-05-08T07:36:58Z</time>
      </trkpt>
      <trkpt lat="49.2565" lon="0.1474">
        <ele>60.219727</ele>
        <time>2009-05-08T07:37:02Z</time>
      </trkpt>
      <trkpt lat="49.25644" lon="0.14749">
        <ele>59.258423</ele>
        <time>2009-05-08T07:37:03Z</time>
      </trkpt>
      <trkpt lat="49.25621" lon="0.14789">
        <ele>56.374512</ele>
        <time>2009-05-08T07:37:07Z</time>
      </trkpt>
      <trkpt lat="49.25604" lon="0.14816">
        <ele>53.971191</ele>
        <time>2009-05-08T07:37:10Z</time>
      </trkpt>
      <trkpt lat="49.25584" lon="0.14853">
        <ele>51.087158</ele>
        <time>2009-05-08T07:37:14Z</time>
      </trkpt>
      <trkpt lat="49.25555" lon="0.1491">
        <ele>48.203369</ele>
        <time>2009-05-08T07:37:19Z</time>
      </trkpt>
      <trkpt lat="49.25547" lon="0.14937">
        <ele>47.241821</ele>
        <time>2009-05-08T07:37:21Z</time>
      </trkpt>
      <trkpt lat="49.2553" lon="0.14986">
        <ele>46.28064</ele>
        <time>2009-05-08T07:37:25Z</time>
      </trkpt>
      <trkpt lat="49.25522" lon="0.15029">
        <ele>45.799927</ele>
        <time>2009-05-08T07:37:30Z</time>
      </trkpt>
      <trkpt lat="49.25519" lon="0.15034">
        <ele>46.76123</ele>
        <time>2009-05-08T07:37:35Z</time>
      </trkpt>
      <trkpt lat="49.25519" lon="0.15035">
        <ele>45.799927</ele>
        <time>2009-05-08T07:37:38Z</time>
      </trkpt>
      <trkpt lat="49.25513" lon="0.15042">
        <ele>45.319214</ele>
        <time>2009-05-08T07:37:42Z</time>
      </trkpt>
      <trkpt lat="49.25506" lon="0.15055">
        <ele>43.877319</ele>
        <time>2009-05-08T07:37:45Z</time>
      </trkpt>
      <trkpt lat="49.2549" lon="0.15073">
        <ele>41.954712</ele>
        <time>2009-05-08T07:37:49Z</time>
      </trkpt>
      <trkpt lat="49.25471" lon="0.15095">
        <ele>39.55127</ele>
        <time>2009-05-08T07:37:53Z</time>
      </trkpt>
      <trkpt lat="49.25445" lon="0.15109">
        <ele>38.109375</ele>
        <time>2009-05-08T07:37:57Z</time>
      </trkpt>
      <trkpt lat="49.25432" lon="0.15111">
        <ele>38.109375</ele>
        <time>2009-05-08T07:37:59Z</time>
      </trkpt>
      <trkpt lat="49.25411" lon="0.15115">
        <ele>39.070679</ele>
        <time>2009-05-08T07:38:03Z</time>
      </trkpt>
      <trkpt lat="49.25386" lon="0.15115">
        <ele>41.473999</ele>
        <time>2009-05-08T07:38:08Z</time>
      </trkpt>
      <trkpt lat="49.25378" lon="0.15121">
        <ele>41.473999</ele>
        <time>2009-05-08T07:38:10Z</time>
      </trkpt>
      <trkpt lat="49.25366" lon="0.15139">
        <ele>43.396606</ele>
        <time>2009-05-08T07:38:14Z</time>
      </trkpt>
      <trkpt lat="49.25342" lon="0.15175">
        <ele>44.838623</ele>
        <time>2009-05-08T07:38:18Z</time>
      </trkpt>
      <trkpt lat="49.25328" lon="0.15193">
        <ele>45.799927</ele>
        <time>2009-05-08T07:38:20Z</time>
      </trkpt>
      <trkpt lat="49.25297" lon="0.15231">
        <ele>47.722534</ele>
        <time>2009-05-08T07:38:25Z</time>
      </trkpt>
      <trkpt lat="49.25263" lon="0.15237">
        <ele>47.722534</ele>
        <time>2009-05-08T07:38:31Z</time>
      </trkpt>
      <trkpt lat="49.25246" lon="0.15237">
        <ele>48.203369</ele>
        <time>2009-05-08T07:38:34Z</time>
      </trkpt>
      <trkpt lat="49.25231" lon="0.15236">
        <ele>50.125977</ele>
        <time>2009-05-08T07:38:37Z</time>
      </trkpt>
      <trkpt lat="49.25208" lon="0.15215">
        <ele>52.048584</ele>
        <time>2009-05-08T07:38:41Z</time>
      </trkpt>
      <trkpt lat="49.25198" lon="0.15193">
        <ele>53.490479</ele>
        <time>2009-05-08T07:38:44Z</time>
      </trkpt>
      <trkpt lat="49.25185" lon="0.15167">
        <ele>53.009766</ele>
        <time>2009-05-08T07:38:47Z</time>
      </trkpt>
      <trkpt lat="49.25173" lon="0.15117">
        <ele>52.529175</ele>
        <time>2009-05-08T07:38:53Z</time>
      </trkpt>
      <trkpt lat="49.2517" lon="0.15086">
        <ele>51.567871</ele>
        <time>2009-05-08T07:38:59Z</time>
      </trkpt>
      <trkpt lat="49.25168" lon="0.15058">
        <ele>49.645264</ele>
        <time>2009-05-08T07:39:06Z</time>
      </trkpt>
      <trkpt lat="49.25167" lon="0.15036">
        <ele>51.567871</ele>
        <time>2009-05-08T07:39:13Z</time>
      </trkpt>
      <trkpt lat="49.25166" lon="0.15011">
        <ele>52.529175</ele>
        <time>2009-05-08T07:39:21Z</time>
      </trkpt>
      <trkpt lat="49.25165" lon="0.14995">
        <ele>55.413086</ele>
        <time>2009-05-08T07:39:26Z</time>
      </trkpt>
      <trkpt lat="49.25165" lon="0.14978">
        <ele>58.77771</ele>
        <time>2009-05-08T07:39:31Z</time>
      </trkpt>
      <trkpt lat="49.25166" lon="0.14955">
        <ele>61.18103</ele>
        <time>2009-05-08T07:39:38Z</time>
      </trkpt>
      <trkpt lat="49.25163" lon="0.14923">
        <ele>62.622925</ele>
        <time>2009-05-08T07:39:46Z</time>
      </trkpt>
      <trkpt lat="49.25161" lon="0.14899">
        <ele>62.622925</ele>
        <time>2009-05-08T07:39:51Z</time>
      </trkpt>
      <trkpt lat="49.2516" lon="0.14888">
        <ele>62.622925</ele>
        <time>2009-05-08T07:39:54Z</time>
      </trkpt>
      <trkpt lat="49.25161" lon="0.14875">
        <ele>62.622925</ele>
        <time>2009-05-08T07:39:58Z</time>
      </trkpt>
      <trkpt lat="49.25164" lon="0.1485">
        <ele>63.584351</ele>
        <time>2009-05-08T07:40:06Z</time>
      </trkpt>
      <trkpt lat="49.25167" lon="0.14828">
        <ele>64.545654</ele>
        <time>2009-05-08T07:40:13Z</time>
      </trkpt>
      <trkpt lat="49.25169" lon="0.14816">
        <ele>66.468262</ele>
        <time>2009-05-08T07:40:18Z</time>
      </trkpt>
      <trkpt lat="49.25171" lon="0.14808">
        <ele>67.910278</ele>
        <time>2009-05-08T07:40:23Z</time>
      </trkpt>
      <trkpt lat="49.25172" lon="0.14802">
        <ele>68.871582</ele>
        <time>2009-05-08T07:40:26Z</time>
      </trkpt>
      <trkpt lat="49.25173" lon="0.14798">
        <ele>69.352295</ele>
        <time>2009-05-08T07:40:28Z</time>
      </trkpt>
      <trkpt lat="49.25174" lon="0.14785">
        <ele>71.755493</ele>
        <time>2009-05-08T07:40:34Z</time>
      </trkpt>
      <trkpt lat="49.25174" lon="0.14781">
        <ele>71.755493</ele>
        <time>2009-05-08T07:40:36Z</time>
      </trkpt>
      <trkpt lat="49.25176" lon="0.14777">
        <ele>72.236206</ele>
        <time>2009-05-08T07:40:38Z</time>
      </trkpt>
      <trkpt lat="49.25178" lon="0.14774">
        <ele>72.236206</ele>
        <time>2009-05-08T07:40:40Z</time>
      </trkpt>
      <trkpt lat="49.25182" lon="0.14765">
        <ele>73.197632</ele>
        <time>2009-05-08T07:40:46Z</time>
      </trkpt>
      <trkpt lat="49.25184" lon="0.14754">
        <ele>74.158813</ele>
        <time>2009-05-08T07:40:52Z</time>
      </trkpt>
      <trkpt lat="49.25184" lon="0.14753">
        <ele>74.158813</ele>
        <time>2009-05-08T07:40:53Z</time>
      </trkpt>
      <trkpt lat="49.25187" lon="0.14745">
        <ele>75.120239</ele>
        <time>2009-05-08T07:40:59Z</time>
      </trkpt>
      <trkpt lat="49.25189" lon="0.14735">
        <ele>76.081421</ele>
        <time>2009-05-08T07:41:08Z</time>
      </trkpt>
      <trkpt lat="49.25193" lon="0.14726">
        <ele>80.407471</ele>
        <time>2009-05-08T07:41:16Z</time>
      </trkpt>
      <trkpt lat="49.25197" lon="0.14722">
        <ele>83.771973</ele>
        <time>2009-05-08T07:41:22Z</time>
      </trkpt>
      <trkpt lat="49.25203" lon="0.14715">
        <ele>87.617188</ele>
        <time>2009-05-08T07:41:30Z</time>
      </trkpt>
      <trkpt lat="49.25208" lon="0.14712">
        <ele>87.617188</ele>
        <time>2009-05-08T07:41:36Z</time>
      </trkpt>
      <trkpt lat="49.25214" lon="0.14708">
        <ele>89.539917</ele>
        <time>2009-05-08T07:41:41Z</time>
      </trkpt>
      <trkpt lat="49.25222" lon="0.14705">
        <ele>92.904541</ele>
        <time>2009-05-08T07:41:48Z</time>
      </trkpt>
      <trkpt lat="49.25225" lon="0.14704">
        <ele>93.385132</ele>
        <time>2009-05-08T07:41:51Z</time>
      </trkpt>
      <trkpt lat="49.25228" lon="0.14704">
        <ele>94.346558</ele>
        <time>2009-05-08T07:41:53Z</time>
      </trkpt>
      <trkpt lat="49.25231" lon="0.14703">
        <ele>96.269287</ele>
        <time>2009-05-08T07:41:56Z</time>
      </trkpt>
      <trkpt lat="49.25239" lon="0.14696">
        <ele>97.711182</ele>
        <time>2009-05-08T07:42:02Z</time>
      </trkpt>
      <trkpt lat="49.25241" lon="0.14692">
        <ele>99.633789</ele>
        <time>2009-05-08T07:42:06Z</time>
      </trkpt>
      <trkpt lat="49.25242" lon="0.14683">
        <ele>100.114502</ele>
        <time>2009-05-08T07:42:13Z</time>
      </trkpt>
      <trkpt lat="49.25243" lon="0.14679">
        <ele>101.075684</ele>
        <time>2009-05-08T07:42:15Z</time>
      </trkpt>
      <trkpt lat="49.25241" lon="0.14658">
        <ele>101.075684</ele>
        <time>2009-05-08T07:42:21Z</time>
      </trkpt>
      <trkpt lat="49.25235" lon="0.14628">
        <ele>101.075684</ele>
        <time>2009-05-08T07:42:28Z</time>
      </trkpt>
      <trkpt lat="49.25232" lon="0.14597">
        <ele>100.595093</ele>
        <time>2009-05-08T07:42:34Z</time>
      </trkpt>
      <trkpt lat="49.25229" lon="0.14576">
        <ele>100.595093</ele>
        <time>2009-05-08T07:42:38Z</time>
      </trkpt>
      <trkpt lat="49.25235" lon="0.14561">
        <ele>101.556396</ele>
        <time>2009-05-08T07:42:43Z</time>
      </trkpt>
      <trkpt lat="49.25239" lon="0.14535">
        <ele>101.556396</ele>
        <time>2009-05-08T07:42:48Z</time>
      </trkpt>
      <trkpt lat="49.25238" lon="0.14524">
        <ele>101.075684</ele>
        <time>2009-05-08T07:42:50Z</time>
      </trkpt>
      <trkpt lat="49.2523" lon="0.14489">
        <ele>101.075684</ele>
        <time>2009-05-08T07:42:57Z</time>
      </trkpt>
      <trkpt lat="49.25226" lon="0.14479">
        <ele>101.075684</ele>
        <time>2009-05-08T07:42:59Z</time>
      </trkpt>
      <trkpt lat="49.25205" lon="0.14432">
        <ele>99.633789</ele>
        <time>2009-05-08T07:43:07Z</time>
      </trkpt>
      <trkpt lat="49.25199" lon="0.1442">
        <ele>99.633789</ele>
        <time>2009-05-08T07:43:09Z</time>
      </trkpt>
      <trkpt lat="49.25177" lon="0.14362">
        <ele>100.114502</ele>
        <time>2009-05-08T07:43:17Z</time>
      </trkpt>
      <trkpt lat="49.25175" lon="0.14355">
        <ele>100.114502</ele>
        <time>2009-05-08T07:43:18Z</time>
      </trkpt>
      <trkpt lat="49.25163" lon="0.14322">
        <ele>99.153076</ele>
        <time>2009-05-08T07:43:23Z</time>
      </trkpt>
      <trkpt lat="49.25152" lon="0.14278">
        <ele>98.191895</ele>
        <time>2009-05-08T07:43:30Z</time>
      </trkpt>
      <trkpt lat="49.25139" lon="0.14226">
        <ele>99.633789</ele>
        <time>2009-05-08T07:43:38Z</time>
      </trkpt>
      <trkpt lat="49.25129" lon="0.14183">
        <ele>99.153076</ele>
        <time>2009-05-08T07:43:46Z</time>
      </trkpt>
      <trkpt lat="49.25116" lon="0.1414">
        <ele>95.788452</ele>
        <time>2009-05-08T07:43:55Z</time>
      </trkpt>
      <trkpt lat="49.25106" lon="0.141">
        <ele>93.865845</ele>
        <time>2009-05-08T07:44:04Z</time>
      </trkpt>
      <trkpt lat="49.25102" lon="0.14074">
        <ele>93.385132</ele>
        <time>2009-05-08T07:44:09Z</time>
      </trkpt>
      <trkpt lat="49.25114" lon="0.14059">
        <ele>94.346558</ele>
        <time>2009-05-08T07:44:14Z</time>
      </trkpt>
      <trkpt lat="49.25142" lon="0.14045">
        <ele>95.788452</ele>
        <time>2009-05-08T07:44:22Z</time>
      </trkpt>
      <trkpt lat="49.25163" lon="0.14031">
        <ele>96.749878</ele>
        <time>2009-05-08T07:44:29Z</time>
      </trkpt>
      <trkpt lat="49.25178" lon="0.14016">
        <ele>100.114502</ele>
        <time>2009-05-08T07:44:36Z</time>
      </trkpt>
      <trkpt lat="49.25179" lon="0.14016">
        <ele>100.114502</ele>
        <time>2009-05-08T07:44:41Z</time>
      </trkpt>
      <trkpt lat="49.25184" lon="0.14013">
        <ele>99.633789</ele>
        <time>2009-05-08T07:44:57Z</time>
      </trkpt>
      <trkpt lat="49.25195" lon="0.13999">
        <ele>100.114502</ele>
        <time>2009-05-08T07:45:01Z</time>
      </trkpt>
      <trkpt lat="49.25225" lon="0.13945">
        <ele>100.114502</ele>
        <time>2009-05-08T07:45:11Z</time>
      </trkpt>
      <trkpt lat="49.2524" lon="0.13925">
        <ele>100.114502</ele>
        <time>2009-05-08T07:45:15Z</time>
      </trkpt>
      <trkpt lat="49.25272" lon="0.13898">
        <ele>100.114502</ele>
        <time>2009-05-08T07:45:23Z</time>
      </trkpt>
      <trkpt lat="49.25302" lon="0.13849">
        <ele>100.114502</ele>
        <time>2009-05-08T07:45:33Z</time>
      </trkpt>
      <trkpt lat="49.25311" lon="0.13831">
        <ele>99.633789</ele>
        <time>2009-05-08T07:45:36Z</time>
      </trkpt>
      <trkpt lat="49.25328" lon="0.13769">
        <ele>102.037109</ele>
        <time>2009-05-08T07:45:45Z</time>
      </trkpt>
      <trkpt lat="49.2534" lon="0.13717">
        <ele>104.921021</ele>
        <time>2009-05-08T07:45:52Z</time>
      </trkpt>
      <trkpt lat="49.25344" lon="0.13702">
        <ele>105.401733</ele>
        <time>2009-05-08T07:45:54Z</time>
      </trkpt>
      <trkpt lat="49.25375" lon="0.13627">
        <ele>108.285645</ele>
        <time>2009-05-08T07:46:05Z</time>
      </trkpt>
      <trkpt lat="49.25406" lon="0.13584">
        <ele>110.208252</ele>
        <time>2009-05-08T07:46:13Z</time>
      </trkpt>
      <trkpt lat="49.25439" lon="0.13541">
        <ele>110.688843</ele>
        <time>2009-05-08T07:46:21Z</time>
      </trkpt>
      <trkpt lat="49.25446" lon="0.1353">
        <ele>111.169556</ele>
        <time>2009-05-08T07:46:23Z</time>
      </trkpt>
      <trkpt lat="49.25451" lon="0.13503">
        <ele>110.688843</ele>
        <time>2009-05-08T07:46:27Z</time>
      </trkpt>
      <trkpt lat="49.25448" lon="0.13475">
        <ele>111.169556</ele>
        <time>2009-05-08T07:46:31Z</time>
      </trkpt>
      <trkpt lat="49.25456" lon="0.13456">
        <ele>111.169556</ele>
        <time>2009-05-08T07:46:34Z</time>
      </trkpt>
      <trkpt lat="49.25466" lon="0.13449">
        <ele>111.169556</ele>
        <time>2009-05-08T07:46:36Z</time>
      </trkpt>
      <trkpt lat="49.25501" lon="0.13427">
        <ele>111.169556</ele>
        <time>2009-05-08T07:46:42Z</time>
      </trkpt>
      <trkpt lat="49.25552" lon="0.13384">
        <ele>111.650269</ele>
        <time>2009-05-08T07:46:50Z</time>
      </trkpt>
      <trkpt lat="49.25559" lon="0.13378">
        <ele>111.650269</ele>
        <time>2009-05-08T07:46:51Z</time>
      </trkpt>
      <trkpt lat="49.25613" lon="0.13337">
        <ele>110.688843</ele>
        <time>2009-05-08T07:46:59Z</time>
      </trkpt>
      <trkpt lat="49.25633" lon="0.13319">
        <ele>110.688843</ele>
        <time>2009-05-08T07:47:04Z</time>
      </trkpt>
      <trkpt lat="49.25635" lon="0.13319">
        <ele>111.169556</ele>
        <time>2009-05-08T07:47:09Z</time>
      </trkpt>
      <trkpt lat="49.25645" lon="0.13311">
        <ele>110.688843</ele>
        <time>2009-05-08T07:47:14Z</time>
      </trkpt>
      <trkpt lat="49.25657" lon="0.13296">
        <ele>111.650269</ele>
        <time>2009-05-08T07:47:19Z</time>
      </trkpt>
      <trkpt lat="49.25683" lon="0.13272">
        <ele>114.053589</ele>
        <time>2009-05-08T07:47:27Z</time>
      </trkpt>
      <trkpt lat="49.25696" lon="0.13263">
        <ele>115.014893</ele>
        <time>2009-05-08T07:47:31Z</time>
      </trkpt>
      <trkpt lat="49.2571" lon="0.13251">
        <ele>115.976196</ele>
        <time>2009-05-08T07:47:35Z</time>
      </trkpt>
      <trkpt lat="49.25724" lon="0.13233">
        <ele>115.495605</ele>
        <time>2009-05-08T07:47:39Z</time>
      </trkpt>
      <trkpt lat="49.25745" lon="0.13211">
        <ele>115.495605</ele>
        <time>2009-05-08T07:47:43Z</time>
      </trkpt>
      <trkpt lat="49.25759" lon="0.13199">
        <ele>115.014893</ele>
        <time>2009-05-08T07:47:45Z</time>
      </trkpt>
      <trkpt lat="49.2579" lon="0.13151">
        <ele>114.53418</ele>
        <time>2009-05-08T07:47:50Z</time>
      </trkpt>
      <trkpt lat="49.25799" lon="0.13137">
        <ele>114.53418</ele>
        <time>2009-05-08T07:47:52Z</time>
      </trkpt>
      <trkpt lat="49.25822" lon="0.13111">
        <ele>118.860107</ele>
        <time>2009-05-08T07:47:59Z</time>
      </trkpt>
      <trkpt lat="49.25848" lon="0.13075">
        <ele>119.821411</ele>
        <time>2009-05-08T07:48:07Z</time>
      </trkpt>
      <trkpt lat="49.25867" lon="0.13034">
        <ele>119.821411</ele>
        <time>2009-05-08T07:48:15Z</time>
      </trkpt>
      <trkpt lat="49.25872" lon="0.13024">
        <ele>119.34082</ele>
        <time>2009-05-08T07:48:17Z</time>
      </trkpt>
      <trkpt lat="49.25885" lon="0.1299">
        <ele>118.379395</ele>
        <time>2009-05-08T07:48:23Z</time>
      </trkpt>
      <trkpt lat="49.2591" lon="0.12938">
        <ele>116.9375</ele>
        <time>2009-05-08T07:48:31Z</time>
      </trkpt>
      <trkpt lat="49.25928" lon="0.12905">
        <ele>116.456787</ele>
        <time>2009-05-08T07:48:37Z</time>
      </trkpt>
      <trkpt lat="49.25938" lon="0.12888">
        <ele>116.9375</ele>
        <time>2009-05-08T07:48:40Z</time>
      </trkpt>
      <trkpt lat="49.25952" lon="0.12858">
        <ele>116.456787</ele>
        <time>2009-05-08T07:48:45Z</time>
      </trkpt>
      <trkpt lat="49.25963" lon="0.12828">
        <ele>115.495605</ele>
        <time>2009-05-08T07:48:50Z</time>
      </trkpt>
      <trkpt lat="49.25976" lon="0.12795">
        <ele>114.053589</ele>
        <time>2009-05-08T07:48:55Z</time>
      </trkpt>
      <trkpt lat="49.2599" lon="0.12755">
        <ele>112.611572</ele>
        <time>2009-05-08T07:49:01Z</time>
      </trkpt>
      <trkpt lat="49.25996" lon="0.12738">
        <ele>111.650269</ele>
        <time>2009-05-08T07:49:03Z</time>
      </trkpt>
      <trkpt lat="49.26009" lon="0.12707">
        <ele>110.208252</ele>
        <time>2009-05-08T07:49:07Z</time>
      </trkpt>
      <trkpt lat="49.26023" lon="0.12678">
        <ele>110.208252</ele>
        <time>2009-05-08T07:49:11Z</time>
      </trkpt>
      <trkpt lat="49.26049" lon="0.12633">
        <ele>110.688843</ele>
        <time>2009-05-08T07:49:18Z</time>
      </trkpt>
      <trkpt lat="49.26053" lon="0.12628">
        <ele>111.169556</ele>
        <time>2009-05-08T07:49:19Z</time>
      </trkpt>
      <trkpt lat="49.26073" lon="0.126">
        <ele>111.650269</ele>
        <time>2009-05-08T07:49:23Z</time>
      </trkpt>
      <trkpt lat="49.26083" lon="0.12582">
        <ele>112.611572</ele>
        <time>2009-05-08T07:49:26Z</time>
      </trkpt>
      <trkpt lat="49.26104" lon="0.12553">
        <ele>113.572998</ele>
        <time>2009-05-08T07:49:32Z</time>
      </trkpt>
      <trkpt lat="49.26107" lon="0.12548">
        <ele>113.572998</ele>
        <time>2009-05-08T07:49:33Z</time>
      </trkpt>
      <trkpt lat="49.26115" lon="0.12538">
        <ele>113.572998</ele>
        <time>2009-05-08T07:49:35Z</time>
      </trkpt>
      <trkpt lat="49.26125" lon="0.12518">
        <ele>114.053589</ele>
        <time>2009-05-08T07:49:39Z</time>
      </trkpt>
      <trkpt lat="49.26132" lon="0.12499">
        <ele>113.092285</ele>
        <time>2009-05-08T07:49:42Z</time>
      </trkpt>
      <trkpt lat="49.2613" lon="0.12463">
        <ele>110.688843</ele>
        <time>2009-05-08T07:49:47Z</time>
      </trkpt>
      <trkpt lat="49.26123" lon="0.12446">
        <ele>109.246948</ele>
        <time>2009-05-08T07:49:50Z</time>
      </trkpt>
      <trkpt lat="49.26117" lon="0.12422">
        <ele>107.324341</ele>
        <time>2009-05-08T07:49:54Z</time>
      </trkpt>
      <trkpt lat="49.2611" lon="0.124">
        <ele>102.998291</ele>
        <time>2009-05-08T07:49:58Z</time>
      </trkpt>
      <trkpt lat="49.26106" lon="0.12362">
        <ele>96.269287</ele>
        <time>2009-05-08T07:50:03Z</time>
      </trkpt>
      <trkpt lat="49.26099" lon="0.12341">
        <ele>92.904541</ele>
        <time>2009-05-08T07:50:05Z</time>
      </trkpt>
      <trkpt lat="49.26072" lon="0.12287">
        <ele>85.69458</ele>
        <time>2009-05-08T07:50:11Z</time>
      </trkpt>
      <trkpt lat="49.26055" lon="0.12255">
        <ele>83.291382</ele>
        <time>2009-05-08T07:50:16Z</time>
      </trkpt>
      <trkpt lat="49.2604" lon="0.12227">
        <ele>85.213989</ele>
        <time>2009-05-08T07:50:21Z</time>
      </trkpt>
      <trkpt lat="49.26029" lon="0.12196">
        <ele>88.578735</ele>
        <time>2009-05-08T07:50:27Z</time>
      </trkpt>
      <trkpt lat="49.26023" lon="0.12173">
        <ele>88.578735</ele>
        <time>2009-05-08T07:50:33Z</time>
      </trkpt>
      <trkpt lat="49.26022" lon="0.12169">
        <ele>88.098022</ele>
        <time>2009-05-08T07:50:34Z</time>
      </trkpt>
      <trkpt lat="49.26017" lon="0.12151">
        <ele>88.098022</ele>
        <time>2009-05-08T07:50:40Z</time>
      </trkpt>
      <trkpt lat="49.26014" lon="0.12142">
        <ele>88.578735</ele>
        <time>2009-05-08T07:50:44Z</time>
      </trkpt>
      <trkpt lat="49.26012" lon="0.12133">
        <ele>89.539917</ele>
        <time>2009-05-08T07:50:47Z</time>
      </trkpt>
      <trkpt lat="49.26007" lon="0.12126">
        <ele>89.539917</ele>
        <time>2009-05-08T07:50:51Z</time>
      </trkpt>
      <trkpt lat="49.26004" lon="0.12117">
        <ele>89.539917</ele>
        <time>2009-05-08T07:50:55Z</time>
      </trkpt>
      <trkpt lat="49.25999" lon="0.12107">
        <ele>88.578735</ele>
        <time>2009-05-08T07:51:00Z</time>
      </trkpt>
      <trkpt lat="49.25988" lon="0.12101">
        <ele>90.981934</ele>
        <time>2009-05-08T07:51:06Z</time>
      </trkpt>
      <trkpt lat="49.25977" lon="0.12098">
        <ele>94.346558</ele>
        <time>2009-05-08T07:51:12Z</time>
      </trkpt>
      <trkpt lat="49.25972" lon="0.12097">
        <ele>96.269287</ele>
        <time>2009-05-08T07:51:16Z</time>
      </trkpt>
      <trkpt lat="49.25966" lon="0.12096">
        <ele>97.711182</ele>
        <time>2009-05-08T07:51:22Z</time>
      </trkpt>
      <trkpt lat="49.25962" lon="0.12095">
        <ele>98.672485</ele>
        <time>2009-05-08T07:51:25Z</time>
      </trkpt>
      <trkpt lat="49.25955" lon="0.1209">
        <ele>99.633789</ele>
        <time>2009-05-08T07:51:31Z</time>
      </trkpt>
      <trkpt lat="49.25945" lon="0.12086">
        <ele>100.595093</ele>
        <time>2009-05-08T07:51:36Z</time>
      </trkpt>
      <trkpt lat="49.25934" lon="0.12084">
        <ele>101.556396</ele>
        <time>2009-05-08T07:51:42Z</time>
      </trkpt>
      <trkpt lat="49.25932" lon="0.12083">
        <ele>101.556396</ele>
        <time>2009-05-08T07:51:43Z</time>
      </trkpt>
      <trkpt lat="49.25921" lon="0.12079">
        <ele>102.037109</ele>
        <time>2009-05-08T07:51:49Z</time>
      </trkpt>
      <trkpt lat="49.25916" lon="0.12077">
        <ele>101.556396</ele>
        <time>2009-05-08T07:51:52Z</time>
      </trkpt>
      <trkpt lat="49.25909" lon="0.12072">
        <ele>102.037109</ele>
        <time>2009-05-08T07:51:58Z</time>
      </trkpt>
      <trkpt lat="49.25902" lon="0.12069">
        <ele>102.037109</ele>
        <time>2009-05-08T07:52:02Z</time>
      </trkpt>
      <trkpt lat="49.25896" lon="0.12066">
        <ele>103.479004</ele>
        <time>2009-05-08T07:52:08Z</time>
      </trkpt>
      <trkpt lat="49.25884" lon="0.12061">
        <ele>104.44043</ele>
        <time>2009-05-08T07:52:14Z</time>
      </trkpt>
      <trkpt lat="49.25866" lon="0.12052">
        <ele>106.363037</ele>
        <time>2009-05-08T07:52:21Z</time>
      </trkpt>
      <trkpt lat="49.25849" lon="0.12057">
        <ele>107.805054</ele>
        <time>2009-05-08T07:52:26Z</time>
      </trkpt>
      <trkpt lat="49.25846" lon="0.12058">
        <ele>107.805054</ele>
        <time>2009-05-08T07:52:27Z</time>
      </trkpt>
      <trkpt lat="49.25822" lon="0.12074">
        <ele>110.688843</ele>
        <time>2009-05-08T07:52:37Z</time>
      </trkpt>
      <trkpt lat="49.258" lon="0.12096">
        <ele>114.053589</ele>
        <time>2009-05-08T07:52:46Z</time>
      </trkpt>
      <trkpt lat="49.25777" lon="0.1212">
        <ele>115.014893</ele>
        <time>2009-05-08T07:52:54Z</time>
      </trkpt>
      <trkpt lat="49.25752" lon="0.12144">
        <ele>115.014893</ele>
        <time>2009-05-08T07:53:02Z</time>
      </trkpt>
      <trkpt lat="49.25733" lon="0.12163">
        <ele>115.014893</ele>
        <time>2009-05-08T07:53:09Z</time>
      </trkpt>
      <trkpt lat="49.25714" lon="0.1218">
        <ele>115.976196</ele>
        <time>2009-05-08T07:53:16Z</time>
      </trkpt>
      <trkpt lat="49.25696" lon="0.12198">
        <ele>116.456787</ele>
        <time>2009-05-08T07:53:21Z</time>
      </trkpt>
      <trkpt lat="49.25663" lon="0.12227">
        <ele>117.898804</ele>
        <time>2009-05-08T07:53:29Z</time>
      </trkpt>
      <trkpt lat="49.25626" lon="0.12261">
        <ele>117.898804</ele>
        <time>2009-05-08T07:53:37Z</time>
      </trkpt>
      <trkpt lat="49.25592" lon="0.12292">
        <ele>117.898804</ele>
        <time>2009-05-08T07:53:44Z</time>
      </trkpt>
      <trkpt lat="49.25564" lon="0.12332">
        <ele>118.860107</ele>
        <time>2009-05-08T07:53:51Z</time>
      </trkpt>
      <trkpt lat="49.25551" lon="0.12377">
        <ele>119.34082</ele>
        <time>2009-05-08T07:53:57Z</time>
      </trkpt>
      <trkpt lat="49.25545" lon="0.12414">
        <ele>119.821411</ele>
        <time>2009-05-08T07:54:02Z</time>
      </trkpt>
      <trkpt lat="49.25532" lon="0.12441">
        <ele>120.782837</ele>
        <time>2009-05-08T07:54:06Z</time>
      </trkpt>
      <trkpt lat="49.25522" lon="0.12453">
        <ele>120.782837</ele>
        <time>2009-05-08T07:54:09Z</time>
      </trkpt>
      <trkpt lat="49.25501" lon="0.12491">
        <ele>121.744141</ele>
        <time>2009-05-08T07:54:15Z</time>
      </trkpt>
      <trkpt lat="49.2549" lon="0.12528">
        <ele>124.147339</ele>
        <time>2009-05-08T07:54:20Z</time>
      </trkpt>
      <trkpt lat="49.2548" lon="0.12542">
        <ele>125.589355</ele>
        <time>2009-05-08T07:54:25Z</time>
      </trkpt>
      <trkpt lat="49.25474" lon="0.12551">
        <ele>120.782837</ele>
        <time>2009-05-08T07:55:09Z</time>
      </trkpt>
      <trkpt lat="49.25468" lon="0.12564">
        <ele>118.860107</ele>
        <time>2009-05-08T07:55:15Z</time>
      </trkpt>
      <trkpt lat="49.25465" lon="0.12567">
        <ele>116.9375</ele>
        <time>2009-05-08T07:55:21Z</time>
      </trkpt>
      <trkpt lat="49.25466" lon="0.12567">
        <ele>115.014893</ele>
        <time>2009-05-08T07:55:37Z</time>
      </trkpt>
      <trkpt lat="49.25456" lon="0.12586">
        <ele>114.053589</ele>
        <time>2009-05-08T07:55:43Z</time>
      </trkpt>
      <trkpt lat="49.25448" lon="0.12608">
        <ele>112.611572</ele>
        <time>2009-05-08T07:56:18Z</time>
      </trkpt>
      <trkpt lat="49.25443" lon="0.12618">
        <ele>111.650269</ele>
        <time>2009-05-08T07:58:09Z</time>
      </trkpt>
      <trkpt lat="49.25422" lon="0.12673">
        <ele>109.246948</ele>
        <time>2009-05-08T07:58:16Z</time>
      </trkpt>
      <trkpt lat="49.25399" lon="0.12717">
        <ele>106.843628</ele>
        <time>2009-05-08T07:58:22Z</time>
      </trkpt>
      <trkpt lat="49.25358" lon="0.12768">
        <ele>104.44043</ele>
        <time>2009-05-08T07:58:31Z</time>
      </trkpt>
      <trkpt lat="49.25341" lon="0.1278">
        <ele>103.479004</ele>
        <time>2009-05-08T07:58:34Z</time>
      </trkpt>
      <trkpt lat="49.25323" lon="0.12787">
        <ele>102.5177</ele>
        <time>2009-05-08T07:58:37Z</time>
      </trkpt>
      <trkpt lat="49.25311" lon="0.12789">
        <ele>102.998291</ele>
        <time>2009-05-08T07:58:39Z</time>
      </trkpt>
      <trkpt lat="49.2529" lon="0.12799">
        <ele>102.5177</ele>
        <time>2009-05-08T07:58:43Z</time>
      </trkpt>
      <trkpt lat="49.25269" lon="0.1282">
        <ele>100.595093</ele>
        <time>2009-05-08T07:58:47Z</time>
      </trkpt>
      <trkpt lat="49.25242" lon="0.12872">
        <ele>96.749878</ele>
        <time>2009-05-08T07:58:53Z</time>
      </trkpt>
      <trkpt lat="49.25229" lon="0.12901">
        <ele>93.865845</ele>
        <time>2009-05-08T07:58:57Z</time>
      </trkpt>
      <trkpt lat="49.25231" lon="0.12937">
        <ele>88.578735</ele>
        <time>2009-05-08T07:59:02Z</time>
      </trkpt>
      <trkpt lat="49.25232" lon="0.1296">
        <ele>86.175293</ele>
        <time>2009-05-08T07:59:05Z</time>
      </trkpt>
      <trkpt lat="49.2522" lon="0.1297">
        <ele>83.291382</ele>
        <time>2009-05-08T07:59:08Z</time>
      </trkpt>
      <trkpt lat="49.25205" lon="0.12966">
        <ele>80.407471</ele>
        <time>2009-05-08T07:59:12Z</time>
      </trkpt>
      <trkpt lat="49.25181" lon="0.12949">
        <ele>75.60083</ele>
        <time>2009-05-08T07:59:17Z</time>
      </trkpt>
      <trkpt lat="49.25159" lon="0.12962">
        <ele>72.716919</ele>
        <time>2009-05-08T07:59:21Z</time>
      </trkpt>
      <trkpt lat="49.25148" lon="0.13">
        <ele>70.313477</ele>
        <time>2009-05-08T07:59:28Z</time>
      </trkpt>
      <trkpt lat="49.25144" lon="0.13023">
        <ele>70.794189</ele>
        <time>2009-05-08T07:59:34Z</time>
      </trkpt>
      <trkpt lat="49.25137" lon="0.13046">
        <ele>70.794189</ele>
        <time>2009-05-08T07:59:39Z</time>
      </trkpt>
      <trkpt lat="49.2513" lon="0.13068">
        <ele>70.313477</ele>
        <time>2009-05-08T07:59:43Z</time>
      </trkpt>
      <trkpt lat="49.25121" lon="0.13095">
        <ele>68.871582</ele>
        <time>2009-05-08T07:59:47Z</time>
      </trkpt>
      <trkpt lat="49.251" lon="0.13135">
        <ele>67.429688</ele>
        <time>2009-05-08T07:59:52Z</time>
      </trkpt>
      <trkpt lat="49.25093" lon="0.13165">
        <ele>65.50708</ele>
        <time>2009-05-08T07:59:55Z</time>
      </trkpt>
      <trkpt lat="49.251" lon="0.13213">
        <ele>64.065063</ele>
        <time>2009-05-08T08:00:00Z</time>
      </trkpt>
      <trkpt lat="49.25102" lon="0.13224">
        <ele>63.103638</ele>
        <time>2009-05-08T08:00:01Z</time>
      </trkpt>
      <trkpt lat="49.25108" lon="0.13262">
        <ele>60.700317</ele>
        <time>2009-05-08T08:00:04Z</time>
      </trkpt>
      <trkpt lat="49.25109" lon="0.13298">
        <ele>57.816528</ele>
        <time>2009-05-08T08:00:07Z</time>
      </trkpt>
      <trkpt lat="49.25107" lon="0.13322">
        <ele>55.893799</ele>
        <time>2009-05-08T08:00:10Z</time>
      </trkpt>
      <trkpt lat="49.25102" lon="0.13335">
        <ele>55.893799</ele>
        <time>2009-05-08T08:00:14Z</time>
      </trkpt>
      <trkpt lat="49.25101" lon="0.13345">
        <ele>55.893799</ele>
        <time>2009-05-08T08:00:18Z</time>
      </trkpt>
      <trkpt lat="49.251" lon="0.13348">
        <ele>56.855103</ele>
        <time>2009-05-08T08:00:26Z</time>
      </trkpt>
      <trkpt lat="49.25096" lon="0.13349">
        <ele>62.142334</ele>
        <time>2009-05-08T08:05:23Z</time>
      </trkpt>
      <trkpt lat="49.25095" lon="0.13349">
        <ele>62.142334</ele>
        <time>2009-05-08T08:05:29Z</time>
      </trkpt>
      <trkpt lat="49.25096" lon="0.1335">
        <ele>64.065063</ele>
        <time>2009-05-08T08:05:42Z</time>
      </trkpt>
      <trkpt lat="49.25095" lon="0.13351">
        <ele>65.50708</ele>
        <time>2009-05-08T08:06:24Z</time>
      </trkpt>
      <trkpt lat="49.25095" lon="0.13352">
        <ele>66.468262</ele>
        <time>2009-05-08T08:06:59Z</time>
      </trkpt>
      <trkpt lat="49.25094" lon="0.13352">
        <ele>66.468262</ele>
        <time>2009-05-08T08:07:19Z</time>
      </trkpt>
      <trkpt lat="49.25095" lon="0.13348">
        <ele>64.545654</ele>
        <time>2009-05-08T08:07:35Z</time>
      </trkpt>
      <trkpt lat="49.25095" lon="0.13348">
        <ele>64.545654</ele>
        <time>2009-05-08T08:08:03Z</time>
      </trkpt>
      <trkpt lat="49.25096" lon="0.13348">
        <ele>64.065063</ele>
        <time>2009-05-08T08:08:16Z</time>
      </trkpt>
      <trkpt lat="49.25095" lon="0.13345">
        <ele>64.065063</ele>
        <time>2009-05-08T08:08:18Z</time>
      </trkpt>
      <trkpt lat="49.25078" lon="0.13339">
        <ele>63.584351</ele>
        <time>2009-05-08T08:08:25Z</time>
      </trkpt>
      <trkpt lat="49.25074" lon="0.13338">
        <ele>63.584351</ele>
        <time>2009-05-08T08:08:26Z</time>
      </trkpt>
      <trkpt lat="49.2504" lon="0.13335">
        <ele>62.622925</ele>
        <time>2009-05-08T08:08:35Z</time>
      </trkpt>
      <trkpt lat="49.25032" lon="0.13335">
        <ele>62.142334</ele>
        <time>2009-05-08T08:08:37Z</time>
      </trkpt>
      <trkpt lat="49.25018" lon="0.13346">
        <ele>62.142334</ele>
        <time>2009-05-08T08:08:41Z</time>
      </trkpt>
      <trkpt lat="49.24987" lon="0.13364">
        <ele>62.142334</ele>
        <time>2009-05-08T08:08:49Z</time>
      </trkpt>
      <trkpt lat="49.2496" lon="0.1337">
        <ele>62.142334</ele>
        <time>2009-05-08T08:08:56Z</time>
      </trkpt>
      <trkpt lat="49.24943" lon="0.13365">
        <ele>62.142334</ele>
        <time>2009-05-08T08:09:00Z</time>
      </trkpt>
      <trkpt lat="49.24934" lon="0.13357">
        <ele>62.142334</ele>
        <time>2009-05-08T08:09:02Z</time>
      </trkpt>
      <trkpt lat="49.24915" lon="0.13344">
        <ele>63.103638</ele>
        <time>2009-05-08T08:09:07Z</time>
      </trkpt>
      <trkpt lat="49.24902" lon="0.13342">
        <ele>64.545654</ele>
        <time>2009-05-08T08:09:10Z</time>
      </trkpt>
      <trkpt lat="49.24884" lon="0.13343">
        <ele>65.987671</ele>
        <time>2009-05-08T08:09:14Z</time>
      </trkpt>
      <trkpt lat="49.24844" lon="0.13354">
        <ele>68.871582</ele>
        <time>2009-05-08T08:09:23Z</time>
      </trkpt>
      <trkpt lat="49.24801" lon="0.13367">
        <ele>70.313477</ele>
        <time>2009-05-08T08:09:33Z</time>
      </trkpt>
      <trkpt lat="49.2478" lon="0.13374">
        <ele>70.313477</ele>
        <time>2009-05-08T08:09:38Z</time>
      </trkpt>
      <trkpt lat="49.24765" lon="0.13391">
        <ele>69.352295</ele>
        <time>2009-05-08T08:09:42Z</time>
      </trkpt>
      <trkpt lat="49.24762" lon="0.1341">
        <ele>68.871582</ele>
        <time>2009-05-08T08:09:44Z</time>
      </trkpt>
      <trkpt lat="49.2476" lon="0.13486">
        <ele>67.429688</ele>
        <time>2009-05-08T08:09:51Z</time>
      </trkpt>
      <trkpt lat="49.24756" lon="0.13549">
        <ele>65.026367</ele>
        <time>2009-05-08T08:09:56Z</time>
      </trkpt>
      <trkpt lat="49.24741" lon="0.13599">
        <ele>61.18103</ele>
        <time>2009-05-08T08:10:00Z</time>
      </trkpt>
      <trkpt lat="49.24694" lon="0.13672">
        <ele>56.374512</ele>
        <time>2009-05-08T08:10:07Z</time>
      </trkpt>
      <trkpt lat="49.24627" lon="0.13772">
        <ele>50.606567</ele>
        <time>2009-05-08T08:10:17Z</time>
      </trkpt>
      <trkpt lat="49.24621" lon="0.13783">
        <ele>50.125977</ele>
        <time>2009-05-08T08:10:18Z</time>
      </trkpt>
      <trkpt lat="49.24605" lon="0.13848">
        <ele>48.68396</ele>
        <time>2009-05-08T08:10:23Z</time>
      </trkpt>
      <trkpt lat="49.24606" lon="0.13891">
        <ele>48.203369</ele>
        <time>2009-05-08T08:10:26Z</time>
      </trkpt>
      <trkpt lat="49.24617" lon="0.14008">
        <ele>49.645264</ele>
        <time>2009-05-08T08:10:34Z</time>
      </trkpt>
      <trkpt lat="49.24627" lon="0.14106">
        <ele>49.645264</ele>
        <time>2009-05-08T08:10:41Z</time>
      </trkpt>
      <trkpt lat="49.24634" lon="0.1418">
        <ele>49.645264</ele>
        <time>2009-05-08T08:10:47Z</time>
      </trkpt>
      <trkpt lat="49.24643" lon="0.14269">
        <ele>49.645264</ele>
        <time>2009-05-08T08:10:56Z</time>
      </trkpt>
      <trkpt lat="49.24645" lon="0.14299">
        <ele>49.645264</ele>
        <time>2009-05-08T08:10:59Z</time>
      </trkpt>
      <trkpt lat="49.24652" lon="0.14377">
        <ele>48.203369</ele>
        <time>2009-05-08T08:11:06Z</time>
      </trkpt>
      <trkpt lat="49.24668" lon="0.14473">
        <ele>47.241821</ele>
        <time>2009-05-08T08:11:14Z</time>
      </trkpt>
      <trkpt lat="49.2469" lon="0.14555">
        <ele>46.76123</ele>
        <time>2009-05-08T08:11:21Z</time>
      </trkpt>
      <trkpt lat="49.24699" lon="0.14645">
        <ele>47.241821</ele>
        <time>2009-05-08T08:11:29Z</time>
      </trkpt>
      <trkpt lat="49.24688" lon="0.14672">
        <ele>46.76123</ele>
        <time>2009-05-08T08:11:33Z</time>
      </trkpt>
      <trkpt lat="49.24683" lon="0.14673">
        <ele>46.76123</ele>
        <time>2009-05-08T08:11:34Z</time>
      </trkpt>
      <trkpt lat="49.24654" lon="0.14679">
        <ele>47.241821</ele>
        <time>2009-05-08T08:11:39Z</time>
      </trkpt>
      <trkpt lat="49.24632" lon="0.14682">
        <ele>49.645264</ele>
        <time>2009-05-08T08:11:44Z</time>
      </trkpt>
      <trkpt lat="49.24615" lon="0.14683">
        <ele>51.087158</ele>
        <time>2009-05-08T08:11:48Z</time>
      </trkpt>
      <trkpt lat="49.24598" lon="0.14689">
        <ele>52.048584</ele>
        <time>2009-05-08T08:11:52Z</time>
      </trkpt>
      <trkpt lat="49.24574" lon="0.14702">
        <ele>54.451782</ele>
        <time>2009-05-08T08:11:59Z</time>
      </trkpt>
      <trkpt lat="49.24563" lon="0.14708">
        <ele>55.413086</ele>
        <time>2009-05-08T08:12:03Z</time>
      </trkpt>
      <trkpt lat="49.24548" lon="0.14715">
        <ele>55.893799</ele>
        <time>2009-05-08T08:12:08Z</time>
      </trkpt>
      <trkpt lat="49.2453" lon="0.14722">
        <ele>54.932373</ele>
        <time>2009-05-08T08:12:15Z</time>
      </trkpt>
      <trkpt lat="49.24519" lon="0.14725">
        <ele>54.451782</ele>
        <time>2009-05-08T08:12:19Z</time>
      </trkpt>
      <trkpt lat="49.24502" lon="0.14733">
        <ele>53.971191</ele>
        <time>2009-05-08T08:12:25Z</time>
      </trkpt>
      <trkpt lat="49.24485" lon="0.14745">
        <ele>51.567871</ele>
        <time>2009-05-08T08:12:31Z</time>
      </trkpt>
      <trkpt lat="49.24469" lon="0.14759">
        <ele>50.606567</ele>
        <time>2009-05-08T08:12:37Z</time>
      </trkpt>
      <trkpt lat="49.24443" lon="0.14779">
        <ele>53.009766</ele>
        <time>2009-05-08T08:12:46Z</time>
      </trkpt>
      <trkpt lat="49.24426" lon="0.14791">
        <ele>55.893799</ele>
        <time>2009-05-08T08:12:53Z</time>
      </trkpt>
      <trkpt lat="49.24412" lon="0.14796">
        <ele>58.297119</ele>
        <time>2009-05-08T08:12:58Z</time>
      </trkpt>
      <trkpt lat="49.24394" lon="0.14808">
        <ele>61.18103</ele>
        <time>2009-05-08T08:13:05Z</time>
      </trkpt>
      <trkpt lat="49.24382" lon="0.14816">
        <ele>62.622925</ele>
        <time>2009-05-08T08:13:11Z</time>
      </trkpt>
      <trkpt lat="49.24367" lon="0.14827">
        <ele>65.026367</ele>
        <time>2009-05-08T08:13:19Z</time>
      </trkpt>
      <trkpt lat="49.24355" lon="0.14837">
        <ele>65.987671</ele>
        <time>2009-05-08T08:13:26Z</time>
      </trkpt>
      <trkpt lat="49.2434" lon="0.14849">
        <ele>68.390869</ele>
        <time>2009-05-08T08:13:34Z</time>
      </trkpt>
      <trkpt lat="49.2433" lon="0.14858">
        <ele>69.352295</ele>
        <time>2009-05-08T08:13:40Z</time>
      </trkpt>
      <trkpt lat="49.24317" lon="0.14862">
        <ele>71.755493</ele>
        <time>2009-05-08T08:13:47Z</time>
      </trkpt>
      <trkpt lat="49.24299" lon="0.14859">
        <ele>72.716919</ele>
        <time>2009-05-08T08:13:55Z</time>
      </trkpt>
      <trkpt lat="49.24278" lon="0.14853">
        <ele>74.639526</ele>
        <time>2009-05-08T08:14:02Z</time>
      </trkpt>
      <trkpt lat="49.24244" lon="0.14846">
        <ele>74.158813</ele>
        <time>2009-05-08T08:14:11Z</time>
      </trkpt>
      <trkpt lat="49.2421" lon="0.14847">
        <ele>73.197632</ele>
        <time>2009-05-08T08:14:19Z</time>
      </trkpt>
      <trkpt lat="49.24166" lon="0.14842">
        <ele>72.716919</ele>
        <time>2009-05-08T08:14:28Z</time>
      </trkpt>
      <trkpt lat="49.24155" lon="0.14838">
        <ele>72.236206</ele>
        <time>2009-05-08T08:14:30Z</time>
      </trkpt>
      <trkpt lat="49.24143" lon="0.14831">
        <ele>71.755493</ele>
        <time>2009-05-08T08:14:32Z</time>
      </trkpt>
      <trkpt lat="49.24113" lon="0.14816">
        <ele>70.794189</ele>
        <time>2009-05-08T08:14:37Z</time>
      </trkpt>
      <trkpt lat="49.24073" lon="0.14793">
        <ele>68.390869</ele>
        <time>2009-05-08T08:14:44Z</time>
      </trkpt>
      <trkpt lat="49.24062" lon="0.14787">
        <ele>67.910278</ele>
        <time>2009-05-08T08:14:46Z</time>
      </trkpt>
      <trkpt lat="49.24045" lon="0.14765">
        <ele>68.390869</ele>
        <time>2009-05-08T08:14:50Z</time>
      </trkpt>
      <trkpt lat="49.24028" lon="0.14748">
        <ele>68.390869</ele>
        <time>2009-05-08T08:14:53Z</time>
      </trkpt>
      <trkpt lat="49.24001" lon="0.14735">
        <ele>68.390869</ele>
        <time>2009-05-08T08:14:58Z</time>
      </trkpt>
      <trkpt lat="49.23985" lon="0.14733">
        <ele>69.832886</ele>
        <time>2009-05-08T08:15:02Z</time>
      </trkpt>
      <trkpt lat="49.23965" lon="0.14725">
        <ele>71.755493</ele>
        <time>2009-05-08T08:15:09Z</time>
      </trkpt>
      <trkpt lat="49.23942" lon="0.14715">
        <ele>73.678223</ele>
        <time>2009-05-08T08:15:14Z</time>
      </trkpt>
      <trkpt lat="49.23899" lon="0.14704">
        <ele>75.120239</ele>
        <time>2009-05-08T08:15:23Z</time>
      </trkpt>
      <trkpt lat="49.23868" lon="0.14689">
        <ele>75.120239</ele>
        <time>2009-05-08T08:15:30Z</time>
      </trkpt>
      <trkpt lat="49.23861" lon="0.14694">
        <ele>76.081421</ele>
        <time>2009-05-08T08:15:35Z</time>
      </trkpt>
      <trkpt lat="49.23859" lon="0.1471">
        <ele>76.562134</ele>
        <time>2009-05-08T08:15:42Z</time>
      </trkpt>
      <trkpt lat="49.23859" lon="0.14711">
        <ele>77.042847</ele>
        <time>2009-05-08T08:15:43Z</time>
      </trkpt>
      <trkpt lat="49.23849" lon="0.14723">
        <ele>78.484741</ele>
        <time>2009-05-08T08:15:51Z</time>
      </trkpt>
      <trkpt lat="49.23844" lon="0.14729">
        <ele>79.926636</ele>
        <time>2009-05-08T08:15:56Z</time>
      </trkpt>
      <trkpt lat="49.23839" lon="0.14739">
        <ele>83.291382</ele>
        <time>2009-05-08T08:16:03Z</time>
      </trkpt>
      <trkpt lat="49.23836" lon="0.14749">
        <ele>85.213989</ele>
        <time>2009-05-08T08:16:09Z</time>
      </trkpt>
      <trkpt lat="49.23836" lon="0.14756">
        <ele>86.656006</ele>
        <time>2009-05-08T08:16:14Z</time>
      </trkpt>
      <trkpt lat="49.23832" lon="0.14768">
        <ele>90.501343</ele>
        <time>2009-05-08T08:16:21Z</time>
      </trkpt>
      <trkpt lat="49.23829" lon="0.14779">
        <ele>92.904541</ele>
        <time>2009-05-08T08:16:26Z</time>
      </trkpt>
      <trkpt lat="49.23828" lon="0.14789">
        <ele>95.307739</ele>
        <time>2009-05-08T08:16:32Z</time>
      </trkpt>
      <trkpt lat="49.23827" lon="0.14791">
        <ele>95.788452</ele>
        <time>2009-05-08T08:16:33Z</time>
      </trkpt>
      <trkpt lat="49.23826" lon="0.14798">
        <ele>97.711182</ele>
        <time>2009-05-08T08:16:38Z</time>
      </trkpt>
      <trkpt lat="49.23825" lon="0.14801">
        <ele>98.672485</ele>
        <time>2009-05-08T08:16:41Z</time>
      </trkpt>
      <trkpt lat="49.23824" lon="0.1481">
        <ele>98.672485</ele>
        <time>2009-05-08T08:16:46Z</time>
      </trkpt>
      <trkpt lat="49.23822" lon="0.1482">
        <ele>100.114502</ele>
        <time>2009-05-08T08:16:51Z</time>
      </trkpt>
      <trkpt lat="49.2382" lon="0.14827">
        <ele>101.556396</ele>
        <time>2009-05-08T08:16:56Z</time>
      </trkpt>
      <trkpt lat="49.23814" lon="0.14844">
        <ele>102.5177</ele>
        <time>2009-05-08T08:17:04Z</time>
      </trkpt>
      <trkpt lat="49.23812" lon="0.14855">
        <ele>104.44043</ele>
        <time>2009-05-08T08:17:11Z</time>
      </trkpt>
      <trkpt lat="49.23809" lon="0.14864">
        <ele>106.363037</ele>
        <time>2009-05-08T08:17:19Z</time>
      </trkpt>
      <trkpt lat="49.23807" lon="0.14871">
        <ele>106.843628</ele>
        <time>2009-05-08T08:17:24Z</time>
      </trkpt>
      <trkpt lat="49.23807" lon="0.14877">
        <ele>107.324341</ele>
        <time>2009-05-08T08:17:31Z</time>
      </trkpt>
      <trkpt lat="49.23807" lon="0.14879">
        <ele>108.285645</ele>
        <time>2009-05-08T08:17:34Z</time>
      </trkpt>
      <trkpt lat="49.23804" lon="0.14889">
        <ele>109.246948</ele>
        <time>2009-05-08T08:17:40Z</time>
      </trkpt>
      <trkpt lat="49.23801" lon="0.14906">
        <ele>110.208252</ele>
        <time>2009-05-08T08:17:46Z</time>
      </trkpt>
      <trkpt lat="49.23799" lon="0.14926">
        <ele>110.688843</ele>
        <time>2009-05-08T08:17:54Z</time>
      </trkpt>
      <trkpt lat="49.23796" lon="0.14945">
        <ele>111.650269</ele>
        <time>2009-05-08T08:18:00Z</time>
      </trkpt>
      <trkpt lat="49.23796" lon="0.14959">
        <ele>111.650269</ele>
        <time>2009-05-08T08:18:04Z</time>
      </trkpt>
      <trkpt lat="49.23792" lon="0.14984">
        <ele>113.092285</ele>
        <time>2009-05-08T08:18:10Z</time>
      </trkpt>
      <trkpt lat="49.2379" lon="0.15013">
        <ele>115.976196</ele>
        <time>2009-05-08T08:18:16Z</time>
      </trkpt>
      <trkpt lat="49.23795" lon="0.15042">
        <ele>115.495605</ele>
        <time>2009-05-08T08:18:21Z</time>
      </trkpt>
      <trkpt lat="49.23798" lon="0.15068">
        <ele>114.53418</ele>
        <time>2009-05-08T08:18:26Z</time>
      </trkpt>
      <trkpt lat="49.23807" lon="0.15091">
        <ele>114.053589</ele>
        <time>2009-05-08T08:18:31Z</time>
      </trkpt>
      <trkpt lat="49.23811" lon="0.151">
        <ele>113.572998</ele>
        <time>2009-05-08T08:18:33Z</time>
      </trkpt>
      <trkpt lat="49.2383" lon="0.15118">
        <ele>112.130981</ele>
        <time>2009-05-08T08:18:39Z</time>
      </trkpt>
      <trkpt lat="49.23833" lon="0.15119">
        <ele>111.169556</ele>
        <time>2009-05-08T08:18:40Z</time>
      </trkpt>
      <trkpt lat="49.2385" lon="0.15127">
        <ele>108.285645</ele>
        <time>2009-05-08T08:18:49Z</time>
      </trkpt>
      <trkpt lat="49.23861" lon="0.15134">
        <ele>107.805054</ele>
        <time>2009-05-08T08:18:55Z</time>
      </trkpt>
      <trkpt lat="49.2387" lon="0.1514">
        <ele>108.285645</ele>
        <time>2009-05-08T08:18:59Z</time>
      </trkpt>
      <trkpt lat="49.23881" lon="0.15148">
        <ele>107.324341</ele>
        <time>2009-05-08T08:19:05Z</time>
      </trkpt>
      <trkpt lat="49.2389" lon="0.15156">
        <ele>106.843628</ele>
        <time>2009-05-08T08:19:10Z</time>
      </trkpt>
      <trkpt lat="49.23899" lon="0.15164">
        <ele>106.843628</ele>
        <time>2009-05-08T08:19:15Z</time>
      </trkpt>
      <trkpt lat="49.23907" lon="0.15171">
        <ele>106.843628</ele>
        <time>2009-05-08T08:19:18Z</time>
      </trkpt>
      <trkpt lat="49.23929" lon="0.15187">
        <ele>106.363037</ele>
        <time>2009-05-08T08:19:23Z</time>
      </trkpt>
      <trkpt lat="49.23941" lon="0.15195">
        <ele>106.363037</ele>
        <time>2009-05-08T08:19:25Z</time>
      </trkpt>
      <trkpt lat="49.23969" lon="0.1521">
        <ele>106.843628</ele>
        <time>2009-05-08T08:19:30Z</time>
      </trkpt>
      <trkpt lat="49.23997" lon="0.15226">
        <ele>106.843628</ele>
        <time>2009-05-08T08:19:35Z</time>
      </trkpt>
      <trkpt lat="49.24027" lon="0.15242">
        <ele>107.805054</ele>
        <time>2009-05-08T08:19:40Z</time>
      </trkpt>
      <trkpt lat="49.24045" lon="0.15249">
        <ele>108.285645</ele>
        <time>2009-05-08T08:19:44Z</time>
      </trkpt>
      <trkpt lat="49.24049" lon="0.15249">
        <ele>108.285645</ele>
        <time>2009-05-08T08:19:45Z</time>
      </trkpt>
      <trkpt lat="49.2407" lon="0.15263">
        <ele>108.285645</ele>
        <time>2009-05-08T08:19:49Z</time>
      </trkpt>
      <trkpt lat="49.2408" lon="0.1527">
        <ele>108.766235</ele>
        <time>2009-05-08T08:19:51Z</time>
      </trkpt>
      <trkpt lat="49.24111" lon="0.15289">
        <ele>108.766235</ele>
        <time>2009-05-08T08:19:57Z</time>
      </trkpt>
      <trkpt lat="49.24142" lon="0.15305">
        <ele>107.805054</ele>
        <time>2009-05-08T08:20:03Z</time>
      </trkpt>
      <trkpt lat="49.24159" lon="0.15308">
        <ele>106.843628</ele>
        <time>2009-05-08T08:20:06Z</time>
      </trkpt>
      <trkpt lat="49.24185" lon="0.15315">
        <ele>103.959717</ele>
        <time>2009-05-08T08:20:11Z</time>
      </trkpt>
      <trkpt lat="49.24194" lon="0.15319">
        <ele>102.5177</ele>
        <time>2009-05-08T08:20:13Z</time>
      </trkpt>
      <trkpt lat="49.24213" lon="0.15325">
        <ele>100.114502</ele>
        <time>2009-05-08T08:20:17Z</time>
      </trkpt>
      <trkpt lat="49.24252" lon="0.15334">
        <ele>98.672485</ele>
        <time>2009-05-08T08:20:25Z</time>
      </trkpt>
      <trkpt lat="49.24285" lon="0.15348">
        <ele>97.230469</ele>
        <time>2009-05-08T08:20:31Z</time>
      </trkpt>
      <trkpt lat="49.24305" lon="0.1536">
        <ele>96.749878</ele>
        <time>2009-05-08T08:20:35Z</time>
      </trkpt>
      <trkpt lat="49.24336" lon="0.15373">
        <ele>96.749878</ele>
        <time>2009-05-08T08:20:40Z</time>
      </trkpt>
      <trkpt lat="49.24365" lon="0.15387">
        <ele>95.788452</ele>
        <time>2009-05-08T08:20:44Z</time>
      </trkpt>
      <trkpt lat="49.24426" lon="0.1541">
        <ele>91.462524</ele>
        <time>2009-05-08T08:20:51Z</time>
      </trkpt>
      <trkpt lat="49.24474" lon="0.15425">
        <ele>86.656006</ele>
        <time>2009-05-08T08:20:56Z</time>
      </trkpt>
      <trkpt lat="49.24553" lon="0.15458">
        <ele>83.771973</ele>
        <time>2009-05-08T08:21:03Z</time>
      </trkpt>
      <trkpt lat="49.2463" lon="0.15499">
        <ele>78.965454</ele>
        <time>2009-05-08T08:21:10Z</time>
      </trkpt>
      <trkpt lat="49.24706" lon="0.15551">
        <ele>75.120239</ele>
        <time>2009-05-08T08:21:18Z</time>
      </trkpt>
      <trkpt lat="49.24774" lon="0.15598">
        <ele>70.794189</ele>
        <time>2009-05-08T08:21:26Z</time>
      </trkpt>
      <trkpt lat="49.24787" lon="0.15605">
        <ele>69.352295</ele>
        <time>2009-05-08T08:21:28Z</time>
      </trkpt>
      <trkpt lat="49.24826" lon="0.15614">
        <ele>64.545654</ele>
        <time>2009-05-08T08:21:34Z</time>
      </trkpt>
      <trkpt lat="49.24852" lon="0.15631">
        <ele>62.622925</ele>
        <time>2009-05-08T08:21:38Z</time>
      </trkpt>
      <trkpt lat="49.24874" lon="0.15658">
        <ele>62.142334</ele>
        <time>2009-05-08T08:21:42Z</time>
      </trkpt>
      <trkpt lat="49.24887" lon="0.15684">
        <ele>62.142334</ele>
        <time>2009-05-08T08:21:45Z</time>
      </trkpt>
      <trkpt lat="49.24899" lon="0.15716">
        <ele>61.18103</ele>
        <time>2009-05-08T08:21:48Z</time>
      </trkpt>
      <trkpt lat="49.24915" lon="0.15771">
        <ele>58.77771</ele>
        <time>2009-05-08T08:21:53Z</time>
      </trkpt>
      <trkpt lat="49.24931" lon="0.15838">
        <ele>55.413086</ele>
        <time>2009-05-08T08:21:59Z</time>
      </trkpt>
      <trkpt lat="49.24936" lon="0.15873">
        <ele>53.490479</ele>
        <time>2009-05-08T08:22:02Z</time>
      </trkpt>
      <trkpt lat="49.24948" lon="0.15952">
        <ele>49.645264</ele>
        <time>2009-05-08T08:22:08Z</time>
      </trkpt>
      <trkpt lat="49.24952" lon="0.15964">
        <ele>48.68396</ele>
        <time>2009-05-08T08:22:09Z</time>
      </trkpt>
      <trkpt lat="49.24963" lon="0.15991">
        <ele>47.241821</ele>
        <time>2009-05-08T08:22:11Z</time>
      </trkpt>
      <trkpt lat="49.24981" lon="0.16059">
        <ele>43.396606</ele>
        <time>2009-05-08T08:22:16Z</time>
      </trkpt>
      <trkpt lat="49.24981" lon="0.16072">
        <ele>42.916016</ele>
        <time>2009-05-08T08:22:17Z</time>
      </trkpt>
      <trkpt lat="49.2498" lon="0.161">
        <ele>42.916016</ele>
        <time>2009-05-08T08:22:20Z</time>
      </trkpt>
      <trkpt lat="49.24969" lon="0.16118">
        <ele>43.877319</ele>
        <time>2009-05-08T08:22:26Z</time>
      </trkpt>
      <trkpt lat="49.24934" lon="0.16126">
        <ele>44.838623</ele>
        <time>2009-05-08T08:22:34Z</time>
      </trkpt>
      <trkpt lat="49.24926" lon="0.16128">
        <ele>45.319214</ele>
        <time>2009-05-08T08:22:36Z</time>
      </trkpt>
      <trkpt lat="49.24915" lon="0.16148">
        <ele>46.28064</ele>
        <time>2009-05-08T08:22:40Z</time>
      </trkpt>
      <trkpt lat="49.24914" lon="0.16214">
        <ele>47.722534</ele>
        <time>2009-05-08T08:22:50Z</time>
      </trkpt>
      <trkpt lat="49.24917" lon="0.16248">
        <ele>49.164551</ele>
        <time>2009-05-08T08:22:57Z</time>
      </trkpt>
      <trkpt lat="49.24922" lon="0.16279">
        <ele>51.567871</ele>
        <time>2009-05-08T08:23:04Z</time>
      </trkpt>
      <trkpt lat="49.2492" lon="0.16308">
        <ele>53.490479</ele>
        <time>2009-05-08T08:23:11Z</time>
      </trkpt>
      <trkpt lat="49.24918" lon="0.16328">
        <ele>55.893799</ele>
        <time>2009-05-08T08:23:17Z</time>
      </trkpt>
      <trkpt lat="49.24917" lon="0.16352">
        <ele>56.855103</ele>
        <time>2009-05-08T08:23:23Z</time>
      </trkpt>
      <trkpt lat="49.24914" lon="0.1638">
        <ele>59.739136</ele>
        <time>2009-05-08T08:23:31Z</time>
      </trkpt>
      <trkpt lat="49.24914" lon="0.16401">
        <ele>62.142334</ele>
        <time>2009-05-08T08:23:38Z</time>
      </trkpt>
      <trkpt lat="49.24913" lon="0.16425">
        <ele>63.584351</ele>
        <time>2009-05-08T08:23:45Z</time>
      </trkpt>
      <trkpt lat="49.24912" lon="0.16445">
        <ele>64.545654</ele>
        <time>2009-05-08T08:23:51Z</time>
      </trkpt>
      <trkpt lat="49.24907" lon="0.16473">
        <ele>66.948975</ele>
        <time>2009-05-08T08:24:00Z</time>
      </trkpt>
      <trkpt lat="49.24905" lon="0.16499">
        <ele>69.352295</ele>
        <time>2009-05-08T08:24:08Z</time>
      </trkpt>
      <trkpt lat="49.24904" lon="0.16515">
        <ele>71.755493</ele>
        <time>2009-05-08T08:24:13Z</time>
      </trkpt>
      <trkpt lat="49.24911" lon="0.16523">
        <ele>73.197632</ele>
        <time>2009-05-08T08:24:17Z</time>
      </trkpt>
      <trkpt lat="49.24935" lon="0.1653">
        <ele>73.197632</ele>
        <time>2009-05-08T08:24:27Z</time>
      </trkpt>
      <trkpt lat="49.24958" lon="0.16537">
        <ele>73.197632</ele>
        <time>2009-05-08T08:24:34Z</time>
      </trkpt>
      <trkpt lat="49.24961" lon="0.16538">
        <ele>73.197632</ele>
        <time>2009-05-08T08:24:35Z</time>
      </trkpt>
      <trkpt lat="49.24976" lon="0.16554">
        <ele>73.197632</ele>
        <time>2009-05-08T08:24:42Z</time>
      </trkpt>
      <trkpt lat="49.2498" lon="0.16562">
        <ele>73.678223</ele>
        <time>2009-05-08T08:24:46Z</time>
      </trkpt>
      <trkpt lat="49.24988" lon="0.16577">
        <ele>73.678223</ele>
        <time>2009-05-08T08:24:54Z</time>
      </trkpt>
      <trkpt lat="49.24991" lon="0.16582">
        <ele>74.158813</ele>
        <time>2009-05-08T08:24:57Z</time>
      </trkpt>
      <trkpt lat="49.24994" lon="0.16593">
        <ele>75.60083</ele>
        <time>2009-05-08T08:25:02Z</time>
      </trkpt>
      <trkpt lat="49.24994" lon="0.16607">
        <ele>78.965454</ele>
        <time>2009-05-08T08:25:09Z</time>
      </trkpt>
      <trkpt lat="49.24994" lon="0.16615">
        <ele>80.888184</ele>
        <time>2009-05-08T08:25:14Z</time>
      </trkpt>
      <trkpt lat="49.24996" lon="0.16624">
        <ele>82.810791</ele>
        <time>2009-05-08T08:25:19Z</time>
      </trkpt>
      <trkpt lat="49.25" lon="0.16634">
        <ele>86.175293</ele>
        <time>2009-05-08T08:25:25Z</time>
      </trkpt>
      <trkpt lat="49.25005" lon="0.16643">
        <ele>88.098022</ele>
        <time>2009-05-08T08:25:30Z</time>
      </trkpt>
      <trkpt lat="49.25008" lon="0.16649">
        <ele>90.02063</ele>
        <time>2009-05-08T08:25:34Z</time>
      </trkpt>
      <trkpt lat="49.25015" lon="0.16663">
        <ele>91.943237</ele>
        <time>2009-05-08T08:25:41Z</time>
      </trkpt>
      <trkpt lat="49.25015" lon="0.16665">
        <ele>92.42395</ele>
        <time>2009-05-08T08:25:42Z</time>
      </trkpt>
      <trkpt lat="49.25023" lon="0.16684">
        <ele>92.904541</ele>
        <time>2009-05-08T08:25:51Z</time>
      </trkpt>
      <trkpt lat="49.25029" lon="0.16695">
        <ele>93.865845</ele>
        <time>2009-05-08T08:25:57Z</time>
      </trkpt>
      <trkpt lat="49.25037" lon="0.16713">
        <ele>96.749878</ele>
        <time>2009-05-08T08:26:05Z</time>
      </trkpt>
      <trkpt lat="49.2504" lon="0.1672">
        <ele>98.191895</ele>
        <time>2009-05-08T08:26:09Z</time>
      </trkpt>
      <trkpt lat="49.25047" lon="0.16732">
        <ele>99.633789</ele>
        <time>2009-05-08T08:26:17Z</time>
      </trkpt>
      <trkpt lat="49.2505" lon="0.16739">
        <ele>99.633789</ele>
        <time>2009-05-08T08:26:23Z</time>
      </trkpt>
      <trkpt lat="49.25054" lon="0.16744">
        <ele>100.114502</ele>
        <time>2009-05-08T08:26:28Z</time>
      </trkpt>
      <trkpt lat="49.25062" lon="0.16755">
        <ele>102.037109</ele>
        <time>2009-05-08T08:26:36Z</time>
      </trkpt>
      <trkpt lat="49.25066" lon="0.16762">
        <ele>102.998291</ele>
        <time>2009-05-08T08:26:40Z</time>
      </trkpt>
      <trkpt lat="49.25071" lon="0.16769">
        <ele>104.921021</ele>
        <time>2009-05-08T08:26:45Z</time>
      </trkpt>
      <trkpt lat="49.25072" lon="0.16776">
        <ele>106.843628</ele>
        <time>2009-05-08T08:26:49Z</time>
      </trkpt>
      <trkpt lat="49.25073" lon="0.16781">
        <ele>108.285645</ele>
        <time>2009-05-08T08:26:52Z</time>
      </trkpt>
      <trkpt lat="49.2508" lon="0.168">
        <ele>111.169556</ele>
        <time>2009-05-08T08:27:01Z</time>
      </trkpt>
      <trkpt lat="49.25082" lon="0.16805">
        <ele>112.130981</ele>
        <time>2009-05-08T08:27:04Z</time>
      </trkpt>
      <trkpt lat="49.2509" lon="0.16821">
        <ele>114.53418</ele>
        <time>2009-05-08T08:27:10Z</time>
      </trkpt>
      <trkpt lat="49.25095" lon="0.16831">
        <ele>115.976196</ele>
        <time>2009-05-08T08:27:14Z</time>
      </trkpt>
      <trkpt lat="49.25099" lon="0.16842">
        <ele>117.898804</ele>
        <time>2009-05-08T08:27:18Z</time>
      </trkpt>
      <trkpt lat="49.25107" lon="0.16862">
        <ele>120.302124</ele>
        <time>2009-05-08T08:27:25Z</time>
      </trkpt>
      <trkpt lat="49.25114" lon="0.16875">
        <ele>121.744141</ele>
        <time>2009-05-08T08:27:30Z</time>
      </trkpt>
      <trkpt lat="49.25125" lon="0.16895">
        <ele>122.224731</ele>
        <time>2009-05-08T08:27:35Z</time>
      </trkpt>
      <trkpt lat="49.25135" lon="0.16915">
        <ele>122.705444</ele>
        <time>2009-05-08T08:27:39Z</time>
      </trkpt>
      <trkpt lat="49.2515" lon="0.16945">
        <ele>121.744141</ele>
        <time>2009-05-08T08:27:44Z</time>
      </trkpt>
      <trkpt lat="49.25165" lon="0.16968">
        <ele>121.744141</ele>
        <time>2009-05-08T08:27:49Z</time>
      </trkpt>
      <trkpt lat="49.25172" lon="0.1698">
        <ele>121.26355</ele>
        <time>2009-05-08T08:27:51Z</time>
      </trkpt>
      <trkpt lat="49.25183" lon="0.17006">
        <ele>118.860107</ele>
        <time>2009-05-08T08:27:55Z</time>
      </trkpt>
      <trkpt lat="49.25186" lon="0.17009">
        <ele>118.379395</ele>
        <time>2009-05-08T08:27:56Z</time>
      </trkpt>
      <trkpt lat="49.25208" lon="0.17014">
        <ele>112.611572</ele>
        <time>2009-05-08T08:28:02Z</time>
      </trkpt>
      <trkpt lat="49.25231" lon="0.17003">
        <ele>107.324341</ele>
        <time>2009-05-08T08:28:06Z</time>
      </trkpt>
      <trkpt lat="49.2526" lon="0.17006">
        <ele>101.075684</ele>
        <time>2009-05-08T08:28:10Z</time>
      </trkpt>
      <trkpt lat="49.25291" lon="0.17015">
        <ele>93.865845</ele>
        <time>2009-05-08T08:28:14Z</time>
      </trkpt>
      <trkpt lat="49.25313" lon="0.17024">
        <ele>90.02063</ele>
        <time>2009-05-08T08:28:17Z</time>
      </trkpt>
      <trkpt lat="49.2532" lon="0.1705">
        <ele>84.733398</ele>
        <time>2009-05-08T08:28:20Z</time>
      </trkpt>
      <trkpt lat="49.25312" lon="0.17086">
        <ele>80.407471</ele>
        <time>2009-05-08T08:28:24Z</time>
      </trkpt>
      <trkpt lat="49.2531" lon="0.1711">
        <ele>76.562134</ele>
        <time>2009-05-08T08:28:27Z</time>
      </trkpt>
      <trkpt lat="49.25303" lon="0.17143">
        <ele>68.871582</ele>
        <time>2009-05-08T08:28:33Z</time>
      </trkpt>
      <trkpt lat="49.25299" lon="0.17161">
        <ele>65.50708</ele>
        <time>2009-05-08T08:28:36Z</time>
      </trkpt>
      <trkpt lat="49.25282" lon="0.17202">
        <ele>59.258423</ele>
        <time>2009-05-08T08:28:42Z</time>
      </trkpt>
      <trkpt lat="49.2528" lon="0.17207">
        <ele>58.297119</ele>
        <time>2009-05-08T08:28:43Z</time>
      </trkpt>
      <trkpt lat="49.25289" lon="0.17224">
        <ele>54.932373</ele>
        <time>2009-05-08T08:28:47Z</time>
      </trkpt>
      <trkpt lat="49.25298" lon="0.17233">
        <ele>53.490479</ele>
        <time>2009-05-08T08:28:49Z</time>
      </trkpt>
      <trkpt lat="49.25324" lon="0.1726">
        <ele>53.009766</ele>
        <time>2009-05-08T08:28:54Z</time>
      </trkpt>
      <trkpt lat="49.25357" lon="0.1728">
        <ele>52.048584</ele>
        <time>2009-05-08T08:28:59Z</time>
      </trkpt>
      <trkpt lat="49.25367" lon="0.17286">
        <ele>52.048584</ele>
        <time>2009-05-08T08:29:01Z</time>
      </trkpt>
      <trkpt lat="49.25381" lon="0.17281">
        <ele>53.490479</ele>
        <time>2009-05-08T08:29:05Z</time>
      </trkpt>
      <trkpt lat="49.25385" lon="0.17274">
        <ele>59.739136</ele>
        <time>2009-05-08T08:30:45Z</time>
      </trkpt>
      <trkpt lat="49.25391" lon="0.17265">
        <ele>59.739136</ele>
        <time>2009-05-08T08:30:47Z</time>
      </trkpt>
      <trkpt lat="49.25419" lon="0.17211">
        <ele>56.855103</ele>
        <time>2009-05-08T08:30:57Z</time>
      </trkpt>
      <trkpt lat="49.25428" lon="0.17178">
        <ele>56.374512</ele>
        <time>2009-05-08T08:31:02Z</time>
      </trkpt>
      <trkpt lat="49.25438" lon="0.17172">
        <ele>55.893799</ele>
        <time>2009-05-08T08:31:06Z</time>
      </trkpt>
      <trkpt lat="49.25447" lon="0.1718">
        <ele>56.374512</ele>
        <time>2009-05-08T08:31:13Z</time>
      </trkpt>
      <trkpt lat="49.25452" lon="0.17184">
        <ele>55.893799</ele>
        <time>2009-05-08T08:31:17Z</time>
      </trkpt>
      <trkpt lat="49.25457" lon="0.17189">
        <ele>55.893799</ele>
        <time>2009-05-08T08:31:21Z</time>
      </trkpt>
      <trkpt lat="49.25461" lon="0.17194">
        <ele>58.297119</ele>
        <time>2009-05-08T08:31:25Z</time>
      </trkpt>
      <trkpt lat="49.25469" lon="0.17202">
        <ele>61.661743</ele>
        <time>2009-05-08T08:31:32Z</time>
      </trkpt>
      <trkpt lat="49.25474" lon="0.1721">
        <ele>62.622925</ele>
        <time>2009-05-08T08:31:38Z</time>
      </trkpt>
      <trkpt lat="49.25482" lon="0.17217">
        <ele>63.584351</ele>
        <time>2009-05-08T08:31:46Z</time>
      </trkpt>
      <trkpt lat="49.25488" lon="0.17223">
        <ele>66.468262</ele>
        <time>2009-05-08T08:31:53Z</time>
      </trkpt>
      <trkpt lat="49.2549" lon="0.17225">
        <ele>67.910278</ele>
        <time>2009-05-08T08:31:55Z</time>
      </trkpt>
      <trkpt lat="49.25495" lon="0.17226">
        <ele>70.313477</ele>
        <time>2009-05-08T08:32:02Z</time>
      </trkpt>
      <trkpt lat="49.25499" lon="0.17231">
        <ele>70.794189</ele>
        <time>2009-05-08T08:32:09Z</time>
      </trkpt>
      <trkpt lat="49.25502" lon="0.1723">
        <ele>71.274902</ele>
        <time>2009-05-08T08:32:14Z</time>
      </trkpt>
      <trkpt lat="49.25503" lon="0.17228">
        <ele>71.274902</ele>
        <time>2009-05-08T08:32:16Z</time>
      </trkpt>
      <trkpt lat="49.25507" lon="0.17228">
        <ele>71.274902</ele>
        <time>2009-05-08T08:32:20Z</time>
      </trkpt>
      <trkpt lat="49.25509" lon="0.17226">
        <ele>71.755493</ele>
        <time>2009-05-08T08:32:28Z</time>
      </trkpt>
      <trkpt lat="49.25513" lon="0.17225">
        <ele>72.236206</ele>
        <time>2009-05-08T08:32:32Z</time>
      </trkpt>
      <trkpt lat="49.2552" lon="0.1722">
        <ele>74.158813</ele>
        <time>2009-05-08T08:32:39Z</time>
      </trkpt>
      <trkpt lat="49.25521" lon="0.17219">
        <ele>74.639526</ele>
        <time>2009-05-08T08:32:40Z</time>
      </trkpt>
      <trkpt lat="49.25529" lon="0.17214">
        <ele>78.004028</ele>
        <time>2009-05-08T08:32:47Z</time>
      </trkpt>
      <trkpt lat="49.25537" lon="0.17211">
        <ele>80.407471</ele>
        <time>2009-05-08T08:32:53Z</time>
      </trkpt>
      <trkpt lat="49.25542" lon="0.17209">
        <ele>81.849365</ele>
        <time>2009-05-08T08:32:57Z</time>
      </trkpt>
      <trkpt lat="49.25551" lon="0.17203">
        <ele>86.656006</ele>
        <time>2009-05-08T08:33:05Z</time>
      </trkpt>
      <trkpt lat="49.25554" lon="0.17201">
        <ele>88.098022</ele>
        <time>2009-05-08T08:33:07Z</time>
      </trkpt>
      <trkpt lat="49.2556" lon="0.17193">
        <ele>90.981934</ele>
        <time>2009-05-08T08:33:13Z</time>
      </trkpt>
      <trkpt lat="49.25567" lon="0.17183">
        <ele>91.943237</ele>
        <time>2009-05-08T08:33:19Z</time>
      </trkpt>
      <trkpt lat="49.25575" lon="0.17173">
        <ele>92.42395</ele>
        <time>2009-05-08T08:33:25Z</time>
      </trkpt>
      <trkpt lat="49.25582" lon="0.17164">
        <ele>91.462524</ele>
        <time>2009-05-08T08:33:29Z</time>
      </trkpt>
      <trkpt lat="49.25592" lon="0.17151">
        <ele>92.904541</ele>
        <time>2009-05-08T08:33:36Z</time>
      </trkpt>
      <trkpt lat="49.25599" lon="0.17148">
        <ele>96.269287</ele>
        <time>2009-05-08T08:33:40Z</time>
      </trkpt>
      <trkpt lat="49.25601" lon="0.17147">
        <ele>98.191895</ele>
        <time>2009-05-08T08:33:42Z</time>
      </trkpt>
      <trkpt lat="49.25607" lon="0.17152">
        <ele>100.114502</ele>
        <time>2009-05-08T08:33:49Z</time>
      </trkpt>
      <trkpt lat="49.25609" lon="0.17155">
        <ele>100.114502</ele>
        <time>2009-05-08T08:33:52Z</time>
      </trkpt>
      <trkpt lat="49.25611" lon="0.17161">
        <ele>100.595093</ele>
        <time>2009-05-08T08:33:56Z</time>
      </trkpt>
      <trkpt lat="49.25612" lon="0.17163">
        <ele>101.075684</ele>
        <time>2009-05-08T08:33:58Z</time>
      </trkpt>
      <trkpt lat="49.25618" lon="0.17166">
        <ele>102.037109</ele>
        <time>2009-05-08T08:34:04Z</time>
      </trkpt>
      <trkpt lat="49.2562" lon="0.17168">
        <ele>102.037109</ele>
        <time>2009-05-08T08:34:07Z</time>
      </trkpt>
      <trkpt lat="49.25631" lon="0.17175">
        <ele>103.479004</ele>
        <time>2009-05-08T08:34:14Z</time>
      </trkpt>
      <trkpt lat="49.25632" lon="0.17176">
        <ele>103.959717</ele>
        <time>2009-05-08T08:34:15Z</time>
      </trkpt>
      <trkpt lat="49.25643" lon="0.17174">
        <ele>105.882446</ele>
        <time>2009-05-08T08:34:24Z</time>
      </trkpt>
      <trkpt lat="49.2565" lon="0.17174">
        <ele>106.363037</ele>
        <time>2009-05-08T08:34:29Z</time>
      </trkpt>
      <trkpt lat="49.25656" lon="0.17173">
        <ele>106.363037</ele>
        <time>2009-05-08T08:34:34Z</time>
      </trkpt>
      <trkpt lat="49.25658" lon="0.17173">
        <ele>106.363037</ele>
        <time>2009-05-08T08:34:36Z</time>
      </trkpt>
      <trkpt lat="49.25667" lon="0.17172">
        <ele>106.843628</ele>
        <time>2009-05-08T08:34:42Z</time>
      </trkpt>
      <trkpt lat="49.25668" lon="0.17173">
        <ele>106.843628</ele>
        <time>2009-05-08T08:34:43Z</time>
      </trkpt>
      <trkpt lat="49.25673" lon="0.17174">
        <ele>106.843628</ele>
        <time>2009-05-08T08:34:46Z</time>
      </trkpt>
      <trkpt lat="49.25684" lon="0.17179">
        <ele>105.882446</ele>
        <time>2009-05-08T08:34:53Z</time>
      </trkpt>
      <trkpt lat="49.25688" lon="0.17182">
        <ele>105.882446</ele>
        <time>2009-05-08T08:34:56Z</time>
      </trkpt>
      <trkpt lat="49.25694" lon="0.17182">
        <ele>107.324341</ele>
        <time>2009-05-08T08:35:01Z</time>
      </trkpt>
      <trkpt lat="49.25698" lon="0.17183">
        <ele>107.805054</ele>
        <time>2009-05-08T08:35:03Z</time>
      </trkpt>
      <trkpt lat="49.25709" lon="0.17188">
        <ele>108.766235</ele>
        <time>2009-05-08T08:35:08Z</time>
      </trkpt>
      <trkpt lat="49.25722" lon="0.17199">
        <ele>109.246948</ele>
        <time>2009-05-08T08:35:13Z</time>
      </trkpt>
      <trkpt lat="49.25728" lon="0.17201">
        <ele>108.766235</ele>
        <time>2009-05-08T08:35:15Z</time>
      </trkpt>
      <trkpt lat="49.25746" lon="0.17208">
        <ele>106.843628</ele>
        <time>2009-05-08T08:35:20Z</time>
      </trkpt>
      <trkpt lat="49.25765" lon="0.1722">
        <ele>102.998291</ele>
        <time>2009-05-08T08:35:25Z</time>
      </trkpt>
      <trkpt lat="49.25785" lon="0.17231">
        <ele>98.191895</ele>
        <time>2009-05-08T08:35:30Z</time>
      </trkpt>
      <trkpt lat="49.25799" lon="0.17236">
        <ele>96.269287</ele>
        <time>2009-05-08T08:35:33Z</time>
      </trkpt>
      <trkpt lat="49.25804" lon="0.17237">
        <ele>93.865845</ele>
        <time>2009-05-08T08:35:36Z</time>
      </trkpt>
      <trkpt lat="49.25812" lon="0.17244">
        <ele>90.02063</ele>
        <time>2009-05-08T08:35:42Z</time>
      </trkpt>
      <trkpt lat="49.25823" lon="0.17255">
        <ele>90.501343</ele>
        <time>2009-05-08T08:35:48Z</time>
      </trkpt>
      <trkpt lat="49.25832" lon="0.17266">
        <ele>90.981934</ele>
        <time>2009-05-08T08:35:53Z</time>
      </trkpt>
      <trkpt lat="49.25833" lon="0.17268">
        <ele>91.462524</ele>
        <time>2009-05-08T08:35:54Z</time>
      </trkpt>
      <trkpt lat="49.25835" lon="0.17276">
        <ele>92.904541</ele>
        <time>2009-05-08T08:35:58Z</time>
      </trkpt>
      <trkpt lat="49.25837" lon="0.17281">
        <ele>93.865845</ele>
        <time>2009-05-08T08:36:01Z</time>
      </trkpt>
      <trkpt lat="49.25843" lon="0.17288">
        <ele>96.269287</ele>
        <time>2009-05-08T08:36:06Z</time>
      </trkpt>
      <trkpt lat="49.25851" lon="0.17299">
        <ele>99.153076</ele>
        <time>2009-05-08T08:36:12Z</time>
      </trkpt>
      <trkpt lat="49.25854" lon="0.17307">
        <ele>100.114502</ele>
        <time>2009-05-08T08:36:16Z</time>
      </trkpt>
      <trkpt lat="49.25859" lon="0.17318">
        <ele>100.114502</ele>
        <time>2009-05-08T08:36:23Z</time>
      </trkpt>
      <trkpt lat="49.25861" lon="0.17323">
        <ele>99.633789</ele>
        <time>2009-05-08T08:36:28Z</time>
      </trkpt>
      <trkpt lat="49.25862" lon="0.17329">
        <ele>99.153076</ele>
        <time>2009-05-08T08:36:35Z</time>
      </trkpt>
      <trkpt lat="49.25864" lon="0.1734">
        <ele>99.633789</ele>
        <time>2009-05-08T08:36:54Z</time>
      </trkpt>
      <trkpt lat="49.25865" lon="0.17347">
        <ele>101.075684</ele>
        <time>2009-05-08T08:37:00Z</time>
      </trkpt>
      <trkpt lat="49.25867" lon="0.17359">
        <ele>103.959717</ele>
        <time>2009-05-08T08:37:09Z</time>
      </trkpt>
      <trkpt lat="49.25872" lon="0.17371">
        <ele>107.324341</ele>
        <time>2009-05-08T08:37:17Z</time>
      </trkpt>
      <trkpt lat="49.25873" lon="0.17379">
        <ele>108.766235</ele>
        <time>2009-05-08T08:37:23Z</time>
      </trkpt>
      <trkpt lat="49.25873" lon="0.17387">
        <ele>109.727661</ele>
        <time>2009-05-08T08:37:30Z</time>
      </trkpt>
      <trkpt lat="49.25876" lon="0.17397">
        <ele>112.611572</ele>
        <time>2009-05-08T08:37:37Z</time>
      </trkpt>
      <trkpt lat="49.25881" lon="0.17415">
        <ele>114.53418</ele>
        <time>2009-05-08T08:37:46Z</time>
      </trkpt>
      <trkpt lat="49.25885" lon="0.17434">
        <ele>115.495605</ele>
        <time>2009-05-08T08:37:53Z</time>
      </trkpt>
      <trkpt lat="49.25886" lon="0.17437">
        <ele>116.456787</ele>
        <time>2009-05-08T08:37:55Z</time>
      </trkpt>
      <trkpt lat="49.25887" lon="0.17447">
        <ele>117.898804</ele>
        <time>2009-05-08T08:38:01Z</time>
      </trkpt>
      <trkpt lat="49.25887" lon="0.17452">
        <ele>118.379395</ele>
        <time>2009-05-08T08:38:06Z</time>
      </trkpt>
      <trkpt lat="49.25888" lon="0.17461">
        <ele>118.860107</ele>
        <time>2009-05-08T08:38:12Z</time>
      </trkpt>
      <trkpt lat="49.2589" lon="0.1747">
        <ele>120.302124</ele>
        <time>2009-05-08T08:38:18Z</time>
      </trkpt>
      <trkpt lat="49.25891" lon="0.17482">
        <ele>121.744141</ele>
        <time>2009-05-08T08:38:26Z</time>
      </trkpt>
      <trkpt lat="49.25893" lon="0.17486">
        <ele>122.224731</ele>
        <time>2009-05-08T08:38:29Z</time>
      </trkpt>
      <trkpt lat="49.25893" lon="0.17488">
        <ele>122.705444</ele>
        <time>2009-05-08T08:38:31Z</time>
      </trkpt>
      <trkpt lat="49.25897" lon="0.17499">
        <ele>123.666748</ele>
        <time>2009-05-08T08:38:39Z</time>
      </trkpt>
      <trkpt lat="49.25899" lon="0.17509">
        <ele>125.589355</ele>
        <time>2009-05-08T08:38:46Z</time>
      </trkpt>
      <trkpt lat="49.25901" lon="0.17514">
        <ele>128.473389</ele>
        <time>2009-05-08T08:38:52Z</time>
      </trkpt>
      <trkpt lat="49.25902" lon="0.1752">
        <ele>129.915283</ele>
        <time>2009-05-08T08:38:56Z</time>
      </trkpt>
      <trkpt lat="49.25903" lon="0.1753">
        <ele>129.915283</ele>
        <time>2009-05-08T08:39:01Z</time>
      </trkpt>
      <trkpt lat="49.25907" lon="0.17546">
        <ele>128.954102</ele>
        <time>2009-05-08T08:39:08Z</time>
      </trkpt>
      <trkpt lat="49.25908" lon="0.17553">
        <ele>129.434692</ele>
        <time>2009-05-08T08:39:11Z</time>
      </trkpt>
      <trkpt lat="49.25909" lon="0.17566">
        <ele>130.395996</ele>
        <time>2009-05-08T08:39:16Z</time>
      </trkpt>
      <trkpt lat="49.2591" lon="0.17585">
        <ele>129.915283</ele>
        <time>2009-05-08T08:39:23Z</time>
      </trkpt>
      <trkpt lat="49.25911" lon="0.17595">
        <ele>128.954102</ele>
        <time>2009-05-08T08:39:26Z</time>
      </trkpt>
      <trkpt lat="49.25905" lon="0.17618">
        <ele>125.589355</ele>
        <time>2009-05-08T08:39:32Z</time>
      </trkpt>
      <trkpt lat="49.25916" lon="0.17643">
        <ele>122.224731</ele>
        <time>2009-05-08T08:39:37Z</time>
      </trkpt>
      <trkpt lat="49.25919" lon="0.17647">
        <ele>121.26355</ele>
        <time>2009-05-08T08:39:38Z</time>
      </trkpt>
      <trkpt lat="49.25935" lon="0.17665">
        <ele>119.34082</ele>
        <time>2009-05-08T08:39:42Z</time>
      </trkpt>
      <trkpt lat="49.25946" lon="0.17675">
        <ele>119.34082</ele>
        <time>2009-05-08T08:39:45Z</time>
      </trkpt>
      <trkpt lat="49.25966" lon="0.17698">
        <ele>119.34082</ele>
        <time>2009-05-08T08:39:50Z</time>
      </trkpt>
      <trkpt lat="49.25982" lon="0.17721">
        <ele>119.821411</ele>
        <time>2009-05-08T08:39:54Z</time>
      </trkpt>
      <trkpt lat="49.26002" lon="0.17734">
        <ele>120.302124</ele>
        <time>2009-05-08T08:39:58Z</time>
      </trkpt>
      <trkpt lat="49.26023" lon="0.17743">
        <ele>120.782837</ele>
        <time>2009-05-08T08:40:02Z</time>
      </trkpt>
      <trkpt lat="49.26037" lon="0.17753">
        <ele>120.302124</ele>
        <time>2009-05-08T08:40:05Z</time>
      </trkpt>
      <trkpt lat="49.26051" lon="0.17766">
        <ele>119.821411</ele>
        <time>2009-05-08T08:40:08Z</time>
      </trkpt>
      <trkpt lat="49.2606" lon="0.17776">
        <ele>118.860107</ele>
        <time>2009-05-08T08:40:10Z</time>
      </trkpt>
      <trkpt lat="49.26075" lon="0.17796">
        <ele>116.9375</ele>
        <time>2009-05-08T08:40:15Z</time>
      </trkpt>
      <trkpt lat="49.26088" lon="0.1781">
        <ele>114.53418</ele>
        <time>2009-05-08T08:40:20Z</time>
      </trkpt>
      <trkpt lat="49.26101" lon="0.17827">
        <ele>112.611572</ele>
        <time>2009-05-08T08:40:25Z</time>
      </trkpt>
      <trkpt lat="49.26117" lon="0.17845">
        <ele>111.169556</ele>
        <time>2009-05-08T08:40:30Z</time>
      </trkpt>
      <trkpt lat="49.26121" lon="0.17848">
        <ele>111.169556</ele>
        <time>2009-05-08T08:40:31Z</time>
      </trkpt>
      <trkpt lat="49.26134" lon="0.17861">
        <ele>111.169556</ele>
        <time>2009-05-08T08:40:34Z</time>
      </trkpt>
      <trkpt lat="49.26175" lon="0.17885">
        <ele>108.766235</ele>
        <time>2009-05-08T08:40:40Z</time>
      </trkpt>
      <trkpt lat="49.26182" lon="0.17888">
        <ele>108.285645</ele>
        <time>2009-05-08T08:40:41Z</time>
      </trkpt>
      <trkpt lat="49.262" lon="0.1791">
        <ele>104.44043</ele>
        <time>2009-05-08T08:40:46Z</time>
      </trkpt>
      <trkpt lat="49.26204" lon="0.1792">
        <ele>102.998291</ele>
        <time>2009-05-08T08:40:50Z</time>
      </trkpt>
      <trkpt lat="49.26204" lon="0.17922">
        <ele>101.075684</ele>
        <time>2009-05-08T08:40:53Z</time>
      </trkpt>
      <trkpt lat="49.26198" lon="0.17932">
        <ele>101.556396</ele>
        <time>2009-05-08T08:41:02Z</time>
      </trkpt>
      <trkpt lat="49.26197" lon="0.1794">
        <ele>102.998291</ele>
        <time>2009-05-08T08:41:08Z</time>
      </trkpt>
      <trkpt lat="49.26198" lon="0.17945">
        <ele>105.401733</ele>
        <time>2009-05-08T08:41:14Z</time>
      </trkpt>
      <trkpt lat="49.262" lon="0.17958">
        <ele>108.285645</ele>
        <time>2009-05-08T08:41:21Z</time>
      </trkpt>
      <trkpt lat="49.26203" lon="0.17968">
        <ele>109.727661</ele>
        <time>2009-05-08T08:41:28Z</time>
      </trkpt>
      <trkpt lat="49.26207" lon="0.17977">
        <ele>110.688843</ele>
        <time>2009-05-08T08:41:35Z</time>
      </trkpt>
      <trkpt lat="49.26209" lon="0.17981">
        <ele>110.688843</ele>
        <time>2009-05-08T08:41:38Z</time>
      </trkpt>
      <trkpt lat="49.26218" lon="0.17993">
        <ele>110.688843</ele>
        <time>2009-05-08T08:41:44Z</time>
      </trkpt>
      <trkpt lat="49.26219" lon="0.17996">
        <ele>111.169556</ele>
        <time>2009-05-08T08:41:45Z</time>
      </trkpt>
      <trkpt lat="49.26224" lon="0.18017">
        <ele>115.014893</ele>
        <time>2009-05-08T08:41:52Z</time>
      </trkpt>
      <trkpt lat="49.26226" lon="0.18035">
        <ele>116.9375</ele>
        <time>2009-05-08T08:41:57Z</time>
      </trkpt>
      <trkpt lat="49.26226" lon="0.18055">
        <ele>119.821411</ele>
        <time>2009-05-08T08:42:04Z</time>
      </trkpt>
      <trkpt lat="49.26224" lon="0.18077">
        <ele>120.782837</ele>
        <time>2009-05-08T08:42:11Z</time>
      </trkpt>
      <trkpt lat="49.26222" lon="0.18091">
        <ele>121.744141</ele>
        <time>2009-05-08T08:42:17Z</time>
      </trkpt>
      <trkpt lat="49.26218" lon="0.18112">
        <ele>121.744141</ele>
        <time>2009-05-08T08:42:25Z</time>
      </trkpt>
      <trkpt lat="49.26215" lon="0.18119">
        <ele>122.224731</ele>
        <time>2009-05-08T08:42:30Z</time>
      </trkpt>
      <trkpt lat="49.26213" lon="0.18125">
        <ele>123.186157</ele>
        <time>2009-05-08T08:42:35Z</time>
      </trkpt>
      <trkpt lat="49.26209" lon="0.18134">
        <ele>122.705444</ele>
        <time>2009-05-08T08:42:41Z</time>
      </trkpt>
      <trkpt lat="49.26206" lon="0.18142">
        <ele>123.186157</ele>
        <time>2009-05-08T08:42:44Z</time>
      </trkpt>
      <trkpt lat="49.26202" lon="0.18156">
        <ele>124.147339</ele>
        <time>2009-05-08T08:42:52Z</time>
      </trkpt>
      <trkpt lat="49.26201" lon="0.18158">
        <ele>124.147339</ele>
        <time>2009-05-08T08:42:53Z</time>
      </trkpt>
      <trkpt lat="49.26197" lon="0.18166">
        <ele>124.628052</ele>
        <time>2009-05-08T08:42:59Z</time>
      </trkpt>
      <trkpt lat="49.26197" lon="0.18168">
        <ele>124.628052</ele>
        <time>2009-05-08T08:43:00Z</time>
      </trkpt>
      <trkpt lat="49.26191" lon="0.18187">
        <ele>124.628052</ele>
        <time>2009-05-08T08:43:07Z</time>
      </trkpt>
      <trkpt lat="49.2619" lon="0.18193">
        <ele>124.628052</ele>
        <time>2009-05-08T08:43:10Z</time>
      </trkpt>
      <trkpt lat="49.26184" lon="0.18208">
        <ele>125.589355</ele>
        <time>2009-05-08T08:43:16Z</time>
      </trkpt>
      <trkpt lat="49.2618" lon="0.18222">
        <ele>125.589355</ele>
        <time>2009-05-08T08:43:21Z</time>
      </trkpt>
      <trkpt lat="49.26178" lon="0.18236">
        <ele>124.628052</ele>
        <time>2009-05-08T08:43:26Z</time>
      </trkpt>
      <trkpt lat="49.26174" lon="0.18252">
        <ele>124.628052</ele>
        <time>2009-05-08T08:43:31Z</time>
      </trkpt>
      <trkpt lat="49.26176" lon="0.18282">
        <ele>122.224731</ele>
        <time>2009-05-08T08:43:38Z</time>
      </trkpt>
      <trkpt lat="49.26183" lon="0.18305">
        <ele>119.34082</ele>
        <time>2009-05-08T08:43:44Z</time>
      </trkpt>
      <trkpt lat="49.26187" lon="0.18329">
        <ele>118.860107</ele>
        <time>2009-05-08T08:43:49Z</time>
      </trkpt>
      <trkpt lat="49.26198" lon="0.18356">
        <ele>117.898804</ele>
        <time>2009-05-08T08:43:55Z</time>
      </trkpt>
      <trkpt lat="49.26209" lon="0.18385">
        <ele>115.014893</ele>
        <time>2009-05-08T08:44:03Z</time>
      </trkpt>
      <trkpt lat="49.26216" lon="0.18404">
        <ele>115.014893</ele>
        <time>2009-05-08T08:44:10Z</time>
      </trkpt>
      <trkpt lat="49.26223" lon="0.18423">
        <ele>115.014893</ele>
        <time>2009-05-08T08:44:17Z</time>
      </trkpt>
      <trkpt lat="49.26234" lon="0.18452">
        <ele>116.456787</ele>
        <time>2009-05-08T08:44:26Z</time>
      </trkpt>
      <trkpt lat="49.26239" lon="0.18464">
        <ele>115.976196</ele>
        <time>2009-05-08T08:44:30Z</time>
      </trkpt>
      <trkpt lat="49.26247" lon="0.18484">
        <ele>117.898804</ele>
        <time>2009-05-08T08:44:36Z</time>
      </trkpt>
      <trkpt lat="49.26248" lon="0.18491">
        <ele>118.860107</ele>
        <time>2009-05-08T08:44:38Z</time>
      </trkpt>
      <trkpt lat="49.26251" lon="0.18501">
        <ele>119.34082</ele>
        <time>2009-05-08T08:44:42Z</time>
      </trkpt>
      <trkpt lat="49.26258" lon="0.18511">
        <ele>119.34082</ele>
        <time>2009-05-08T08:44:45Z</time>
      </trkpt>
      <trkpt lat="49.26264" lon="0.18517">
        <ele>118.379395</ele>
        <time>2009-05-08T08:44:47Z</time>
      </trkpt>
      <trkpt lat="49.26278" lon="0.1853">
        <ele>115.976196</ele>
        <time>2009-05-08T08:44:52Z</time>
      </trkpt>
      <trkpt lat="49.26289" lon="0.18544">
        <ele>113.092285</ele>
        <time>2009-05-08T08:44:57Z</time>
      </trkpt>
      <trkpt lat="49.26305" lon="0.18565">
        <ele>110.208252</ele>
        <time>2009-05-08T08:45:04Z</time>
      </trkpt>
      <trkpt lat="49.26307" lon="0.18568">
        <ele>109.727661</ele>
        <time>2009-05-08T08:45:05Z</time>
      </trkpt>
      <trkpt lat="49.26322" lon="0.18581">
        <ele>108.285645</ele>
        <time>2009-05-08T08:45:10Z</time>
      </trkpt>
      <trkpt lat="49.26344" lon="0.18593">
        <ele>107.324341</ele>
        <time>2009-05-08T08:45:16Z</time>
      </trkpt>
      <trkpt lat="49.26362" lon="0.18595">
        <ele>106.363037</ele>
        <time>2009-05-08T08:45:21Z</time>
      </trkpt>
      <trkpt lat="49.26376" lon="0.18597">
        <ele>105.401733</ele>
        <time>2009-05-08T08:45:24Z</time>
      </trkpt>
      <trkpt lat="49.26405" lon="0.18607">
        <ele>105.401733</ele>
        <time>2009-05-08T08:45:30Z</time>
      </trkpt>
      <trkpt lat="49.2641" lon="0.18607">
        <ele>104.921021</ele>
        <time>2009-05-08T08:45:31Z</time>
      </trkpt>
      <trkpt lat="49.26426" lon="0.18613">
        <ele>105.401733</ele>
        <time>2009-05-08T08:45:34Z</time>
      </trkpt>
      <trkpt lat="49.26457" lon="0.18625">
        <ele>104.921021</ele>
        <time>2009-05-08T08:45:40Z</time>
      </trkpt>
      <trkpt lat="49.2647" lon="0.18635">
        <ele>104.921021</ele>
        <time>2009-05-08T08:45:43Z</time>
      </trkpt>
      <trkpt lat="49.26486" lon="0.18644">
        <ele>105.401733</ele>
        <time>2009-05-08T08:45:46Z</time>
      </trkpt>
      <trkpt lat="49.26502" lon="0.18646">
        <ele>107.324341</ele>
        <time>2009-05-08T08:45:50Z</time>
      </trkpt>
      <trkpt lat="49.26521" lon="0.18653">
        <ele>110.208252</ele>
        <time>2009-05-08T08:45:54Z</time>
      </trkpt>
      <trkpt lat="49.2653" lon="0.18659">
        <ele>110.688843</ele>
        <time>2009-05-08T08:45:56Z</time>
      </trkpt>
      <trkpt lat="49.26553" lon="0.18671">
        <ele>111.169556</ele>
        <time>2009-05-08T08:46:00Z</time>
      </trkpt>
      <trkpt lat="49.26562" lon="0.1869">
        <ele>110.688843</ele>
        <time>2009-05-08T08:46:04Z</time>
      </trkpt>
      <trkpt lat="49.26558" lon="0.18703">
        <ele>110.688843</ele>
        <time>2009-05-08T08:46:07Z</time>
      </trkpt>
      <trkpt lat="49.26548" lon="0.18721">
        <ele>112.130981</ele>
        <time>2009-05-08T08:46:12Z</time>
      </trkpt>
      <trkpt lat="49.26543" lon="0.18729">
        <ele>111.650269</ele>
        <time>2009-05-08T08:46:14Z</time>
      </trkpt>
      <trkpt lat="49.26526" lon="0.18757">
        <ele>113.572998</ele>
        <time>2009-05-08T08:46:20Z</time>
      </trkpt>
      <trkpt lat="49.26517" lon="0.1877">
        <ele>115.014893</ele>
        <time>2009-05-08T08:46:23Z</time>
      </trkpt>
      <trkpt lat="49.26497" lon="0.18797">
        <ele>115.014893</ele>
        <time>2009-05-08T08:46:29Z</time>
      </trkpt>
      <trkpt lat="49.26494" lon="0.18802">
        <ele>114.53418</ele>
        <time>2009-05-08T08:46:30Z</time>
      </trkpt>
      <trkpt lat="49.26482" lon="0.18816">
        <ele>115.014893</ele>
        <time>2009-05-08T08:46:33Z</time>
      </trkpt>
      <trkpt lat="49.26448" lon="0.18839">
        <ele>116.9375</ele>
        <time>2009-05-08T08:46:40Z</time>
      </trkpt>
      <trkpt lat="49.26412" lon="0.18854">
        <ele>117.418213</ele>
        <time>2009-05-08T08:46:47Z</time>
      </trkpt>
      <trkpt lat="49.26397" lon="0.18864">
        <ele>117.418213</ele>
        <time>2009-05-08T08:46:50Z</time>
      </trkpt>
      <trkpt lat="49.26376" lon="0.18884">
        <ele>117.418213</ele>
        <time>2009-05-08T08:46:55Z</time>
      </trkpt>
      <trkpt lat="49.2636" lon="0.18909">
        <ele>117.898804</ele>
        <time>2009-05-08T08:47:01Z</time>
      </trkpt>
      <trkpt lat="49.26332" lon="0.18938">
        <ele>121.744141</ele>
        <time>2009-05-08T08:47:09Z</time>
      </trkpt>
      <trkpt lat="49.26317" lon="0.18949">
        <ele>124.147339</ele>
        <time>2009-05-08T08:47:13Z</time>
      </trkpt>
      <trkpt lat="49.26301" lon="0.18961">
        <ele>126.550659</ele>
        <time>2009-05-08T08:47:17Z</time>
      </trkpt>
      <trkpt lat="49.26289" lon="0.18973">
        <ele>128.954102</ele>
        <time>2009-05-08T08:47:20Z</time>
      </trkpt>
      <trkpt lat="49.26276" lon="0.18983">
        <ele>132.318604</ele>
        <time>2009-05-08T08:47:23Z</time>
      </trkpt>
      <trkpt lat="49.26243" lon="0.19002">
        <ele>136.16394</ele>
        <time>2009-05-08T08:47:30Z</time>
      </trkpt>
      <trkpt lat="49.26233" lon="0.19008">
        <ele>136.644653</ele>
        <time>2009-05-08T08:47:32Z</time>
      </trkpt>
      <trkpt lat="49.2622" lon="0.19018">
        <ele>137.125244</ele>
        <time>2009-05-08T08:47:35Z</time>
      </trkpt>
      <trkpt lat="49.26201" lon="0.19035">
        <ele>137.125244</ele>
        <time>2009-05-08T08:47:39Z</time>
      </trkpt>
      <trkpt lat="49.26192" lon="0.19044">
        <ele>137.125244</ele>
        <time>2009-05-08T08:47:41Z</time>
      </trkpt>
      <trkpt lat="49.2617" lon="0.19057">
        <ele>138.086548</ele>
        <time>2009-05-08T08:47:46Z</time>
      </trkpt>
      <trkpt lat="49.26139" lon="0.19056">
        <ele>139.528442</ele>
        <time>2009-05-08T08:47:52Z</time>
      </trkpt>
      <trkpt lat="49.26122" lon="0.19055">
        <ele>140.489868</ele>
        <time>2009-05-08T08:47:55Z</time>
      </trkpt>
      <trkpt lat="49.26094" lon="0.19057">
        <ele>142.412476</ele>
        <time>2009-05-08T08:48:00Z</time>
      </trkpt>
      <trkpt lat="49.26051" lon="0.19061">
        <ele>145.7771</ele>
        <time>2009-05-08T08:48:07Z</time>
      </trkpt>
      <trkpt lat="49.2602" lon="0.19064">
        <ele>148.18042</ele>
        <time>2009-05-08T08:48:12Z</time>
      </trkpt>
      <trkpt lat="49.25981" lon="0.19069">
        <ele>151.544922</ele>
        <time>2009-05-08T08:48:18Z</time>
      </trkpt>
      <trkpt lat="49.25967" lon="0.1907">
        <ele>152.506348</ele>
        <time>2009-05-08T08:48:20Z</time>
      </trkpt>
      <trkpt lat="49.25914" lon="0.19065">
        <ele>156.351563</ele>
        <time>2009-05-08T08:48:28Z</time>
      </trkpt>
      <trkpt lat="49.25907" lon="0.19064">
        <ele>156.351563</ele>
        <time>2009-05-08T08:48:29Z</time>
      </trkpt>
      <trkpt lat="49.25885" lon="0.19064">
        <ele>157.312866</ele>
        <time>2009-05-08T08:48:32Z</time>
      </trkpt>
      <trkpt lat="49.25852" lon="0.19064">
        <ele>158.754761</ele>
        <time>2009-05-08T08:48:37Z</time>
      </trkpt>
      <trkpt lat="49.25838" lon="0.19064">
        <ele>157.312866</ele>
        <time>2009-05-08T08:48:39Z</time>
      </trkpt>
      <trkpt lat="49.25811" lon="0.19092">
        <ele>141.931763</ele>
        <time>2009-05-08T08:48:44Z</time>
      </trkpt>
      <trkpt lat="49.25807" lon="0.19106">
        <ele>138.086548</ele>
        <time>2009-05-08T08:48:46Z</time>
      </trkpt>
      <trkpt lat="49.25796" lon="0.19177">
        <ele>130.876709</ele>
        <time>2009-05-08T08:48:56Z</time>
      </trkpt>
      <trkpt lat="49.2579" lon="0.19245">
        <ele>127.031372</ele>
        <time>2009-05-08T08:49:05Z</time>
      </trkpt>
      <trkpt lat="49.25788" lon="0.19313">
        <ele>124.147339</ele>
        <time>2009-05-08T08:49:14Z</time>
      </trkpt>
      <trkpt lat="49.25789" lon="0.19347">
        <ele>123.186157</ele>
        <time>2009-05-08T08:49:18Z</time>
      </trkpt>
      <trkpt lat="49.2579" lon="0.19412">
        <ele>121.26355</ele>
        <time>2009-05-08T08:49:24Z</time>
      </trkpt>
      <trkpt lat="49.25791" lon="0.19492">
        <ele>118.860107</ele>
        <time>2009-05-08T08:49:30Z</time>
      </trkpt>
      <trkpt lat="49.2579" lon="0.19564">
        <ele>116.456787</ele>
        <time>2009-05-08T08:49:36Z</time>
      </trkpt>
      <trkpt lat="49.2579" lon="0.19584">
        <ele>115.495605</ele>
        <time>2009-05-08T08:49:38Z</time>
      </trkpt>
      <trkpt lat="49.25789" lon="0.19618">
        <ele>114.53418</ele>
        <time>2009-05-08T08:49:42Z</time>
      </trkpt>
      <trkpt lat="49.25791" lon="0.19635">
        <ele>114.53418</ele>
        <time>2009-05-08T08:49:44Z</time>
      </trkpt>
      <trkpt lat="49.25795" lon="0.19669">
        <ele>114.053589</ele>
        <time>2009-05-08T08:49:48Z</time>
      </trkpt>
      <trkpt lat="49.25798" lon="0.19686">
        <ele>113.572998</ele>
        <time>2009-05-08T08:49:50Z</time>
      </trkpt>
      <trkpt lat="49.25801" lon="0.19716">
        <ele>114.53418</ele>
        <time>2009-05-08T08:49:54Z</time>
      </trkpt>
      <trkpt lat="49.25811" lon="0.1975">
        <ele>113.572998</ele>
        <time>2009-05-08T08:49:59Z</time>
      </trkpt>
      <trkpt lat="49.25823" lon="0.19768">
        <ele>111.650269</ele>
        <time>2009-05-08T08:50:01Z</time>
      </trkpt>
      <trkpt lat="49.25847" lon="0.19814">
        <ele>106.843628</ele>
        <time>2009-05-08T08:50:06Z</time>
      </trkpt>
      <trkpt lat="49.25852" lon="0.19819">
        <ele>105.882446</ele>
        <time>2009-05-08T08:50:07Z</time>
      </trkpt>
      <trkpt lat="49.25904" lon="0.19839">
        <ele>96.269287</ele>
        <time>2009-05-08T08:50:14Z</time>
      </trkpt>
      <trkpt lat="49.2594" lon="0.19871">
        <ele>91.943237</ele>
        <time>2009-05-08T08:50:21Z</time>
      </trkpt>
      <trkpt lat="49.25982" lon="0.19916">
        <ele>86.175293</ele>
        <time>2009-05-08T08:50:29Z</time>
      </trkpt>
      <trkpt lat="49.26008" lon="0.19929">
        <ele>84.252686</ele>
        <time>2009-05-08T08:50:33Z</time>
      </trkpt>
      <trkpt lat="49.26042" lon="0.19958">
        <ele>81.849365</ele>
        <time>2009-05-08T08:50:38Z</time>
      </trkpt>
      <trkpt lat="49.26084" lon="0.1998">
        <ele>78.965454</ele>
        <time>2009-05-08T08:50:43Z</time>
      </trkpt>
      <trkpt lat="49.26141" lon="0.20011">
        <ele>76.081421</ele>
        <time>2009-05-08T08:50:50Z</time>
      </trkpt>
      <trkpt lat="49.26172" lon="0.20025">
        <ele>73.678223</ele>
        <time>2009-05-08T08:50:55Z</time>
      </trkpt>
      <trkpt lat="49.26174" lon="0.20042">
        <ele>71.755493</ele>
        <time>2009-05-08T08:50:57Z</time>
      </trkpt>
      <trkpt lat="49.26173" lon="0.201">
        <ele>69.832886</ele>
        <time>2009-05-08T08:51:03Z</time>
      </trkpt>
      <trkpt lat="49.26178" lon="0.20121">
        <ele>68.871582</ele>
        <time>2009-05-08T08:51:07Z</time>
      </trkpt>
      <trkpt lat="49.26204" lon="0.20125">
        <ele>65.987671</ele>
        <time>2009-05-08T08:51:14Z</time>
      </trkpt>
      <trkpt lat="49.26224" lon="0.20125">
        <ele>65.50708</ele>
        <time>2009-05-08T08:51:19Z</time>
      </trkpt>
      <trkpt lat="49.26259" lon="0.20125">
        <ele>65.50708</ele>
        <time>2009-05-08T08:51:28Z</time>
      </trkpt>
      <trkpt lat="49.26287" lon="0.20122">
        <ele>65.50708</ele>
        <time>2009-05-08T08:51:35Z</time>
      </trkpt>
      <trkpt lat="49.26317" lon="0.20114">
        <ele>64.545654</ele>
        <time>2009-05-08T08:51:43Z</time>
      </trkpt>
      <trkpt lat="49.26327" lon="0.20111">
        <ele>63.584351</ele>
        <time>2009-05-08T08:51:46Z</time>
      </trkpt>
      <trkpt lat="49.26337" lon="0.20126">
        <ele>63.584351</ele>
        <time>2009-05-08T08:51:51Z</time>
      </trkpt>
      <trkpt lat="49.26346" lon="0.20158">
        <ele>63.103638</ele>
        <time>2009-05-08T08:51:58Z</time>
      </trkpt>
      <trkpt lat="49.26351" lon="0.20178">
        <ele>63.103638</ele>
        <time>2009-05-08T08:52:04Z</time>
      </trkpt>
      <trkpt lat="49.26353" lon="0.20184">
        <ele>63.103638</ele>
        <time>2009-05-08T08:52:08Z</time>
      </trkpt>
      <trkpt lat="49.26357" lon="0.20197">
        <ele>62.622925</ele>
        <time>2009-05-08T08:52:11Z</time>
      </trkpt>
      <trkpt lat="49.26361" lon="0.2025">
        <ele>58.297119</ele>
        <time>2009-05-08T08:52:18Z</time>
      </trkpt>
      <trkpt lat="49.2636" lon="0.20271">
        <ele>56.374512</ele>
        <time>2009-05-08T08:52:21Z</time>
      </trkpt>
      <trkpt lat="49.26358" lon="0.20288">
        <ele>55.413086</ele>
        <time>2009-05-08T08:52:23Z</time>
      </trkpt>
      <trkpt lat="49.26353" lon="0.20351">
        <ele>52.048584</ele>
        <time>2009-05-08T08:52:29Z</time>
      </trkpt>
      <trkpt lat="49.26354" lon="0.20382">
        <ele>51.567871</ele>
        <time>2009-05-08T08:52:34Z</time>
      </trkpt>
      <trkpt lat="49.26346" lon="0.20385">
        <ele>51.087158</ele>
        <time>2009-05-08T08:52:40Z</time>
      </trkpt>
      <trkpt lat="49.26332" lon="0.20386">
        <ele>50.125977</ele>
        <time>2009-05-08T08:52:46Z</time>
      </trkpt>
      <trkpt lat="49.2633" lon="0.20397">
        <ele>50.125977</ele>
        <time>2009-05-08T08:52:50Z</time>
      </trkpt>
      <trkpt lat="49.26331" lon="0.20402">
        <ele>50.606567</ele>
        <time>2009-05-08T08:52:52Z</time>
      </trkpt>
      <trkpt lat="49.26331" lon="0.20431">
        <ele>50.606567</ele>
        <time>2009-05-08T08:53:00Z</time>
      </trkpt>
      <trkpt lat="49.26332" lon="0.20459">
        <ele>51.087158</ele>
        <time>2009-05-08T08:53:06Z</time>
      </trkpt>
      <trkpt lat="49.26342" lon="0.20481">
        <ele>52.048584</ele>
        <time>2009-05-08T08:53:11Z</time>
      </trkpt>
      <trkpt lat="49.26377" lon="0.20521">
        <ele>50.606567</ele>
        <time>2009-05-08T08:53:19Z</time>
      </trkpt>
      <trkpt lat="49.26419" lon="0.20564">
        <ele>47.722534</ele>
        <time>2009-05-08T08:53:26Z</time>
      </trkpt>
      <trkpt lat="49.26457" lon="0.20581">
        <ele>44.358032</ele>
        <time>2009-05-08T08:53:31Z</time>
      </trkpt>
      <trkpt lat="49.26527" lon="0.20606">
        <ele>40.512817</ele>
        <time>2009-05-08T08:53:39Z</time>
      </trkpt>
      <trkpt lat="49.26586" lon="0.20626">
        <ele>38.590088</ele>
        <time>2009-05-08T08:53:46Z</time>
      </trkpt>
      <trkpt lat="49.26625" lon="0.20647">
        <ele>36.66748</ele>
        <time>2009-05-08T08:53:51Z</time>
      </trkpt>
      <trkpt lat="49.26645" lon="0.20661">
        <ele>35.706055</ele>
        <time>2009-05-08T08:53:54Z</time>
      </trkpt>
      <trkpt lat="49.26684" lon="0.20687">
        <ele>32.822266</ele>
        <time>2009-05-08T08:54:00Z</time>
      </trkpt>
      <trkpt lat="49.26703" lon="0.20686">
        <ele>29.93811</ele>
        <time>2009-05-08T08:54:05Z</time>
      </trkpt>
      <trkpt lat="49.26704" lon="0.20682">
        <ele>29.45752</ele>
        <time>2009-05-08T08:54:06Z</time>
      </trkpt>
      <trkpt lat="49.26704" lon="0.20654">
        <ele>28.015503</ele>
        <time>2009-05-08T08:54:12Z</time>
      </trkpt>
      <trkpt lat="49.26706" lon="0.20638">
        <ele>26.092896</ele>
        <time>2009-05-08T08:54:16Z</time>
      </trkpt>
      <trkpt lat="49.26709" lon="0.20608">
        <ele>23.689575</ele>
        <time>2009-05-08T08:54:23Z</time>
      </trkpt>
      <trkpt lat="49.26709" lon="0.20588">
        <ele>21.286377</ele>
        <time>2009-05-08T08:54:27Z</time>
      </trkpt>
      <trkpt lat="49.26709" lon="0.20561">
        <ele>20.805664</ele>
        <time>2009-05-08T08:54:33Z</time>
      </trkpt>
      <trkpt lat="49.26711" lon="0.20531">
        <ele>21.766968</ele>
        <time>2009-05-08T08:54:39Z</time>
      </trkpt>
      <trkpt lat="49.26713" lon="0.20505">
        <ele>21.766968</ele>
        <time>2009-05-08T08:54:44Z</time>
      </trkpt>
      <trkpt lat="49.26712" lon="0.20463">
        <ele>19.36377</ele>
        <time>2009-05-08T08:54:50Z</time>
      </trkpt>
      <trkpt lat="49.26717" lon="0.20461">
        <ele>18.402344</ele>
        <time>2009-05-08T08:54:53Z</time>
      </trkpt>
      <trkpt lat="49.26729" lon="0.20469">
        <ele>17.441162</ele>
        <time>2009-05-08T08:54:56Z</time>
      </trkpt>
      <trkpt lat="49.26762" lon="0.20494">
        <ele>13.595825</ele>
        <time>2009-05-08T08:55:02Z</time>
      </trkpt>
      <trkpt lat="49.26773" lon="0.20497">
        <ele>12.153809</ele>
        <time>2009-05-08T08:55:06Z</time>
      </trkpt>
      <trkpt lat="49.26781" lon="0.20491">
        <ele>13.595825</ele>
        <time>2009-05-08T08:55:11Z</time>
      </trkpt>
      <trkpt lat="49.26783" lon="0.20482">
        <ele>14.557007</ele>
        <time>2009-05-08T08:55:13Z</time>
      </trkpt>
      <trkpt lat="49.2679" lon="0.2044">
        <ele>14.557007</ele>
        <time>2009-05-08T08:55:21Z</time>
      </trkpt>
      <trkpt lat="49.26792" lon="0.20397">
        <ele>13.595825</ele>
        <time>2009-05-08T08:55:28Z</time>
      </trkpt>
      <trkpt lat="49.26793" lon="0.20385">
        <ele>12.634399</ele>
        <time>2009-05-08T08:55:30Z</time>
      </trkpt>
      <trkpt lat="49.26792" lon="0.20343">
        <ele>9.269897</ele>
        <time>2009-05-08T08:55:36Z</time>
      </trkpt>
      <trkpt lat="49.26791" lon="0.20323">
        <ele>8.308594</ele>
        <time>2009-05-08T08:55:39Z</time>
      </trkpt>
      <trkpt lat="49.26789" lon="0.20266">
        <ele>6.866455</ele>
        <time>2009-05-08T08:55:47Z</time>
      </trkpt>
      <trkpt lat="49.26791" lon="0.20234">
        <ele>7.347168</ele>
        <time>2009-05-08T08:55:51Z</time>
      </trkpt>
      <trkpt lat="49.26792" lon="0.20208">
        <ele>8.308594</ele>
        <time>2009-05-08T08:55:54Z</time>
      </trkpt>
      <trkpt lat="49.26798" lon="0.20174">
        <ele>8.789185</ele>
        <time>2009-05-08T08:55:58Z</time>
      </trkpt>
      <trkpt lat="49.26823" lon="0.20099">
        <ele>7.347168</ele>
        <time>2009-05-08T08:56:07Z</time>
      </trkpt>
      <trkpt lat="49.2686" lon="0.20042">
        <ele>9.75061</ele>
        <time>2009-05-08T08:56:14Z</time>
      </trkpt>
      <trkpt lat="49.26902" lon="0.19989">
        <ele>11.673218</ele>
        <time>2009-05-08T08:56:21Z</time>
      </trkpt>
      <trkpt lat="49.26953" lon="0.1993">
        <ele>13.115112</ele>
        <time>2009-05-08T08:56:29Z</time>
      </trkpt>
      <trkpt lat="49.26998" lon="0.19867">
        <ele>14.557007</ele>
        <time>2009-05-08T08:56:37Z</time>
      </trkpt>
      <trkpt lat="49.2705" lon="0.19793">
        <ele>14.076416</ele>
        <time>2009-05-08T08:56:46Z</time>
      </trkpt>
      <trkpt lat="49.27098" lon="0.19714">
        <ele>13.115112</ele>
        <time>2009-05-08T08:56:55Z</time>
      </trkpt>
      <trkpt lat="49.2714" lon="0.19635">
        <ele>13.115112</ele>
        <time>2009-05-08T08:57:04Z</time>
      </trkpt>
      <trkpt lat="49.27182" lon="0.19554">
        <ele>13.595825</ele>
        <time>2009-05-08T08:57:13Z</time>
      </trkpt>
      <trkpt lat="49.27222" lon="0.19484">
        <ele>14.557007</ele>
        <time>2009-05-08T08:57:21Z</time>
      </trkpt>
      <trkpt lat="49.27262" lon="0.1942">
        <ele>15.518433</ele>
        <time>2009-05-08T08:57:29Z</time>
      </trkpt>
      <trkpt lat="49.27305" lon="0.19354">
        <ele>15.03772</ele>
        <time>2009-05-08T08:57:38Z</time>
      </trkpt>
      <trkpt lat="49.27342" lon="0.19303">
        <ele>14.557007</ele>
        <time>2009-05-08T08:57:46Z</time>
      </trkpt>
      <trkpt lat="49.27379" lon="0.19254">
        <ele>14.557007</ele>
        <time>2009-05-08T08:57:54Z</time>
      </trkpt>
      <trkpt lat="49.27412" lon="0.19212">
        <ele>15.999023</ele>
        <time>2009-05-08T08:58:01Z</time>
      </trkpt>
      <trkpt lat="49.27459" lon="0.19152">
        <ele>16.960449</ele>
        <time>2009-05-08T08:58:11Z</time>
      </trkpt>
      <trkpt lat="49.27489" lon="0.19114">
        <ele>17.921753</ele>
        <time>2009-05-08T08:58:18Z</time>
      </trkpt>
      <trkpt lat="49.27504" lon="0.19092">
        <ele>18.883057</ele>
        <time>2009-05-08T08:58:22Z</time>
      </trkpt>
      <trkpt lat="49.27527" lon="0.19061">
        <ele>17.441162</ele>
        <time>2009-05-08T08:58:28Z</time>
      </trkpt>
      <trkpt lat="49.27547" lon="0.19036">
        <ele>16.960449</ele>
        <time>2009-05-08T08:58:33Z</time>
      </trkpt>
      <trkpt lat="49.27573" lon="0.19004">
        <ele>18.883057</ele>
        <time>2009-05-08T08:58:41Z</time>
      </trkpt>
      <trkpt lat="49.27582" lon="0.18994">
        <ele>19.36377</ele>
        <time>2009-05-08T08:58:44Z</time>
      </trkpt>
      <trkpt lat="49.27611" lon="0.18958">
        <ele>19.84436</ele>
        <time>2009-05-08T08:58:53Z</time>
      </trkpt>
      <trkpt lat="49.27641" lon="0.18925">
        <ele>18.883057</ele>
        <time>2009-05-08T08:59:01Z</time>
      </trkpt>
      <trkpt lat="49.27676" lon="0.18898">
        <ele>16.960449</ele>
        <time>2009-05-08T08:59:08Z</time>
      </trkpt>
      <trkpt lat="49.27681" lon="0.18895">
        <ele>16.960449</ele>
        <time>2009-05-08T08:59:09Z</time>
      </trkpt>
      <trkpt lat="49.27726" lon="0.18869">
        <ele>16.479736</ele>
        <time>2009-05-08T08:59:16Z</time>
      </trkpt>
      <trkpt lat="49.27787" lon="0.1884">
        <ele>15.03772</ele>
        <time>2009-05-08T08:59:24Z</time>
      </trkpt>
      <trkpt lat="49.27852" lon="0.1881">
        <ele>13.595825</ele>
        <time>2009-05-08T08:59:32Z</time>
      </trkpt>
      <trkpt lat="49.27914" lon="0.1878">
        <ele>14.076416</ele>
        <time>2009-05-08T08:59:40Z</time>
      </trkpt>
      <trkpt lat="49.27936" lon="0.18769">
        <ele>14.076416</ele>
        <time>2009-05-08T08:59:43Z</time>
      </trkpt>
      <trkpt lat="49.27995" lon="0.18741">
        <ele>13.595825</ele>
        <time>2009-05-08T08:59:52Z</time>
      </trkpt>
      <trkpt lat="49.28039" lon="0.18721">
        <ele>13.115112</ele>
        <time>2009-05-08T08:59:59Z</time>
      </trkpt>
      <trkpt lat="49.28092" lon="0.18698">
        <ele>13.115112</ele>
        <time>2009-05-08T09:00:07Z</time>
      </trkpt>
      <trkpt lat="49.28138" lon="0.18671">
        <ele>13.595825</ele>
        <time>2009-05-08T09:00:14Z</time>
      </trkpt>
      <trkpt lat="49.28192" lon="0.18622">
        <ele>14.076416</ele>
        <time>2009-05-08T09:00:23Z</time>
      </trkpt>
      <trkpt lat="49.28237" lon="0.1857">
        <ele>16.479736</ele>
        <time>2009-05-08T09:00:31Z</time>
      </trkpt>
      <trkpt lat="49.28284" lon="0.18517">
        <ele>16.479736</ele>
        <time>2009-05-08T09:00:39Z</time>
      </trkpt>
      <trkpt lat="49.28332" lon="0.18465">
        <ele>15.999023</ele>
        <time>2009-05-08T09:00:47Z</time>
      </trkpt>
      <trkpt lat="49.28381" lon="0.18411">
        <ele>14.076416</ele>
        <time>2009-05-08T09:00:55Z</time>
      </trkpt>
      <trkpt lat="49.2843" lon="0.18358">
        <ele>12.634399</ele>
        <time>2009-05-08T09:01:03Z</time>
      </trkpt>
      <trkpt lat="49.28465" lon="0.18319">
        <ele>11.673218</ele>
        <time>2009-05-08T09:01:09Z</time>
      </trkpt>
      <trkpt lat="49.28485" lon="0.18297">
        <ele>10.711792</ele>
        <time>2009-05-08T09:01:13Z</time>
      </trkpt>
      <trkpt lat="49.28495" lon="0.18293">
        <ele>9.269897</ele>
        <time>2009-05-08T09:01:17Z</time>
      </trkpt>
      <trkpt lat="49.28497" lon="0.18296">
        <ele>9.269897</ele>
        <time>2009-05-08T09:01:18Z</time>
      </trkpt>
      <trkpt lat="49.28501" lon="0.18304">
        <ele>9.269897</ele>
        <time>2009-05-08T09:01:20Z</time>
      </trkpt>
      <trkpt lat="49.28514" lon="0.18328">
        <ele>10.711792</ele>
        <time>2009-05-08T09:01:25Z</time>
      </trkpt>
      <trkpt lat="49.28531" lon="0.1836">
        <ele>11.192505</ele>
        <time>2009-05-08T09:01:31Z</time>
      </trkpt>
      <trkpt lat="49.28539" lon="0.18377">
        <ele>12.153809</ele>
        <time>2009-05-08T09:01:34Z</time>
      </trkpt>
      <trkpt lat="49.28562" lon="0.18421">
        <ele>14.557007</ele>
        <time>2009-05-08T09:01:42Z</time>
      </trkpt>
      <trkpt lat="49.28575" lon="0.18445">
        <ele>14.557007</ele>
        <time>2009-05-08T09:01:46Z</time>
      </trkpt>
      <trkpt lat="49.28592" lon="0.18486">
        <ele>14.557007</ele>
        <time>2009-05-08T09:01:54Z</time>
      </trkpt>
      <trkpt lat="49.28593" lon="0.18489">
        <ele>15.03772</ele>
        <time>2009-05-08T09:01:55Z</time>
      </trkpt>
      <trkpt lat="49.28587" lon="0.18503">
        <ele>15.03772</ele>
        <time>2009-05-08T09:01:59Z</time>
      </trkpt>
      <trkpt lat="49.28573" lon="0.18516">
        <ele>15.03772</ele>
        <time>2009-05-08T09:02:06Z</time>
      </trkpt>
      <trkpt lat="49.28573" lon="0.18516">
        <ele>14.557007</ele>
        <time>2009-05-08T09:02:15Z</time>
      </trkpt>
      <trkpt lat="49.28574" lon="0.18515">
        <ele>15.03772</ele>
        <time>2009-05-08T09:02:25Z</time>
      </trkpt>
    </trkseg>
  </trk>
</gpx>